Time,TemperatureF,DewpointF,PressureIn,WindDirection,WindDirectionDegrees,WindSpeedMPH,WindSpeedGustMPH,Humidity,HourlyPrecipIn,Conditions,Clouds,dailyrainin,SoftwareType,DateUTC
2013-09-19 00:00:00,61.7,41.8,0.00,North,0,12.8,28.4,48,0.00,,---,0.00,VWS V14.01,2013-09-19 05:00:00,
2013-09-19 00:01:00,61.7,41.8,0.00,North,0,22.6,22.6,48,0.00,,---,0.00,VWS V14.01,2013-09-19 05:01:00,
2013-09-19 00:02:00,61.5,41.6,0.00,NW,315,10.3,22.6,48,0.00,,---,0.00,VWS V14.01,2013-09-19 05:02:00,
2013-09-19 00:03:00,61.5,41.6,0.00,NW,315,13.2,22.6,48,0.00,,---,0.00,VWS V14.01,2013-09-19 05:03:00,
2013-09-19 00:05:00,61.8,42.0,0.00,NNW,338,23.7,23.7,48,0.00,,---,0.00,VWS V14.01,2013-09-19 05:05:00,
2013-09-19 00:06:00,62.0,42.1,0.00,North,0,17.0,23.7,48,0.00,,---,0.00,VWS V14.01,2013-09-19 05:06:00,
2013-09-19 00:07:00,62.0,41.6,0.00,North,0,23.3,23.7,47,0.00,,---,0.00,VWS V14.01,2013-09-19 05:07:00,
2013-09-19 00:08:00,62.0,41.6,0.00,North,0,17.0,23.9,47,0.00,,---,0.00,VWS V14.01,2013-09-19 05:08:00,
2013-09-19 00:09:00,62.0,41.6,0.00,North,0,17.0,23.9,47,0.00,,---,0.00,VWS V14.01,2013-09-19 05:09:00,
2013-09-19 00:10:00,62.0,41.6,0.00,NE,45,22.6,27.5,47,0.00,,---,0.00,VWS V14.01,2013-09-19 05:10:00,
2013-09-19 00:11:00,62.0,41.6,0.00,North,0,23.3,27.5,47,0.00,,---,0.00,VWS V14.01,2013-09-19 05:11:00,
2013-09-19 00:12:00,61.8,41.4,0.00,North,0,17.2,27.5,47,0.00,,---,0.00,VWS V14.01,2013-09-19 05:12:00,
2013-09-19 00:13:00,61.8,41.4,0.00,North,0,16.8,27.5,47,0.00,,---,0.00,VWS V14.01,2013-09-19 05:13:00,
2013-09-19 00:14:00,62.0,41.6,0.00,North,0,16.8,27.5,47,0.00,,---,0.00,VWS V14.01,2013-09-19 05:14:00,
2013-09-19 00:15:00,62.2,41.7,0.00,North,0,15.4,27.5,47,0.00,,---,0.00,VWS V14.01,2013-09-19 05:15:00,
2013-09-19 00:16:00,62.2,41.7,0.00,NW,315,10.7,25.5,47,0.00,,---,0.00,VWS V14.01,2013-09-19 05:16:00,
2013-09-19 00:17:00,62.2,41.7,0.00,North,0,18.6,25.5,47,0.00,,---,0.00,VWS V14.01,2013-09-19 05:17:00,
2013-09-19 00:18:00,62.4,41.9,0.00,NE,45,12.5,25.5,47,0.00,,---,0.00,VWS V14.01,2013-09-19 05:18:00,
2013-09-19 00:19:00,62.2,41.2,0.00,NNE,22,20.1,25.5,46,0.00,,---,0.00,VWS V14.01,2013-09-19 05:19:00,
2013-09-19 00:20:00,62.2,41.2,0.00,North,0,16.3,25.5,46,0.00,,---,0.00,VWS V14.01,2013-09-19 05:20:00,
2013-09-19 00:21:00,62.2,41.2,0.00,North,0,20.8,25.5,46,0.00,,---,0.00,VWS V14.01,2013-09-19 05:21:00,
2013-09-19 00:22:00,62.2,41.2,0.00,North,0,21.9,25.5,46,0.00,,---,0.00,VWS V14.01,2013-09-19 05:22:00,
2013-09-19 00:23:00,62.2,41.2,0.00,North,0,20.4,25.5,46,0.00,,---,0.00,VWS V14.01,2013-09-19 05:23:00,
2013-09-19 00:24:00,62.0,41.0,0.00,North,0,10.7,25.7,46,0.00,,---,0.00,VWS V14.01,2013-09-19 05:24:00,
2013-09-19 00:25:00,62.2,41.2,0.00,North,0,14.8,25.7,46,0.00,,---,0.00,VWS V14.01,2013-09-19 05:25:00,
2013-09-19 00:26:00,62.4,41.3,0.00,North,0,17.2,25.7,46,0.00,,---,0.00,VWS V14.01,2013-09-19 05:26:00,
2013-09-19 00:27:00,62.4,41.3,0.00,NNW,338,15.4,25.7,46,0.00,,---,0.00,VWS V14.01,2013-09-19 05:27:00,
2013-09-19 00:28:00,62.6,41.0,0.00,NNE,22,21.9,25.7,45,0.00,,---,0.00,VWS V14.01,2013-09-19 05:28:00,
2013-09-19 00:29:00,62.7,41.7,0.00,North,0,15.2,25.7,46,0.00,,---,0.00,VWS V14.01,2013-09-19 05:29:00,
2013-09-19 00:30:00,62.7,41.1,0.00,North,0,17.7,25.7,45,0.00,,---,0.00,VWS V14.01,2013-09-19 05:30:00,
2013-09-19 00:31:00,62.7,41.1,0.00,North,0,22.8,22.8,45,0.00,,---,0.00,VWS V14.01,2013-09-19 05:31:00,
2013-09-19 00:32:00,62.7,41.1,0.00,NE,45,12.8,22.8,45,0.00,,---,0.00,VWS V14.01,2013-09-19 05:32:00,
2013-09-19 00:33:00,62.7,41.1,0.00,North,0,15.4,22.8,45,0.00,,---,0.00,VWS V14.01,2013-09-19 05:33:00,
2013-09-19 00:34:00,62.6,41.0,0.00,NNE,22,15.4,22.8,45,0.00,,---,0.00,VWS V14.01,2013-09-19 05:34:00,
2013-09-19 00:35:00,62.6,41.0,0.00,NNE,22,14.8,22.8,45,0.00,,---,0.00,VWS V14.01,2013-09-19 05:35:00,
2013-09-19 00:38:00,62.7,41.1,0.00,NNE,22,14.8,22.8,45,0.00,,---,0.00,VWS V14.01,2013-09-19 05:38:00,
2013-09-19 00:39:00,62.7,41.1,0.00,North,0,12.8,22.8,45,0.00,,---,0.00,VWS V14.01,2013-09-19 05:39:00,
2013-09-19 00:40:00,62.7,41.1,0.00,North,0,14.5,22.8,45,0.00,,---,0.00,VWS V14.01,2013-09-19 05:40:00,
2013-09-19 00:41:00,62.7,41.1,0.00,NNE,22,17.0,23.3,45,0.00,,---,0.00,VWS V14.01,2013-09-19 05:41:00,
2013-09-19 00:42:00,62.6,41.0,0.00,NNE,22,12.1,23.3,45,0.00,,---,0.00,VWS V14.01,2013-09-19 05:42:00,
2013-09-19 00:43:00,62.9,41.3,0.00,NNE,22,16.3,23.3,45,0.00,,---,0.00,VWS V14.01,2013-09-19 05:43:00,
2013-09-19 00:44:00,62.9,41.3,0.00,NNE,22,14.1,23.3,45,0.00,,---,0.00,VWS V14.01,2013-09-19 05:44:00,
2013-09-19 00:45:00,62.9,41.3,0.00,NNE,22,17.5,23.3,45,0.00,,---,0.00,VWS V14.01,2013-09-19 05:45:00,
2013-09-19 00:46:00,62.9,41.3,0.00,North,0,17.0,17.7,45,0.00,,---,0.00,VWS V14.01,2013-09-19 05:46:00,
2013-09-19 00:47:00,62.9,41.3,0.00,NNE,22,13.2,17.7,45,0.00,,---,0.00,VWS V14.01,2013-09-19 05:47:00,
2013-09-19 00:48:00,62.9,41.8,0.00,North,0,17.7,17.7,46,0.00,,---,0.00,VWS V14.01,2013-09-19 05:48:00,
2013-09-19 00:49:00,62.7,41.1,0.00,NNE,22,15.7,19.7,45,0.00,,---,0.00,VWS V14.01,2013-09-19 05:49:00,
2013-09-19 00:50:00,62.7,41.1,0.00,North,0,13.0,19.7,45,0.00,,---,0.00,VWS V14.01,2013-09-19 05:50:00,
2013-09-19 00:51:00,62.7,41.7,0.00,North,0,14.3,19.7,46,0.00,,---,0.00,VWS V14.01,2013-09-19 05:51:00,
2013-09-19 00:52:00,62.7,41.7,0.00,NNE,22,10.7,19.7,46,0.00,,---,0.00,VWS V14.01,2013-09-19 05:52:00,
2013-09-19 00:54:00,62.7,41.7,0.00,North,0,15.2,19.7,46,0.00,,---,0.00,VWS V14.01,2013-09-19 05:54:00,
2013-09-19 00:55:00,62.6,41.5,0.00,NE,45,13.0,19.7,46,0.00,,---,0.00,VWS V14.01,2013-09-19 05:55:00,
2013-09-19 00:56:00,62.6,41.5,0.00,North,0,14.5,19.7,46,0.00,,---,0.00,VWS V14.01,2013-09-19 05:56:00,
2013-09-19 00:57:00,62.6,41.5,0.00,NNE,22,13.0,21.9,46,0.00,,---,0.00,VWS V14.01,2013-09-19 05:57:00,
2013-09-19 00:58:00,62.7,41.7,0.00,NNE,22,15.4,21.9,46,0.00,,---,0.00,VWS V14.01,2013-09-19 05:58:00,
2013-09-19 00:59:00,63.1,42.0,0.00,NNE,22,14.5,21.9,46,0.00,,---,0.00,VWS V14.01,2013-09-19 05:59:00,
2013-09-19 01:00:00,63.5,42.9,0.00,NNE,22,17.5,21.9,47,0.00,,---,0.00,VWS V14.01,2013-09-19 06:00:00,
2013-09-19 01:01:00,63.5,42.9,0.00,North,0,14.8,17.5,47,0.00,,---,0.00,VWS V14.01,2013-09-19 06:01:00,
2013-09-19 01:02:00,63.5,42.9,0.00,NNE,22,12.5,17.5,47,0.00,,---,0.00,VWS V14.01,2013-09-19 06:02:00,
2013-09-19 01:04:00,63.6,43.1,0.00,NE,45,17.2,17.5,47,0.00,,---,0.00,VWS V14.01,2013-09-19 06:04:00,
2013-09-19 01:05:00,63.6,43.1,0.00,NNE,22,11.0,17.5,47,0.00,,---,0.00,VWS V14.01,2013-09-19 06:05:00,
2013-09-19 01:06:00,63.6,42.5,0.00,NE,45,12.5,17.5,46,0.00,,---,0.00,VWS V14.01,2013-09-19 06:06:00,
2013-09-19 01:07:00,63.6,42.5,0.00,NNE,22,15.2,17.5,46,0.00,,---,0.00,VWS V14.01,2013-09-19 06:07:00,
2013-09-19 01:08:00,64.4,42.6,0.00,North,0,13.6,17.5,45,0.00,,---,0.00,VWS V14.01,2013-09-19 06:08:00,
2013-09-19 01:09:00,64.4,42.6,0.00,NNE,22,12.5,17.5,45,0.00,,---,0.00,VWS V14.01,2013-09-19 06:09:00,
2013-09-19 01:10:00,64.4,42.6,0.00,North,0,14.8,17.5,45,0.00,,---,0.00,VWS V14.01,2013-09-19 06:10:00,
2013-09-19 01:11:00,65.3,43.4,0.00,North,0,13.2,17.5,45,0.00,,---,0.00,VWS V14.01,2013-09-19 06:11:00,
2013-09-19 01:12:00,65.3,43.4,0.00,NE,45,15.4,17.5,45,0.00,,---,0.00,VWS V14.01,2013-09-19 06:12:00,
2013-09-19 01:13:00,65.4,43.6,0.00,North,0,15.2,17.5,45,0.00,,---,0.00,VWS V14.01,2013-09-19 06:13:00,
2013-09-19 01:14:00,65.8,43.3,0.00,North,0,13.9,17.5,44,0.00,,---,0.00,VWS V14.01,2013-09-19 06:14:00,
2013-09-19 01:15:00,66.3,44.4,0.00,NE,45,12.3,17.5,45,0.00,,---,0.00,VWS V14.01,2013-09-19 06:15:00,
2013-09-19 01:16:00,66.5,44.0,0.00,NNE,22,17.0,17.0,44,0.00,,---,0.00,VWS V14.01,2013-09-19 06:16:00,
2013-09-19 01:17:00,66.2,43.6,0.00,NNE,22,12.5,17.0,44,0.00,,---,0.00,VWS V14.01,2013-09-19 06:17:00,
2013-09-19 01:18:00,66.2,43.6,0.00,North,0,12.8,17.0,44,0.00,,---,0.00,VWS V14.01,2013-09-19 06:18:00,
2013-09-19 01:19:00,66.2,43.6,0.00,North,0,14.8,17.0,44,0.00,,---,0.00,VWS V14.01,2013-09-19 06:19:00,
2013-09-19 01:20:00,66.2,43.6,0.00,North,0,14.8,17.0,44,0.00,,---,0.00,VWS V14.01,2013-09-19 06:20:00,
2013-09-19 01:21:00,65.1,42.7,0.00,NE,45,14.3,17.0,44,0.00,,---,0.00,VWS V14.01,2013-09-19 06:21:00,
2013-09-19 01:22:00,65.1,42.7,0.00,North,0,13.2,17.0,44,0.00,,---,0.00,VWS V14.01,2013-09-19 06:22:00,
2013-09-19 01:23:00,64.9,42.5,0.00,North,0,9.6,17.0,44,0.00,,---,0.00,VWS V14.01,2013-09-19 06:23:00,
2013-09-19 01:24:00,64.9,42.5,0.00,North,0,8.1,17.0,44,0.00,,---,0.00,VWS V14.01,2013-09-19 06:24:00,
2013-09-19 01:25:00,64.9,42.5,0.00,NE,45,10.3,17.0,44,0.00,,---,0.00,VWS V14.01,2013-09-19 06:25:00,
2013-09-19 01:26:00,65.1,42.7,0.00,NE,45,10.3,17.0,44,0.00,,---,0.00,VWS V14.01,2013-09-19 06:26:00,
2013-09-19 01:27:00,65.1,42.7,0.00,North,0,13.9,17.0,44,0.00,,---,0.00,VWS V14.01,2013-09-19 06:27:00,
2013-09-19 01:28:00,65.1,42.7,0.00,NE,45,12.3,17.0,44,0.00,,---,0.00,VWS V14.01,2013-09-19 06:28:00,
2013-09-19 01:29:00,64.7,42.9,0.00,NNE,22,10.3,17.0,45,0.00,,---,0.00,VWS V14.01,2013-09-19 06:29:00,
2013-09-19 01:30:00,64.7,42.9,0.00,North,0,11.0,17.0,45,0.00,,---,0.00,VWS V14.01,2013-09-19 06:30:00,
2013-09-19 01:31:00,64.7,42.9,0.00,North,0,6.3,11.0,45,0.00,,---,0.00,VWS V14.01,2013-09-19 06:31:00,
2013-09-19 01:32:00,64.7,42.9,0.00,North,0,6.0,12.1,45,0.00,,---,0.00,VWS V14.01,2013-09-19 06:32:00,
2013-09-19 01:33:00,64.9,43.1,0.00,NNE,22,12.8,12.8,45,0.00,,---,0.00,VWS V14.01,2013-09-19 06:33:00,
2013-09-19 01:34:00,64.9,43.1,0.00,North,0,8.5,12.8,45,0.00,,---,0.00,VWS V14.01,2013-09-19 06:34:00,
2013-09-19 01:35:00,64.9,43.1,0.00,NNE,22,10.1,12.8,45,0.00,,---,0.00,VWS V14.01,2013-09-19 06:35:00,
2013-09-19 01:36:00,65.6,43.7,0.00,NNE,22,11.9,12.8,45,0.00,,---,0.00,VWS V14.01,2013-09-19 06:36:00,
2013-09-19 01:37:00,66.2,44.2,0.00,North,0,10.1,12.8,45,0.00,,---,0.00,VWS V14.01,2013-09-19 06:37:00,
2013-09-19 01:38:00,66.5,44.5,0.00,NNE,22,7.8,12.8,45,0.00,,---,0.00,VWS V14.01,2013-09-19 06:38:00,
2013-09-19 01:39:00,66.5,44.5,0.00,North,0,10.5,12.8,45,0.00,,---,0.00,VWS V14.01,2013-09-19 06:39:00,
2013-09-19 01:40:00,66.5,44.5,0.00,NE,45,11.0,12.8,45,0.00,,---,0.00,VWS V14.01,2013-09-19 06:40:00,
2013-09-19 01:42:00,67.4,44.8,0.00,NE,45,11.0,12.8,44,0.00,,---,0.00,VWS V14.01,2013-09-19 06:42:00,
2013-09-19 01:43:00,67.4,44.8,0.00,NE,45,7.8,12.8,44,0.00,,---,0.00,VWS V14.01,2013-09-19 06:43:00,
2013-09-19 01:44:00,68.0,44.7,0.00,North,0,8.1,12.8,43,0.00,,---,0.00,VWS V14.01,2013-09-19 06:44:00,
2013-09-19 01:45:00,68.0,44.7,0.00,North,0,8.1,12.8,43,0.00,,---,0.00,VWS V14.01,2013-09-19 06:45:00,
2013-09-19 01:46:00,68.5,45.1,0.00,NE,45,12.8,13.2,43,0.00,,---,0.00,VWS V14.01,2013-09-19 06:46:00,
2013-09-19 01:47:00,68.5,45.1,0.00,NE,45,6.3,13.2,43,0.00,,---,0.00,VWS V14.01,2013-09-19 06:47:00,
2013-09-19 01:48:00,69.0,45.6,0.00,NNE,22,8.7,13.2,43,0.00,,---,0.00,VWS V14.01,2013-09-19 06:48:00,
2013-09-19 01:49:00,68.9,45.5,0.00,NNE,22,15.2,15.2,43,0.00,,---,0.00,VWS V14.01,2013-09-19 06:49:00,
2013-09-19 01:50:00,68.9,44.8,0.00,NE,45,10.1,15.2,42,0.00,,---,0.00,VWS V14.01,2013-09-19 06:50:00,
2013-09-19 01:51:00,68.9,44.8,0.00,North,0,10.7,15.2,42,0.00,,---,0.00,VWS V14.01,2013-09-19 06:51:00,
2013-09-19 01:52:00,69.0,45.0,0.00,NE,45,7.6,15.2,42,0.00,,---,0.00,VWS V14.01,2013-09-19 06:52:00,
2013-09-19 01:53:00,69.4,45.3,0.00,North,0,9.6,15.2,42,0.00,,---,0.00,VWS V14.01,2013-09-19 06:53:00,
2013-09-19 01:55:00,69.4,45.3,0.00,North,0,9.6,15.2,42,0.00,,---,0.00,VWS V14.01,2013-09-19 06:55:00,
2013-09-19 01:56:00,69.4,45.3,0.00,NE,45,9.8,15.2,42,0.00,,---,0.00,VWS V14.01,2013-09-19 06:56:00,
2013-09-19 01:57:00,69.8,45.7,0.00,NE,45,12.3,15.2,42,0.00,,---,0.00,VWS V14.01,2013-09-19 06:57:00,
2013-09-19 01:59:00,69.9,45.8,0.00,NE,45,12.8,15.2,42,0.00,,---,0.00,VWS V14.01,2013-09-19 06:59:00,
2013-09-19 02:00:00,69.4,44.7,0.00,NE,45,13.0,15.2,41,0.00,,---,0.00,VWS V14.01,2013-09-19 07:00:00,
2013-09-19 02:01:00,69.4,44.7,0.00,NE,45,10.3,13.0,41,0.00,,---,0.00,VWS V14.01,2013-09-19 07:01:00,
2013-09-19 02:02:00,69.4,44.7,0.00,NE,45,10.3,13.0,41,0.00,,---,0.00,VWS V14.01,2013-09-19 07:02:00,
2013-09-19 02:03:00,69.9,45.2,0.00,NE,45,9.8,17.0,41,0.00,,---,0.00,VWS V14.01,2013-09-19 07:03:00,
2013-09-19 02:04:00,69.9,45.2,0.00,NNE,22,13.6,17.0,41,0.00,,---,0.00,VWS V14.01,2013-09-19 07:04:00,
2013-09-19 02:05:00,69.9,45.2,0.00,NE,45,10.5,17.0,41,0.00,,---,0.00,VWS V14.01,2013-09-19 07:05:00,
2013-09-19 02:06:00,69.9,45.2,0.00,North,0,10.5,17.0,41,0.00,,---,0.00,VWS V14.01,2013-09-19 07:06:00,
2013-09-19 02:07:00,70.3,46.2,0.00,NE,45,9.6,17.0,42,0.00,,---,0.00,VWS V14.01,2013-09-19 07:07:00,
2013-09-19 02:08:00,70.3,46.2,0.00,North,0,10.3,17.0,42,0.00,,---,0.00,VWS V14.01,2013-09-19 07:08:00,
2013-09-19 02:09:00,69.9,45.8,0.00,NE,45,10.5,17.0,42,0.00,,---,0.00,VWS V14.01,2013-09-19 07:09:00,
2013-09-19 02:10:00,70.3,46.2,0.00,NNE,22,9.8,17.0,42,0.00,,---,0.00,VWS V14.01,2013-09-19 07:10:00,
2013-09-19 02:12:00,69.8,45.0,0.00,North,0,13.2,17.0,41,0.00,,---,0.00,VWS V14.01,2013-09-19 07:12:00,
2013-09-19 02:13:00,69.8,45.0,0.00,NNE,22,10.7,17.0,41,0.00,,---,0.00,VWS V14.01,2013-09-19 07:13:00,
2013-09-19 02:15:00,70.3,46.2,0.00,North,0,7.8,17.0,42,0.00,,---,0.00,VWS V14.01,2013-09-19 07:15:00,
2013-09-19 02:16:00,71.4,47.1,0.00,North,0,11.0,12.1,42,0.00,,---,0.00,VWS V14.01,2013-09-19 07:16:00,
2013-09-19 02:17:00,71.2,47.0,0.00,North,0,15.7,17.0,42,0.00,,---,0.00,VWS V14.01,2013-09-19 07:17:00,
2013-09-19 02:18:00,71.0,46.8,0.00,North,0,13.2,17.0,42,0.00,,---,0.00,VWS V14.01,2013-09-19 07:18:00,
2013-09-19 02:19:00,70.7,46.5,0.00,North,0,17.0,17.0,42,0.00,,---,0.00,VWS V14.01,2013-09-19 07:19:00,
2013-09-19 02:20:00,70.1,46.0,0.00,North,0,12.3,17.0,42,0.00,,---,0.00,VWS V14.01,2013-09-19 07:20:00,
2013-09-19 02:21:00,70.1,46.0,0.00,North,0,14.5,17.0,42,0.00,,---,0.00,VWS V14.01,2013-09-19 07:21:00,
2013-09-19 02:22:00,70.5,46.9,0.00,North,0,10.1,17.0,43,0.00,,---,0.00,VWS V14.01,2013-09-19 07:22:00,
2013-09-19 02:23:00,70.5,46.9,0.00,North,0,10.1,17.0,43,0.00,,---,0.00,VWS V14.01,2013-09-19 07:23:00,
2013-09-19 02:24:00,70.8,47.3,0.00,North,0,15.2,17.0,43,0.00,,---,0.00,VWS V14.01,2013-09-19 07:24:00,
2013-09-19 02:25:00,70.8,47.3,0.00,North,0,17.5,17.5,43,0.00,,---,0.00,VWS V14.01,2013-09-19 07:25:00,
2013-09-19 02:26:00,70.8,47.3,0.00,North,0,14.3,17.5,43,0.00,,---,0.00,VWS V14.01,2013-09-19 07:26:00,
2013-09-19 02:27:00,70.3,46.8,0.00,NW,315,8.5,17.5,43,0.00,,---,0.00,VWS V14.01,2013-09-19 07:27:00,
2013-09-19 02:28:00,70.5,46.9,0.00,North,0,9.6,17.5,43,0.00,,---,0.00,VWS V14.01,2013-09-19 07:28:00,
2013-09-19 02:29:00,69.6,46.1,0.00,North,0,10.3,17.5,43,0.00,,---,0.00,VWS V14.01,2013-09-19 07:29:00,
2013-09-19 02:30:00,69.0,45.6,0.00,North,0,11.4,17.5,43,0.00,,---,0.00,VWS V14.01,2013-09-19 07:30:00,
2013-09-19 02:31:00,68.7,45.3,0.00,North,0,8.5,11.4,43,0.00,,---,0.00,VWS V14.01,2013-09-19 07:31:00,
2013-09-19 02:32:00,68.3,45.6,0.00,NNW,338,15.2,15.2,44,0.00,,---,0.00,VWS V14.01,2013-09-19 07:32:00,
2013-09-19 02:33:00,67.8,45.1,0.00,North,0,7.8,15.2,44,0.00,,---,0.00,VWS V14.01,2013-09-19 07:33:00,
2013-09-19 02:34:00,67.4,44.8,0.00,North,0,7.8,17.7,44,0.00,,---,0.00,VWS V14.01,2013-09-19 07:34:00,
2013-09-19 02:35:00,67.6,44.9,0.00,North,0,11.0,17.7,44,0.00,,---,0.00,VWS V14.01,2013-09-19 07:35:00,
2013-09-19 02:36:00,67.4,45.4,0.00,NNE,22,6.3,17.7,45,0.00,,---,0.00,VWS V14.01,2013-09-19 07:36:00,
2013-09-19 02:37:00,68.0,45.8,0.00,North,0,6.5,17.7,45,0.00,,---,0.00,VWS V14.01,2013-09-19 07:37:00,
2013-09-19 02:38:00,68.1,46.0,0.00,North,0,14.1,17.7,45,0.00,,---,0.00,VWS V14.01,2013-09-19 07:38:00,
2013-09-19 02:40:00,68.7,46.5,0.00,North,0,6.5,17.7,45,0.00,,---,0.00,VWS V14.01,2013-09-19 07:40:00,
2013-09-19 02:41:00,69.0,46.8,0.00,NW,315,9.8,17.7,45,0.00,,---,0.00,VWS V14.01,2013-09-19 07:41:00,
2013-09-19 02:42:00,69.0,46.8,0.00,NW,315,9.8,17.7,45,0.00,,---,0.00,VWS V14.01,2013-09-19 07:42:00,
2013-09-19 02:43:00,69.4,46.6,0.00,NW,315,12.8,18.1,44,0.00,,---,0.00,VWS V14.01,2013-09-19 07:43:00,
2013-09-19 02:44:00,69.4,46.6,0.00,NW,315,12.8,18.1,44,0.00,,---,0.00,VWS V14.01,2013-09-19 07:44:00,
2013-09-19 02:45:00,69.6,46.7,0.00,North,0,12.5,18.1,44,0.00,,---,0.00,VWS V14.01,2013-09-19 07:45:00,
2013-09-19 02:46:00,69.6,46.7,0.00,NNE,22,15.4,15.9,44,0.00,,---,0.00,VWS V14.01,2013-09-19 07:46:00,
2013-09-19 02:47:00,69.4,46.6,0.00,North,0,9.4,17.7,44,0.00,,---,0.00,VWS V14.01,2013-09-19 07:47:00,
2013-09-19 02:48:00,69.4,46.6,0.00,North,0,17.5,17.7,44,0.00,,---,0.00,VWS V14.01,2013-09-19 07:48:00,
2013-09-19 02:49:00,69.4,46.6,0.00,NNW,338,8.5,17.7,44,0.00,,---,0.00,VWS V14.01,2013-09-19 07:49:00,
2013-09-19 02:50:00,69.4,46.6,0.00,North,0,11.0,17.7,44,0.00,,---,0.00,VWS V14.01,2013-09-19 07:50:00,
2013-09-19 02:51:00,69.4,46.6,0.00,North,0,10.5,17.7,44,0.00,,---,0.00,VWS V14.01,2013-09-19 07:51:00,
2013-09-19 02:52:00,68.9,46.7,0.00,North,0,12.5,17.7,45,0.00,,---,0.00,VWS V14.01,2013-09-19 07:52:00,
2013-09-19 02:53:00,68.7,46.5,0.00,North,0,10.3,17.7,45,0.00,,---,0.00,VWS V14.01,2013-09-19 07:53:00,
2013-09-19 02:54:00,68.5,46.3,0.00,NE,45,15.9,17.7,45,0.00,,---,0.00,VWS V14.01,2013-09-19 07:54:00,
2013-09-19 02:55:00,68.5,46.3,0.00,North,0,11.4,17.7,45,0.00,,---,0.00,VWS V14.01,2013-09-19 07:55:00,
2013-09-19 02:56:00,68.9,46.7,0.00,North,0,11.9,17.7,45,0.00,,---,0.00,VWS V14.01,2013-09-19 07:56:00,
2013-09-19 02:57:00,68.5,46.3,0.00,NW,315,10.7,17.7,45,0.00,,---,0.00,VWS V14.01,2013-09-19 07:57:00,
2013-09-19 02:58:00,68.3,46.2,0.00,NNW,338,13.4,17.7,45,0.00,,---,0.00,VWS V14.01,2013-09-19 07:58:00,
2013-09-19 02:59:00,67.6,45.5,0.00,NW,315,11.4,17.7,45,0.00,,---,0.00,VWS V14.01,2013-09-19 07:59:00,
2013-09-19 03:01:00,67.6,45.5,0.00,NW,315,14.5,17.7,45,0.00,,---,0.00,VWS V14.01,2013-09-19 08:01:00,
2013-09-19 03:02:00,66.7,45.3,0.00,WNW,292,12.3,17.7,46,0.00,,---,0.00,VWS V14.01,2013-09-19 08:02:00,
2013-09-19 03:03:00,66.7,45.3,0.00,NW,315,8.5,17.7,46,0.00,,---,0.00,VWS V14.01,2013-09-19 08:03:00,
2013-09-19 03:04:00,66.7,45.3,0.00,North,0,7.8,17.7,46,0.00,,---,0.00,VWS V14.01,2013-09-19 08:04:00,
2013-09-19 03:05:00,66.7,45.3,0.00,NW,315,10.5,17.7,46,0.00,,---,0.00,VWS V14.01,2013-09-19 08:05:00,
2013-09-19 03:06:00,66.7,45.3,0.00,North,0,11.0,17.7,46,0.00,,---,0.00,VWS V14.01,2013-09-19 08:06:00,
2013-09-19 03:07:00,66.9,45.5,0.00,North,0,11.0,17.7,46,0.00,,---,0.00,VWS V14.01,2013-09-19 08:07:00,
2013-09-19 03:08:00,66.7,45.3,0.00,NW,315,10.7,17.7,46,0.00,,---,0.00,VWS V14.01,2013-09-19 08:08:00,
2013-09-19 03:09:00,66.7,45.3,0.00,North,0,7.8,17.7,46,0.00,,---,0.00,VWS V14.01,2013-09-19 08:09:00,
2013-09-19 03:10:00,66.7,45.3,0.00,North,0,9.8,17.7,46,0.00,,---,0.00,VWS V14.01,2013-09-19 08:10:00,
2013-09-19 03:11:00,66.7,45.3,0.00,NW,315,19.2,19.2,46,0.00,,---,0.00,VWS V14.01,2013-09-19 08:11:00,
2013-09-19 03:12:00,66.9,46.0,0.00,NNW,338,10.5,19.2,47,0.00,,---,0.00,VWS V14.01,2013-09-19 08:12:00,
2013-09-19 03:13:00,66.7,45.3,0.00,North,0,10.5,19.2,46,0.00,,---,0.00,VWS V14.01,2013-09-19 08:13:00,
2013-09-19 03:14:00,66.5,45.1,0.00,NNW,338,11.2,19.2,46,0.00,,---,0.00,VWS V14.01,2013-09-19 08:14:00,
2013-09-19 03:15:00,66.2,44.8,0.00,North,0,12.3,19.2,46,0.00,,---,0.00,VWS V14.01,2013-09-19 08:15:00,
2013-09-19 03:16:00,66.0,44.6,0.00,NW,315,12.5,12.5,46,0.00,,---,0.00,VWS V14.01,2013-09-19 08:16:00,
2013-09-19 03:17:00,66.0,45.2,0.00,WNW,292,9.8,12.5,47,0.00,,---,0.00,VWS V14.01,2013-09-19 08:17:00,
2013-09-19 03:18:00,65.8,45.0,0.00,NW,315,13.0,13.0,47,0.00,,---,0.00,VWS V14.01,2013-09-19 08:18:00,
2013-09-19 03:19:00,65.8,45.0,0.00,NW,315,10.3,13.0,47,0.00,,---,0.00,VWS V14.01,2013-09-19 08:19:00,
2013-09-19 03:20:00,65.8,45.0,0.00,North,0,10.7,13.0,47,0.00,,---,0.00,VWS V14.01,2013-09-19 08:20:00,
2013-09-19 03:21:00,65.8,45.0,0.00,North,0,11.0,13.0,47,0.00,,---,0.00,VWS V14.01,2013-09-19 08:21:00,
2013-09-19 03:22:00,65.8,45.0,0.00,North,0,11.0,13.0,47,0.00,,---,0.00,VWS V14.01,2013-09-19 08:22:00,
2013-09-19 03:23:00,65.8,45.0,0.00,North,0,10.3,15.4,47,0.00,,---,0.00,VWS V14.01,2013-09-19 08:23:00,
2013-09-19 03:24:00,66.0,45.2,0.00,WNW,292,9.8,15.4,47,0.00,,---,0.00,VWS V14.01,2013-09-19 08:24:00,
2013-09-19 03:25:00,66.0,45.2,0.00,North,0,12.3,15.4,47,0.00,,---,0.00,VWS V14.01,2013-09-19 08:25:00,
2013-09-19 03:26:00,66.0,45.2,0.00,North,0,13.0,17.5,47,0.00,,---,0.00,VWS V14.01,2013-09-19 08:26:00,
2013-09-19 03:28:00,66.0,45.2,0.00,North,0,13.0,17.5,47,0.00,,---,0.00,VWS V14.01,2013-09-19 08:28:00,
2013-09-19 03:29:00,66.0,45.2,0.00,North,0,7.6,17.5,47,0.00,,---,0.00,VWS V14.01,2013-09-19 08:29:00,
2013-09-19 03:30:00,66.2,45.4,0.00,North,0,9.6,17.5,47,0.00,,---,0.00,VWS V14.01,2013-09-19 08:30:00,
2013-09-19 03:31:00,59.1,54.6,0.00,NE,45,3.8,4.3,85,0.00,,---,0.00,VWS V14.01,2013-09-19 08:31:00,
2013-09-19 03:32:00,66.0,44.6,0.00,North,0,12.5,13.2,46,0.00,,---,0.00,VWS V14.01,2013-09-19 08:32:00,
2013-09-19 03:33:00,66.0,44.6,0.00,NW,315,10.1,13.2,46,0.00,,---,0.00,VWS V14.01,2013-09-19 08:33:00,
2013-09-19 03:34:00,66.0,44.6,0.00,North,0,16.1,16.1,46,0.00,,---,0.00,VWS V14.01,2013-09-19 08:34:00,
2013-09-19 03:35:00,66.0,44.6,0.00,North,0,12.8,16.1,46,0.00,,---,0.00,VWS V14.01,2013-09-19 08:35:00,
2013-09-19 03:36:00,66.0,45.2,0.00,North,0,11.2,16.1,47,0.00,,---,0.00,VWS V14.01,2013-09-19 08:36:00,
2013-09-19 03:37:00,65.8,44.5,0.00,NW,315,12.3,16.1,46,0.00,,---,0.00,VWS V14.01,2013-09-19 08:37:00,
2013-09-19 03:38:00,65.8,44.5,0.00,North,0,12.5,16.1,46,0.00,,---,0.00,VWS V14.01,2013-09-19 08:38:00,
2013-09-19 03:39:00,65.4,44.7,0.00,North,0,13.2,16.1,47,0.00,,---,0.00,VWS V14.01,2013-09-19 08:39:00,
2013-09-19 03:40:00,65.4,44.7,0.00,North,0,15.4,16.1,47,0.00,,---,0.00,VWS V14.01,2013-09-19 08:40:00,
2013-09-19 03:41:00,65.4,44.7,0.00,North,0,10.1,16.1,47,0.00,,---,0.00,VWS V14.01,2013-09-19 08:41:00,
2013-09-19 03:43:00,65.6,44.9,0.00,NE,45,10.5,16.1,47,0.00,,---,0.00,VWS V14.01,2013-09-19 08:43:00,
2013-09-19 03:44:00,65.8,45.0,0.00,NNE,22,12.8,16.1,47,0.00,,---,0.00,VWS V14.01,2013-09-19 08:44:00,
2013-09-19 03:45:00,66.2,44.8,0.00,North,0,13.2,16.1,46,0.00,,---,0.00,VWS V14.01,2013-09-19 08:45:00,
2013-09-19 03:46:00,66.2,44.8,0.00,North,0,11.0,15.4,46,0.00,,---,0.00,VWS V14.01,2013-09-19 08:46:00,
2013-09-19 03:47:00,66.7,45.3,0.00,North,0,9.6,15.4,46,0.00,,---,0.00,VWS V14.01,2013-09-19 08:47:00,
2013-09-19 03:48:00,66.9,45.5,0.00,NNE,22,10.3,15.4,46,0.00,,---,0.00,VWS V14.01,2013-09-19 08:48:00,
2013-09-19 03:50:00,66.7,45.3,0.00,NNE,22,11.0,15.4,46,0.00,,---,0.00,VWS V14.01,2013-09-19 08:50:00,
2013-09-19 03:51:00,66.9,45.5,0.00,North,0,15.4,15.4,46,0.00,,---,0.00,VWS V14.01,2013-09-19 08:51:00,
2013-09-19 03:52:00,66.7,45.3,0.00,NNE,22,10.3,15.4,46,0.00,,---,0.00,VWS V14.01,2013-09-19 08:52:00,
2013-09-19 03:53:00,66.2,44.8,0.00,North,0,11.0,15.4,46,0.00,,---,0.00,VWS V14.01,2013-09-19 08:53:00,
2013-09-19 03:54:00,66.0,44.6,0.00,North,0,10.3,15.4,46,0.00,,---,0.00,VWS V14.01,2013-09-19 08:54:00,
2013-09-19 03:55:00,66.0,44.6,0.00,NE,45,9.8,15.4,46,0.00,,---,0.00,VWS V14.01,2013-09-19 08:55:00,
2013-09-19 03:56:00,66.0,44.6,0.00,North,0,12.5,15.4,46,0.00,,---,0.00,VWS V14.01,2013-09-19 08:56:00,
2013-09-19 03:57:00,65.8,44.5,0.00,NE,45,7.8,15.4,46,0.00,,---,0.00,VWS V14.01,2013-09-19 08:57:00,
2013-09-19 03:58:00,65.8,44.5,0.00,NNE,22,10.1,15.4,46,0.00,,---,0.00,VWS V14.01,2013-09-19 08:58:00,
2013-09-19 03:59:00,65.8,44.5,0.00,North,0,7.8,15.4,46,0.00,,---,0.00,VWS V14.01,2013-09-19 08:59:00,
2013-09-19 04:00:00,65.8,44.5,0.00,North,0,9.6,15.4,46,0.00,,---,0.00,VWS V14.01,2013-09-19 09:00:00,
2013-09-19 04:01:00,65.6,44.3,0.00,North,0,13.2,13.2,46,0.00,,---,0.00,VWS V14.01,2013-09-19 09:01:00,
2013-09-19 04:02:00,65.6,44.3,0.00,North,0,7.4,13.2,46,0.00,,---,0.00,VWS V14.01,2013-09-19 09:02:00,
2013-09-19 04:03:00,65.8,44.5,0.00,North,0,12.8,13.2,46,0.00,,---,0.00,VWS V14.01,2013-09-19 09:03:00,
2013-09-19 04:04:00,65.8,44.5,0.00,North,0,12.8,13.2,46,0.00,,---,0.00,VWS V14.01,2013-09-19 09:04:00,
2013-09-19 04:06:00,65.3,44.5,0.00,North,0,11.0,13.2,47,0.00,,---,0.00,VWS V14.01,2013-09-19 09:06:00,
2013-09-19 04:07:00,65.1,44.4,0.00,North,0,11.2,13.2,47,0.00,,---,0.00,VWS V14.01,2013-09-19 09:07:00,
2013-09-19 04:08:00,65.1,44.4,0.00,North,0,10.7,13.2,47,0.00,,---,0.00,VWS V14.01,2013-09-19 09:08:00,
2013-09-19 04:09:00,65.4,44.7,0.00,North,0,8.1,13.2,47,0.00,,---,0.00,VWS V14.01,2013-09-19 09:09:00,
2013-09-19 04:11:00,65.6,44.9,0.00,NE,45,10.1,15.7,47,0.00,,---,0.00,VWS V14.01,2013-09-19 09:11:00,
2013-09-19 04:12:00,65.8,45.0,0.00,North,0,8.1,15.7,47,0.00,,---,0.00,VWS V14.01,2013-09-19 09:12:00,
2013-09-19 04:13:00,65.8,44.5,0.00,North,0,10.5,15.7,46,0.00,,---,0.00,VWS V14.01,2013-09-19 09:13:00,
2013-09-19 04:14:00,65.6,44.3,0.00,North,0,14.5,15.7,46,0.00,,---,0.00,VWS V14.01,2013-09-19 09:14:00,
2013-09-19 04:15:00,66.0,44.6,0.00,North,0,10.7,15.7,46,0.00,,---,0.00,VWS V14.01,2013-09-19 09:15:00,
2013-09-19 04:16:00,66.5,45.1,0.00,North,0,13.0,13.0,46,0.00,,---,0.00,VWS V14.01,2013-09-19 09:16:00,
2013-09-19 04:17:00,66.5,45.1,0.00,North,0,10.5,14.1,46,0.00,,---,0.00,VWS V14.01,2013-09-19 09:17:00,
2013-09-19 04:18:00,66.5,45.1,0.00,NW,315,6.3,14.1,46,0.00,,---,0.00,VWS V14.01,2013-09-19 09:18:00,
2013-09-19 04:19:00,66.5,45.1,0.00,North,0,9.8,14.1,46,0.00,,---,0.00,VWS V14.01,2013-09-19 09:19:00,
2013-09-19 04:20:00,67.6,45.5,0.00,NW,315,8.5,14.1,45,0.00,,---,0.00,VWS V14.01,2013-09-19 09:20:00,
2013-09-19 04:21:00,67.6,45.5,0.00,NW,315,7.6,14.1,45,0.00,,---,0.00,VWS V14.01,2013-09-19 09:21:00,
2013-09-19 04:22:00,67.8,45.7,0.00,North,0,13.4,14.1,45,0.00,,---,0.00,VWS V14.01,2013-09-19 09:22:00,
2013-09-19 04:23:00,67.8,45.7,0.00,NW,315,9.8,14.1,45,0.00,,---,0.00,VWS V14.01,2013-09-19 09:23:00,
2013-09-19 04:25:00,67.8,45.7,0.00,NW,315,8.7,14.1,45,0.00,,---,0.00,VWS V14.01,2013-09-19 09:25:00,
2013-09-19 04:26:00,67.8,45.1,0.00,North,0,7.4,14.1,44,0.00,,---,0.00,VWS V14.01,2013-09-19 09:26:00,
2013-09-19 04:27:00,67.6,44.9,0.00,NE,45,9.8,14.1,44,0.00,,---,0.00,VWS V14.01,2013-09-19 09:27:00,
2013-09-19 04:28:00,67.8,45.7,0.00,NW,315,10.3,14.1,45,0.00,,---,0.00,VWS V14.01,2013-09-19 09:28:00,
2013-09-19 04:29:00,68.0,45.8,0.00,North,0,12.5,15.2,45,0.00,,---,0.00,VWS V14.01,2013-09-19 09:29:00,
2013-09-19 04:30:00,68.1,45.4,0.00,NNW,338,11.9,15.4,44,0.00,,---,0.00,VWS V14.01,2013-09-19 09:30:00,
2013-09-19 04:31:00,68.1,45.4,0.00,North,0,10.3,13.2,44,0.00,,---,0.00,VWS V14.01,2013-09-19 09:31:00,
2013-09-19 04:32:00,68.0,45.3,0.00,NNW,338,10.3,14.5,44,0.00,,---,0.00,VWS V14.01,2013-09-19 09:32:00,
2013-09-19 04:33:00,68.0,45.3,0.00,NW,315,13.0,14.5,44,0.00,,---,0.00,VWS V14.01,2013-09-19 09:33:00,
2013-09-19 04:34:00,67.8,45.1,0.00,North,0,8.5,14.5,44,0.00,,---,0.00,VWS V14.01,2013-09-19 09:34:00,
2013-09-19 04:36:00,68.0,45.3,0.00,North,0,7.6,14.5,44,0.00,,---,0.00,VWS V14.01,2013-09-19 09:36:00,
2013-09-19 04:37:00,68.1,45.4,0.00,North,0,10.3,14.5,44,0.00,,---,0.00,VWS V14.01,2013-09-19 09:37:00,
2013-09-19 04:38:00,68.1,45.4,0.00,NW,315,9.4,14.5,44,0.00,,---,0.00,VWS V14.01,2013-09-19 09:38:00,
2013-09-19 04:39:00,68.1,45.4,0.00,NW,315,8.5,14.5,44,0.00,,---,0.00,VWS V14.01,2013-09-19 09:39:00,
2013-09-19 04:40:00,68.1,45.4,0.00,North,0,9.8,14.5,44,0.00,,---,0.00,VWS V14.01,2013-09-19 09:40:00,
2013-09-19 04:41:00,68.1,45.4,0.00,North,0,6.3,14.5,44,0.00,,---,0.00,VWS V14.01,2013-09-19 09:41:00,
2013-09-19 04:42:00,68.3,45.6,0.00,NW,315,10.5,14.5,44,0.00,,---,0.00,VWS V14.01,2013-09-19 09:42:00,
2013-09-19 04:43:00,68.3,45.0,0.00,North,0,6.0,14.5,43,0.00,,---,0.00,VWS V14.01,2013-09-19 09:43:00,
2013-09-19 04:44:00,68.3,45.0,0.00,North,0,11.9,14.5,43,0.00,,---,0.00,VWS V14.01,2013-09-19 09:44:00,
2013-09-19 04:45:00,68.3,45.0,0.00,North,0,12.1,14.5,43,0.00,,---,0.00,VWS V14.01,2013-09-19 09:45:00,
2013-09-19 04:46:00,68.3,45.0,0.00,NW,315,9.8,12.1,43,0.00,,---,0.00,VWS V14.01,2013-09-19 09:46:00,
2013-09-19 04:47:00,68.3,45.0,0.00,North,0,8.1,12.1,43,0.00,,---,0.00,VWS V14.01,2013-09-19 09:47:00,
2013-09-19 04:48:00,68.1,44.8,0.00,North,0,12.3,12.3,43,0.00,,---,0.00,VWS V14.01,2013-09-19 09:48:00,
2013-09-19 04:49:00,68.1,44.8,0.00,NNE,22,12.8,12.8,43,0.00,,---,0.00,VWS V14.01,2013-09-19 09:49:00,
2013-09-19 04:50:00,68.0,44.7,0.00,North,0,10.1,12.8,43,0.00,,---,0.00,VWS V14.01,2013-09-19 09:50:00,
2013-09-19 04:51:00,68.0,44.7,0.00,North,0,10.1,12.8,43,0.00,,---,0.00,VWS V14.01,2013-09-19 09:51:00,
2013-09-19 04:53:00,68.3,45.0,0.00,NW,315,10.3,12.8,43,0.00,,---,0.00,VWS V14.01,2013-09-19 09:53:00,
2013-09-19 04:54:00,68.0,44.7,0.00,North,0,13.4,13.4,43,0.00,,---,0.00,VWS V14.01,2013-09-19 09:54:00,
2013-09-19 04:55:00,68.0,44.7,0.00,North,0,10.1,13.4,43,0.00,,---,0.00,VWS V14.01,2013-09-19 09:55:00,
2013-09-19 04:56:00,68.0,44.7,0.00,North,0,10.7,13.4,43,0.00,,---,0.00,VWS V14.01,2013-09-19 09:56:00,
2013-09-19 04:57:00,68.1,44.8,0.00,North,0,7.8,13.4,43,0.00,,---,0.00,VWS V14.01,2013-09-19 09:57:00,
2013-09-19 04:58:00,68.3,45.0,0.00,North,0,8.7,13.4,43,0.00,,---,0.00,VWS V14.01,2013-09-19 09:58:00,
2013-09-19 04:59:00,68.5,45.1,0.00,North,0,6.5,13.4,43,0.00,,---,0.00,VWS V14.01,2013-09-19 09:59:00,
2013-09-19 05:00:00,68.7,45.3,0.00,North,0,10.3,13.4,43,0.00,,---,0.00,VWS V14.01,2013-09-19 10:00:00,
2013-09-19 05:01:00,68.9,45.5,0.00,NW,315,8.5,10.3,43,0.00,,---,0.00,VWS V14.01,2013-09-19 10:01:00,
2013-09-19 05:02:00,68.9,45.5,0.00,NW,315,8.1,10.3,43,0.00,,---,0.00,VWS V14.01,2013-09-19 10:02:00,
2013-09-19 05:03:00,68.9,45.5,0.00,NNW,338,11.0,11.0,43,0.00,,---,0.00,VWS V14.01,2013-09-19 10:03:00,
2013-09-19 05:05:00,68.7,45.3,0.00,NW,315,8.7,11.0,43,0.00,,---,0.00,VWS V14.01,2013-09-19 10:05:00,
2013-09-19 05:06:00,68.5,45.1,0.00,NNW,338,12.5,12.5,43,0.00,,---,0.00,VWS V14.01,2013-09-19 10:06:00,
2013-09-19 05:07:00,68.5,45.1,0.00,NNW,338,12.5,12.5,43,0.00,,---,0.00,VWS V14.01,2013-09-19 10:07:00,
2013-09-19 05:08:00,68.5,45.1,0.00,NNW,338,11.4,12.5,43,0.00,,---,0.00,VWS V14.01,2013-09-19 10:08:00,
2013-09-19 05:09:00,68.5,45.1,0.00,North,0,10.7,12.5,43,0.00,,---,0.00,VWS V14.01,2013-09-19 10:09:00,
2013-09-19 05:10:00,68.5,45.1,0.00,North,0,10.1,12.5,43,0.00,,---,0.00,VWS V14.01,2013-09-19 10:10:00,
2013-09-19 05:13:00,57.2,54.9,0.00,NNE,22,0.0,7.2,92,0.00,,---,0.00,VWS V14.01,2013-09-19 10:13:00,
2013-09-19 05:14:00,67.4,44.2,0.00,North,0,7.2,12.5,43,0.00,,---,0.00,VWS V14.01,2013-09-19 10:14:00,
2013-09-19 05:16:00,66.9,43.7,0.00,North,0,14.3,14.3,43,0.00,,---,0.00,VWS V14.01,2013-09-19 10:16:00,
2013-09-19 05:17:00,66.0,42.9,0.00,NNW,338,10.7,15.2,43,0.00,,---,0.00,VWS V14.01,2013-09-19 10:17:00,
2013-09-19 05:18:00,66.0,42.9,0.00,NNW,338,10.7,15.2,43,0.00,,---,0.00,VWS V14.01,2013-09-19 10:18:00,
2013-09-19 05:19:00,66.3,43.8,0.00,North,0,11.9,15.2,44,0.00,,---,0.00,VWS V14.01,2013-09-19 10:19:00,
2013-09-19 05:20:00,66.7,44.1,0.00,North,0,8.1,15.2,44,0.00,,---,0.00,VWS V14.01,2013-09-19 10:20:00,
2013-09-19 05:21:00,67.1,44.5,0.00,North,0,10.1,15.2,44,0.00,,---,0.00,VWS V14.01,2013-09-19 10:21:00,
2013-09-19 05:22:00,67.1,43.8,0.00,North,0,8.1,15.2,43,0.00,,---,0.00,VWS V14.01,2013-09-19 10:22:00,
2013-09-19 05:23:00,67.2,44.0,0.00,North,0,10.1,15.2,43,0.00,,---,0.00,VWS V14.01,2013-09-19 10:23:00,
2013-09-19 05:25:00,67.4,44.2,0.00,North,0,10.3,15.2,43,0.00,,---,0.00,VWS V14.01,2013-09-19 10:25:00,
2013-09-19 05:26:00,67.6,44.3,0.00,North,0,10.7,15.2,43,0.00,,---,0.00,VWS V14.01,2013-09-19 10:26:00,
2013-09-19 05:28:00,57.2,54.6,0.00,West,270,2.7,2.7,91,0.00,,---,0.00,VWS V14.01,2013-09-19 10:28:00,
2013-09-19 05:30:00,67.6,44.3,0.00,NW,315,13.0,15.2,43,0.00,,---,0.00,VWS V14.01,2013-09-19 10:30:00,
2013-09-19 05:31:00,67.4,44.2,0.00,NW,315,9.8,13.0,43,0.00,,---,0.00,VWS V14.01,2013-09-19 10:31:00,
2013-09-19 05:32:00,67.1,43.8,0.00,North,0,12.5,13.0,43,0.00,,---,0.00,VWS V14.01,2013-09-19 10:32:00,
2013-09-19 05:33:00,67.2,44.0,0.00,North,0,7.6,13.0,43,0.00,,---,0.00,VWS V14.01,2013-09-19 10:33:00,
2013-09-19 05:34:00,67.4,44.2,0.00,North,0,8.5,13.0,43,0.00,,---,0.00,VWS V14.01,2013-09-19 10:34:00,
2013-09-19 05:35:00,67.4,44.2,0.00,North,0,8.5,13.0,43,0.00,,---,0.00,VWS V14.01,2013-09-19 10:35:00,
2013-09-19 05:36:00,67.1,43.8,0.00,North,0,10.1,13.0,43,0.00,,---,0.00,VWS V14.01,2013-09-19 10:36:00,
2013-09-19 05:37:00,67.2,44.0,0.00,NW,315,8.1,13.0,43,0.00,,---,0.00,VWS V14.01,2013-09-19 10:37:00,
2013-09-19 05:38:00,67.2,44.0,0.00,North,0,6.0,13.0,43,0.00,,---,0.00,VWS V14.01,2013-09-19 10:38:00,
2013-09-19 05:39:00,67.1,43.8,0.00,North,0,8.5,13.0,43,0.00,,---,0.00,VWS V14.01,2013-09-19 10:39:00,
2013-09-19 05:40:00,67.1,43.8,0.00,North,0,7.8,13.0,43,0.00,,---,0.00,VWS V14.01,2013-09-19 10:40:00,
2013-09-19 05:41:00,66.7,43.5,0.00,North,0,13.2,13.2,43,0.00,,---,0.00,VWS V14.01,2013-09-19 10:41:00,
2013-09-19 05:42:00,66.7,43.5,0.00,North,0,13.2,13.2,43,0.00,,---,0.00,VWS V14.01,2013-09-19 10:42:00,
2013-09-19 05:43:00,66.7,43.5,0.00,NNE,22,8.7,13.2,43,0.00,,---,0.00,VWS V14.01,2013-09-19 10:43:00,
2013-09-19 05:45:00,66.9,44.3,0.00,NNW,338,8.7,13.2,44,0.00,,---,0.00,VWS V14.01,2013-09-19 10:45:00,
2013-09-19 05:46:00,67.2,44.0,0.00,NW,315,10.3,10.3,43,0.00,,---,0.00,VWS V14.01,2013-09-19 10:46:00,
2013-09-19 05:47:00,67.1,43.8,0.00,North,0,6.5,10.5,43,0.00,,---,0.00,VWS V14.01,2013-09-19 10:47:00,
2013-09-19 05:48:00,66.9,43.7,0.00,North,0,12.3,12.3,43,0.00,,---,0.00,VWS V14.01,2013-09-19 10:48:00,
2013-09-19 05:49:00,66.9,43.7,0.00,North,0,7.6,12.3,43,0.00,,---,0.00,VWS V14.01,2013-09-19 10:49:00,
2013-09-19 05:50:00,66.7,43.5,0.00,North,0,12.8,12.8,43,0.00,,---,0.00,VWS V14.01,2013-09-19 10:50:00,
2013-09-19 05:51:00,66.5,43.4,0.00,North,0,12.8,12.8,43,0.00,,---,0.00,VWS V14.01,2013-09-19 10:51:00,
2013-09-19 05:52:00,66.5,43.4,0.00,North,0,7.6,12.8,43,0.00,,---,0.00,VWS V14.01,2013-09-19 10:52:00,
2013-09-19 05:53:00,66.5,43.4,0.00,NW,315,7.6,12.8,43,0.00,,---,0.00,VWS V14.01,2013-09-19 10:53:00,
2013-09-19 05:54:00,66.5,43.4,0.00,West,270,8.5,12.8,43,0.00,,---,0.00,VWS V14.01,2013-09-19 10:54:00,
2013-09-19 05:55:00,66.5,43.4,0.00,North,0,5.8,13.0,43,0.00,,---,0.00,VWS V14.01,2013-09-19 10:55:00,
2013-09-19 05:57:00,66.5,43.4,0.00,NW,315,10.1,13.0,43,0.00,,---,0.00,VWS V14.01,2013-09-19 10:57:00,
2013-09-19 05:58:00,66.5,43.4,0.00,NW,315,10.1,13.0,43,0.00,,---,0.00,VWS V14.01,2013-09-19 10:58:00,
2013-09-19 05:59:00,66.2,43.0,0.00,North,0,8.5,13.0,43,0.00,,---,0.00,VWS V14.01,2013-09-19 10:59:00,
2013-09-19 06:00:00,66.0,42.9,0.00,North,0,7.6,10.3,43,0.00,,---,0.00,VWS V14.01,2013-09-19 11:00:00,
2013-09-19 06:02:00,66.0,42.9,0.00,North,0,10.7,15.4,43,0.00,,---,0.00,VWS V14.01,2013-09-19 11:02:00,
2013-09-19 06:03:00,65.6,43.1,0.00,North,0,8.1,15.4,44,0.00,,---,0.00,VWS V14.01,2013-09-19 11:03:00,
2013-09-19 06:04:00,65.4,43.0,0.00,North,0,10.5,15.4,44,0.00,,---,0.00,VWS V14.01,2013-09-19 11:04:00,
2013-09-19 06:05:00,65.1,42.7,0.00,North,0,11.4,15.4,44,0.00,,---,0.00,VWS V14.01,2013-09-19 11:05:00,
2013-09-19 06:06:00,65.1,42.7,0.00,North,0,7.2,15.4,44,0.00,,---,0.00,VWS V14.01,2013-09-19 11:06:00,
2013-09-19 06:07:00,65.3,42.8,0.00,NNW,338,10.7,15.4,44,0.00,,---,0.00,VWS V14.01,2013-09-19 11:07:00,
2013-09-19 06:08:00,65.1,42.7,0.00,North,0,9.6,15.4,44,0.00,,---,0.00,VWS V14.01,2013-09-19 11:08:00,
2013-09-19 06:09:00,64.4,42.0,0.00,North,0,12.8,15.4,44,0.00,,---,0.00,VWS V14.01,2013-09-19 11:09:00,
2013-09-19 06:10:00,64.4,42.0,0.00,North,0,12.8,15.4,44,0.00,,---,0.00,VWS V14.01,2013-09-19 11:10:00,
2013-09-19 06:11:00,64.4,42.0,0.00,NNW,338,7.8,15.4,44,0.00,,---,0.00,VWS V14.01,2013-09-19 11:11:00,
2013-09-19 06:12:00,64.4,42.0,0.00,NNW,338,7.2,15.4,44,0.00,,---,0.00,VWS V14.01,2013-09-19 11:12:00,
2013-09-19 06:13:00,64.4,42.0,0.00,North,0,12.5,15.4,44,0.00,,---,0.00,VWS V14.01,2013-09-19 11:13:00,
2013-09-19 06:14:00,64.0,41.7,0.00,North,0,13.0,15.4,44,0.00,,---,0.00,VWS V14.01,2013-09-19 11:14:00,
2013-09-19 06:15:00,64.0,41.7,0.00,North,0,10.7,15.4,44,0.00,,---,0.00,VWS V14.01,2013-09-19 11:15:00,
2013-09-19 06:16:00,63.8,42.1,0.00,North,0,10.7,10.7,45,0.00,,---,0.00,VWS V14.01,2013-09-19 11:16:00,
2013-09-19 06:17:00,64.0,42.3,0.00,NNW,338,5.8,10.7,45,0.00,,---,0.00,VWS V14.01,2013-09-19 11:17:00,
2013-09-19 06:18:00,64.0,42.3,0.00,NNW,338,6.5,10.7,45,0.00,,---,0.00,VWS V14.01,2013-09-19 11:18:00,
2013-09-19 06:20:00,64.2,42.4,0.00,North,0,9.4,11.0,45,0.00,,---,0.00,VWS V14.01,2013-09-19 11:20:00,
2013-09-19 06:21:00,63.8,42.1,0.00,NW,315,8.1,11.0,45,0.00,,---,0.00,VWS V14.01,2013-09-19 11:21:00,
2013-09-19 06:22:00,63.6,41.9,0.00,North,0,11.2,13.2,45,0.00,,---,0.00,VWS V14.01,2013-09-19 11:22:00,
2013-09-19 06:23:00,63.6,41.9,0.00,North,0,9.8,13.2,45,0.00,,---,0.00,VWS V14.01,2013-09-19 11:23:00,
2013-09-19 06:24:00,63.6,42.5,0.00,North,0,6.3,13.2,46,0.00,,---,0.00,VWS V14.01,2013-09-19 11:24:00,
2013-09-19 06:25:00,63.6,42.5,0.00,North,0,8.7,13.2,46,0.00,,---,0.00,VWS V14.01,2013-09-19 11:25:00,
2013-09-19 06:26:00,63.6,42.5,0.00,North,0,9.6,13.2,46,0.00,,---,0.00,VWS V14.01,2013-09-19 11:26:00,
2013-09-19 06:27:00,63.6,42.5,0.00,North,0,8.7,13.2,46,0.00,,---,0.00,VWS V14.01,2013-09-19 11:27:00,
2013-09-19 06:28:00,63.1,41.4,0.00,North,0,9.8,13.2,45,0.00,,---,0.00,VWS V14.01,2013-09-19 11:28:00,
2013-09-19 06:29:00,62.9,41.3,0.00,NE,45,8.1,13.2,45,0.00,,---,0.00,VWS V14.01,2013-09-19 11:29:00,
2013-09-19 06:30:00,62.7,41.1,0.00,North,0,8.5,13.2,45,0.00,,---,0.00,VWS V14.01,2013-09-19 11:30:00,
2013-09-19 06:31:00,62.6,41.0,0.00,North,0,7.6,10.5,45,0.00,,---,0.00,VWS V14.01,2013-09-19 11:31:00,
2013-09-19 06:32:00,62.2,41.2,0.00,North,0,9.0,14.3,46,0.00,,---,0.00,VWS V14.01,2013-09-19 11:32:00,
2013-09-19 06:33:00,62.2,41.2,0.00,North,0,8.7,14.3,46,0.00,,---,0.00,VWS V14.01,2013-09-19 11:33:00,
2013-09-19 06:34:00,62.2,41.2,0.00,North,0,10.3,14.3,46,0.00,,---,0.00,VWS V14.01,2013-09-19 11:34:00,
2013-09-19 06:35:00,62.2,41.2,0.00,North,0,10.3,14.3,46,0.00,,---,0.00,VWS V14.01,2013-09-19 11:35:00,
2013-09-19 06:36:00,62.4,41.3,0.00,North,0,10.7,14.3,46,0.00,,---,0.00,VWS V14.01,2013-09-19 11:36:00,
2013-09-19 06:37:00,62.2,41.2,0.00,North,0,7.6,14.3,46,0.00,,---,0.00,VWS V14.01,2013-09-19 11:37:00,
2013-09-19 06:38:00,62.2,41.2,0.00,NE,45,8.7,14.3,46,0.00,,---,0.00,VWS V14.01,2013-09-19 11:38:00,
2013-09-19 06:39:00,62.2,41.2,0.00,NNE,22,12.3,14.3,46,0.00,,---,0.00,VWS V14.01,2013-09-19 11:39:00,
2013-09-19 06:40:00,62.4,41.3,0.00,North,0,10.5,14.3,46,0.00,,---,0.00,VWS V14.01,2013-09-19 11:40:00,
2013-09-19 06:41:00,62.4,41.3,0.00,North,0,6.5,14.3,46,0.00,,---,0.00,VWS V14.01,2013-09-19 11:41:00,
2013-09-19 06:42:00,62.4,41.3,0.00,North,0,6.5,14.3,46,0.00,,---,0.00,VWS V14.01,2013-09-19 11:42:00,
2013-09-19 06:43:00,62.6,42.1,0.00,North,0,12.5,14.3,47,0.00,,---,0.00,VWS V14.01,2013-09-19 11:43:00,
2013-09-19 06:44:00,62.4,41.3,0.00,NNW,338,10.1,14.3,46,0.00,,---,0.00,VWS V14.01,2013-09-19 11:44:00,
2013-09-19 06:45:00,62.4,41.9,0.00,North,0,10.3,14.3,47,0.00,,---,0.00,VWS V14.01,2013-09-19 11:45:00,
2013-09-19 06:46:00,62.4,41.9,0.00,NNW,338,12.8,12.8,47,0.00,,---,0.00,VWS V14.01,2013-09-19 11:46:00,
2013-09-19 06:47:00,62.4,41.9,0.00,North,0,12.3,12.8,47,0.00,,---,0.00,VWS V14.01,2013-09-19 11:47:00,
2013-09-19 06:48:00,62.2,41.7,0.00,North,0,9.8,12.8,47,0.00,,---,0.00,VWS V14.01,2013-09-19 11:48:00,
2013-09-19 06:49:00,62.2,41.7,0.00,North,0,10.1,12.8,47,0.00,,---,0.00,VWS V14.01,2013-09-19 11:49:00,
2013-09-19 06:50:00,62.2,41.7,0.00,North,0,7.6,12.8,47,0.00,,---,0.00,VWS V14.01,2013-09-19 11:50:00,
2013-09-19 06:51:00,62.2,41.7,0.00,North,0,7.8,12.8,47,0.00,,---,0.00,VWS V14.01,2013-09-19 11:51:00,
2013-09-19 06:52:00,62.2,41.7,0.00,North,0,9.6,12.8,47,0.00,,---,0.00,VWS V14.01,2013-09-19 11:52:00,
2013-09-19 06:53:00,62.2,41.7,0.00,NW,315,7.4,12.8,47,0.00,,---,0.00,VWS V14.01,2013-09-19 11:53:00,
2013-09-19 06:54:00,61.8,41.4,0.00,North,0,10.7,12.8,47,0.00,,---,0.00,VWS V14.01,2013-09-19 11:54:00,
2013-09-19 06:55:00,61.8,41.4,0.00,NW,315,6.3,12.8,47,0.00,,---,0.00,VWS V14.01,2013-09-19 11:55:00,
2013-09-19 06:56:00,61.8,42.0,0.00,North,0,9.2,12.8,48,0.00,,---,0.00,VWS V14.01,2013-09-19 11:56:00,
2013-09-19 06:57:00,61.7,41.8,0.00,North,0,6.3,12.8,48,0.00,,---,0.00,VWS V14.01,2013-09-19 11:57:00,
2013-09-19 06:58:00,61.7,41.8,0.00,North,0,8.7,12.8,48,0.00,,---,0.00,VWS V14.01,2013-09-19 11:58:00,
2013-09-19 06:59:00,61.5,41.6,0.00,North,0,9.2,12.8,48,0.00,,---,0.00,VWS V14.01,2013-09-19 11:59:00,
2013-09-19 07:00:00,61.5,41.6,0.00,North,0,6.5,12.8,48,0.00,,---,0.00,VWS V14.01,2013-09-19 12:00:00,
2013-09-19 07:01:00,61.3,41.5,0.00,North,0,10.5,10.5,48,0.00,,---,0.00,VWS V14.01,2013-09-19 12:01:00,
2013-09-19 07:02:00,61.1,41.3,0.00,North,0,8.7,10.5,48,0.00,,---,0.00,VWS V14.01,2013-09-19 12:02:00,
2013-09-19 07:03:00,61.1,41.3,0.00,North,0,8.7,10.5,48,0.00,,---,0.00,VWS V14.01,2013-09-19 12:03:00,
2013-09-19 07:04:00,60.8,41.0,0.00,North,0,7.8,10.5,48,0.00,,---,0.00,VWS V14.01,2013-09-19 12:04:00,
2013-09-19 07:05:00,60.8,41.0,0.00,North,0,7.8,10.5,48,0.00,,---,0.00,VWS V14.01,2013-09-19 12:05:00,
2013-09-19 07:06:00,60.6,40.8,0.00,North,0,6.0,10.5,48,0.00,,---,0.00,VWS V14.01,2013-09-19 12:06:00,
2013-09-19 07:07:00,60.6,40.8,0.00,NW,315,6.5,10.5,48,0.00,,---,0.00,VWS V14.01,2013-09-19 12:07:00,
2013-09-19 07:08:00,60.6,41.3,0.00,North,0,6.0,10.5,49,0.00,,---,0.00,VWS V14.01,2013-09-19 12:08:00,
2013-09-19 07:09:00,60.6,41.3,0.00,North,0,4.9,10.5,49,0.00,,---,0.00,VWS V14.01,2013-09-19 12:09:00,
2013-09-19 07:11:00,60.6,41.3,0.00,North,0,6.5,10.5,49,0.00,,---,0.00,VWS V14.01,2013-09-19 12:11:00,
2013-09-19 07:12:00,60.6,41.3,0.00,NNW,338,7.4,10.5,49,0.00,,---,0.00,VWS V14.01,2013-09-19 12:12:00,
2013-09-19 07:13:00,60.6,41.3,0.00,North,0,6.3,10.5,49,0.00,,---,0.00,VWS V14.01,2013-09-19 12:13:00,
2013-09-19 07:14:00,60.4,41.2,0.00,North,0,5.8,10.5,49,0.00,,---,0.00,VWS V14.01,2013-09-19 12:14:00,
2013-09-19 07:15:00,60.4,41.2,0.00,North,0,5.8,10.5,49,0.00,,---,0.00,VWS V14.01,2013-09-19 12:15:00,
2013-09-19 07:16:00,60.2,41.5,0.00,North,0,7.6,7.6,50,0.00,,---,0.00,VWS V14.01,2013-09-19 12:16:00,
2013-09-19 07:17:00,60.0,41.4,0.00,North,0,6.0,7.6,50,0.00,,---,0.00,VWS V14.01,2013-09-19 12:17:00,
2013-09-19 07:18:00,60.0,41.4,0.00,North,0,6.3,8.7,50,0.00,,---,0.00,VWS V14.01,2013-09-19 12:18:00,
2013-09-19 07:19:00,60.0,41.4,0.00,North,0,4.9,8.7,50,0.00,,---,0.00,VWS V14.01,2013-09-19 12:19:00,
2013-09-19 07:20:00,60.0,41.4,0.00,North,0,7.4,8.7,50,0.00,,---,0.00,VWS V14.01,2013-09-19 12:20:00,
2013-09-19 07:21:00,59.9,41.2,0.00,North,0,5.8,8.7,50,0.00,,---,0.00,VWS V14.01,2013-09-19 12:21:00,
2013-09-19 07:22:00,59.9,41.2,0.00,North,0,4.9,8.7,50,0.00,,---,0.00,VWS V14.01,2013-09-19 12:22:00,
2013-09-19 07:23:00,59.7,41.0,0.00,North,0,4.0,8.7,50,0.00,,---,0.00,VWS V14.01,2013-09-19 12:23:00,
2013-09-19 07:24:00,59.7,41.0,0.00,North,0,4.9,8.7,50,0.00,,---,0.00,VWS V14.01,2013-09-19 12:24:00,
2013-09-19 07:25:00,59.5,41.4,0.00,North,0,4.5,8.7,51,0.00,,---,0.00,VWS V14.01,2013-09-19 12:25:00,
2013-09-19 07:26:00,59.3,41.2,0.00,WNW,292,3.1,8.7,51,0.00,,---,0.00,VWS V14.01,2013-09-19 12:26:00,
2013-09-19 07:27:00,59.3,41.2,0.00,North,0,3.1,8.7,51,0.00,,---,0.00,VWS V14.01,2013-09-19 12:27:00,
2013-09-19 07:28:00,59.1,41.0,0.00,North,0,4.0,8.7,51,0.00,,---,0.00,VWS V14.01,2013-09-19 12:28:00,
2013-09-19 07:29:00,59.1,41.0,0.00,North,0,4.9,8.7,51,0.00,,---,0.00,VWS V14.01,2013-09-19 12:29:00,
2013-09-19 07:30:00,59.0,41.4,0.00,North,0,4.0,8.7,52,0.00,,---,0.00,VWS V14.01,2013-09-19 12:30:00,
2013-09-19 07:31:00,59.0,41.4,0.00,North,0,4.0,4.3,52,0.00,,---,0.00,VWS V14.01,2013-09-19 12:31:00,
2013-09-19 07:32:00,58.8,41.2,0.00,North,0,3.4,4.3,52,0.00,,---,0.00,VWS V14.01,2013-09-19 12:32:00,
2013-09-19 07:33:00,58.2,54.4,0.00,NW,315,11.0,13.0,87,0.00,,---,0.00,VWS V14.01,2013-09-19 12:33:00,
2013-09-19 07:34:00,58.8,41.2,0.00,North,0,2.7,4.3,52,0.00,,---,0.00,VWS V14.01,2013-09-19 12:34:00,
2013-09-19 07:35:00,58.4,41.4,0.00,North,0,3.4,4.3,53,0.00,,---,0.00,VWS V14.01,2013-09-19 12:35:00,
2013-09-19 07:36:00,58.4,41.4,0.00,North,0,2.5,4.3,53,0.00,,---,0.00,VWS V14.01,2013-09-19 12:36:00,
2013-09-19 07:37:00,58.4,41.4,0.00,North,0,3.1,4.3,53,0.00,,---,0.00,VWS V14.01,2013-09-19 12:37:00,
2013-09-19 07:38:00,58.1,41.5,0.00,North,0,2.9,4.3,54,0.00,,---,0.00,VWS V14.01,2013-09-19 12:38:00,
2013-09-19 07:39:00,58.1,41.5,0.00,North,0,2.9,4.3,54,0.00,,---,0.00,VWS V14.01,2013-09-19 12:39:00,
2013-09-19 07:40:00,57.9,41.3,0.00,North,0,2.9,4.3,54,0.00,,---,0.00,VWS V14.01,2013-09-19 12:40:00,
2013-09-19 07:41:00,57.9,41.3,0.00,North,0,2.9,4.3,54,0.00,,---,0.00,VWS V14.01,2013-09-19 12:41:00,
2013-09-19 07:42:00,57.7,41.7,0.00,North,0,3.4,4.3,55,0.00,,---,0.00,VWS V14.01,2013-09-19 12:42:00,
2013-09-19 07:43:00,57.5,41.5,0.00,North,0,2.5,4.3,55,0.00,,---,0.00,VWS V14.01,2013-09-19 12:43:00,
2013-09-19 07:44:00,57.5,41.5,0.00,North,0,3.4,4.3,55,0.00,,---,0.00,VWS V14.01,2013-09-19 12:44:00,
2013-09-19 07:45:00,57.3,41.8,0.00,North,0,2.2,4.3,56,0.00,,---,0.00,VWS V14.01,2013-09-19 12:45:00,
2013-09-19 07:46:00,57.3,41.8,0.00,North,0,2.7,2.7,56,0.00,,---,0.00,VWS V14.01,2013-09-19 12:46:00,
2013-09-19 07:47:00,57.3,41.8,0.00,North,0,2.5,2.7,56,0.00,,---,0.00,VWS V14.01,2013-09-19 12:47:00,
2013-09-19 07:48:00,57.3,41.8,0.00,North,0,2.0,2.7,56,0.00,,---,0.00,VWS V14.01,2013-09-19 12:48:00,
2013-09-19 07:49:00,57.3,41.8,0.00,North,0,2.0,2.7,56,0.00,,---,0.00,VWS V14.01,2013-09-19 12:49:00,
2013-09-19 07:50:00,57.3,41.8,0.00,North,0,2.5,2.7,56,0.00,,---,0.00,VWS V14.01,2013-09-19 12:50:00,
2013-09-19 07:51:00,57.0,41.9,0.00,North,0,2.0,2.7,57,0.00,,---,0.00,VWS V14.01,2013-09-19 12:51:00,
2013-09-19 07:52:00,56.8,41.8,0.00,North,0,0.0,2.7,57,0.00,,---,0.00,VWS V14.01,2013-09-19 12:52:00,
2013-09-19 07:53:00,56.8,41.8,0.00,North,0,0.0,2.7,57,0.00,,---,0.00,VWS V14.01,2013-09-19 12:53:00,
2013-09-19 07:54:00,56.8,41.8,0.00,North,0,0.0,2.7,57,0.00,,---,0.00,VWS V14.01,2013-09-19 12:54:00,
2013-09-19 07:55:00,56.6,42.0,0.00,North,0,0.0,2.7,58,0.00,,---,0.00,VWS V14.01,2013-09-19 12:55:00,
2013-09-19 07:56:00,56.4,41.9,0.00,North,0,1.1,2.7,58,0.00,,---,0.00,VWS V14.01,2013-09-19 12:56:00,
2013-09-19 07:57:00,56.3,41.7,0.00,North,0,1.1,2.7,58,0.00,,---,0.00,VWS V14.01,2013-09-19 12:57:00,
2013-09-19 07:58:00,56.3,42.1,0.00,North,0,1.3,2.7,59,0.00,,---,0.00,VWS V14.01,2013-09-19 12:58:00,
2013-09-19 07:59:00,56.1,42.0,0.00,North,0,1.3,2.7,59,0.00,,---,0.00,VWS V14.01,2013-09-19 12:59:00,
2013-09-19 08:00:00,56.1,42.0,0.00,North,0,1.3,2.7,59,0.00,,---,0.00,VWS V14.01,2013-09-19 13:00:00,
2013-09-19 08:01:00,55.9,41.8,0.00,North,0,1.6,1.6,59,0.00,,---,0.00,VWS V14.01,2013-09-19 13:01:00,
2013-09-19 08:02:00,55.7,41.6,0.00,North,0,1.1,1.6,59,0.00,,---,0.00,VWS V14.01,2013-09-19 13:02:00,
2013-09-19 08:03:00,55.7,41.6,0.00,North,0,1.6,1.6,59,0.00,,---,0.00,VWS V14.01,2013-09-19 13:03:00,
2013-09-19 08:04:00,55.5,41.5,0.00,North,0,1.3,1.6,59,0.00,,---,0.00,VWS V14.01,2013-09-19 13:04:00,
2013-09-19 08:05:00,55.5,41.5,0.00,North,0,2.0,2.0,59,0.00,,---,0.00,VWS V14.01,2013-09-19 13:05:00,
2013-09-19 08:06:00,55.5,41.5,0.00,North,0,2.0,2.2,59,0.00,,---,0.00,VWS V14.01,2013-09-19 13:06:00,
2013-09-19 08:07:00,55.4,41.3,0.00,North,0,2.2,2.2,59,0.00,,---,0.00,VWS V14.01,2013-09-19 13:07:00,
2013-09-19 08:08:00,55.4,41.7,0.00,North,0,2.0,2.2,60,0.00,,---,0.00,VWS V14.01,2013-09-19 13:08:00,
2013-09-19 08:09:00,55.4,41.7,0.00,North,0,2.2,2.2,60,0.00,,---,0.00,VWS V14.01,2013-09-19 13:09:00,
2013-09-19 08:10:00,55.4,41.7,0.00,North,0,2.2,2.2,60,0.00,,---,0.00,VWS V14.01,2013-09-19 13:10:00,
2013-09-19 08:11:00,55.2,42.4,0.00,North,0,2.5,2.5,62,0.00,,---,0.00,VWS V14.01,2013-09-19 13:11:00,
2013-09-19 08:12:00,55.2,42.0,0.00,North,0,2.5,2.5,61,0.00,,---,0.00,VWS V14.01,2013-09-19 13:12:00,
2013-09-19 08:13:00,55.2,42.0,0.00,North,0,2.5,2.5,61,0.00,,---,0.00,VWS V14.01,2013-09-19 13:13:00,
2013-09-19 08:14:00,55.2,42.0,0.00,NNE,22,2.5,2.5,61,0.00,,---,0.00,VWS V14.01,2013-09-19 13:14:00,
2013-09-19 08:15:00,55.2,42.0,0.00,NNE,22,2.7,2.7,61,0.00,,---,0.00,VWS V14.01,2013-09-19 13:15:00,
2013-09-19 08:16:00,55.0,41.8,0.00,NNE,22,2.5,2.7,61,0.00,,---,0.00,VWS V14.01,2013-09-19 13:16:00,
2013-09-19 08:17:00,55.0,42.2,0.00,NNE,22,2.7,2.9,62,0.00,,---,0.00,VWS V14.01,2013-09-19 13:17:00,
2013-09-19 08:18:00,55.0,42.2,0.00,NNE,22,2.7,2.9,62,0.00,,---,0.00,VWS V14.01,2013-09-19 13:18:00,
2013-09-19 08:19:00,55.0,42.2,0.00,NNE,22,3.1,3.1,62,0.00,,---,0.00,VWS V14.01,2013-09-19 13:19:00,
2013-09-19 08:20:00,55.0,42.7,0.00,NNE,22,2.7,3.1,63,0.00,,---,0.00,VWS V14.01,2013-09-19 13:20:00,
2013-09-19 08:21:00,55.0,42.7,0.00,NNE,22,2.7,3.1,63,0.00,,---,0.00,VWS V14.01,2013-09-19 13:21:00,
2013-09-19 08:22:00,55.0,42.7,0.00,NNE,22,2.9,3.1,63,0.00,,---,0.00,VWS V14.01,2013-09-19 13:22:00,
2013-09-19 08:23:00,54.8,42.9,0.00,NNE,22,2.7,3.1,64,0.00,,---,0.00,VWS V14.01,2013-09-19 13:23:00,
2013-09-19 08:24:00,54.8,42.9,0.00,NNE,22,2.7,3.1,64,0.00,,---,0.00,VWS V14.01,2013-09-19 13:24:00,
2013-09-19 08:25:00,54.8,42.9,0.00,NNE,22,2.7,3.1,64,0.00,,---,0.00,VWS V14.01,2013-09-19 13:25:00,
2013-09-19 08:26:00,54.8,42.9,0.00,NNE,22,2.7,3.1,64,0.00,,---,0.00,VWS V14.01,2013-09-19 13:26:00,
2013-09-19 08:27:00,54.6,42.7,0.00,NNE,22,2.7,3.1,64,0.00,,---,0.00,VWS V14.01,2013-09-19 13:27:00,
2013-09-19 08:28:00,54.6,42.7,0.00,NNE,22,2.0,3.1,64,0.00,,---,0.00,VWS V14.01,2013-09-19 13:28:00,
2013-09-19 08:29:00,54.5,42.5,0.00,NNE,22,2.0,3.1,64,0.00,,---,0.00,VWS V14.01,2013-09-19 13:29:00,
2013-09-19 08:30:00,54.5,42.5,0.00,NNE,22,2.0,3.1,64,0.00,,---,0.00,VWS V14.01,2013-09-19 13:30:00,
2013-09-19 08:31:00,54.3,42.4,0.00,NNE,22,2.5,2.5,64,0.00,,---,0.00,VWS V14.01,2013-09-19 13:31:00,
2013-09-19 08:32:00,54.3,42.4,0.00,NNE,22,2.7,2.7,64,0.00,,---,0.00,VWS V14.01,2013-09-19 13:32:00,
2013-09-19 08:33:00,54.1,42.2,0.00,NNE,22,2.5,2.7,64,0.00,,---,0.00,VWS V14.01,2013-09-19 13:33:00,
2013-09-19 08:34:00,53.9,42.4,0.00,NNE,22,2.2,2.7,65,0.00,,---,0.00,VWS V14.01,2013-09-19 13:34:00,
2013-09-19 08:35:00,53.9,42.4,0.00,NNE,22,2.5,2.7,65,0.00,,---,0.00,VWS V14.01,2013-09-19 13:35:00,
2013-09-19 08:36:00,53.7,42.3,0.00,NNE,22,2.5,2.7,65,0.00,,---,0.00,VWS V14.01,2013-09-19 13:36:00,
2013-09-19 08:37:00,53.6,42.1,0.00,NNE,22,2.5,2.7,65,0.00,,---,0.00,VWS V14.01,2013-09-19 13:37:00,
2013-09-19 08:38:00,53.6,42.1,0.00,NNE,22,2.2,2.7,65,0.00,,---,0.00,VWS V14.01,2013-09-19 13:38:00,
2013-09-19 08:39:00,53.6,42.1,0.00,NNE,22,2.5,2.7,65,0.00,,---,0.00,VWS V14.01,2013-09-19 13:39:00,
2013-09-19 08:41:00,53.4,41.9,0.00,NNE,22,1.6,2.7,65,0.00,,---,0.00,VWS V14.01,2013-09-19 13:41:00,
2013-09-19 08:42:00,53.4,41.9,0.00,NNE,22,1.3,2.7,65,0.00,,---,0.00,VWS V14.01,2013-09-19 13:42:00,
2013-09-19 08:43:00,53.0,42.0,0.00,NNE,22,1.6,2.7,66,0.00,,---,0.00,VWS V14.01,2013-09-19 13:43:00,
2013-09-19 08:44:00,52.8,41.8,0.00,NNE,22,2.0,2.7,66,0.00,,---,0.00,VWS V14.01,2013-09-19 13:44:00,
2013-09-19 08:45:00,52.8,41.8,0.00,NNE,22,1.6,2.7,66,0.00,,---,0.00,VWS V14.01,2013-09-19 13:45:00,
2013-09-19 08:46:00,52.8,41.8,0.00,NNE,22,1.6,1.6,66,0.00,,---,0.00,VWS V14.01,2013-09-19 13:46:00,
2013-09-19 08:47:00,52.5,41.8,0.00,NNE,22,1.1,1.6,67,0.00,,---,0.00,VWS V14.01,2013-09-19 13:47:00,
2013-09-19 08:48:00,52.3,41.7,0.00,NNE,22,1.1,1.6,67,0.00,,---,0.00,VWS V14.01,2013-09-19 13:48:00,
2013-09-19 08:49:00,52.3,41.7,0.00,NNE,22,1.6,1.6,67,0.00,,---,0.00,VWS V14.01,2013-09-19 13:49:00,
2013-09-19 08:51:00,52.3,41.7,0.00,NNE,22,2.0,2.0,67,0.00,,---,0.00,VWS V14.01,2013-09-19 13:51:00,
2013-09-19 08:52:00,52.3,42.5,0.00,NNE,22,1.1,2.0,69,0.00,,---,0.00,VWS V14.01,2013-09-19 13:52:00,
2013-09-19 08:53:00,52.3,42.5,0.00,NNE,22,0.0,2.0,69,0.00,,---,0.00,VWS V14.01,2013-09-19 13:53:00,
2013-09-19 08:54:00,59.1,53.7,0.00,North,0,6.3,10.7,82,0.00,,---,0.00,VWS V14.01,2013-09-19 13:54:00,
2013-09-19 08:55:00,52.3,42.1,0.00,NNE,22,0.0,2.0,68,0.00,,---,0.00,VWS V14.01,2013-09-19 13:55:00,
2013-09-19 08:56:00,52.1,42.7,0.00,NW,315,1.6,2.0,70,0.00,,---,0.00,VWS V14.01,2013-09-19 13:56:00,
2013-09-19 08:57:00,51.9,42.5,0.00,NW,315,2.5,2.5,70,0.00,,---,0.00,VWS V14.01,2013-09-19 13:57:00,
2013-09-19 08:58:00,51.9,42.8,0.00,NW,315,2.0,2.5,71,0.00,,---,0.00,VWS V14.01,2013-09-19 13:58:00,
2013-09-19 08:59:00,51.9,42.8,0.00,NW,315,2.0,2.5,71,0.00,,---,0.00,VWS V14.01,2013-09-19 13:59:00,
2013-09-19 09:00:00,51.9,43.2,0.00,NW,315,1.6,2.5,72,0.00,,---,0.00,VWS V14.01,2013-09-19 14:00:00,
2013-09-19 09:01:00,51.9,43.2,0.00,NW,315,1.1,1.6,72,0.00,,---,0.00,VWS V14.01,2013-09-19 14:01:00,
2013-09-19 09:02:00,51.8,42.7,0.00,NW,315,1.6,1.6,71,0.00,,---,0.00,VWS V14.01,2013-09-19 14:02:00,
2013-09-19 09:03:00,59.3,53.5,0.00,NW,315,6.0,9.2,81,0.00,,---,0.00,VWS V14.01,2013-09-19 14:03:00,
2013-09-19 09:04:00,51.8,43.0,0.00,NW,315,0.0,1.6,72,0.00,,---,0.00,VWS V14.01,2013-09-19 14:04:00,
2013-09-19 09:05:00,51.8,43.0,0.00,NW,315,0.0,1.6,72,0.00,,---,0.00,VWS V14.01,2013-09-19 14:05:00,
2013-09-19 09:06:00,51.8,42.7,0.00,NW,315,0.0,1.6,71,0.00,,---,0.00,VWS V14.01,2013-09-19 14:06:00,
2013-09-19 09:07:00,51.8,42.7,0.00,NW,315,0.0,1.6,71,0.00,,---,0.00,VWS V14.01,2013-09-19 14:07:00,
2013-09-19 09:08:00,51.6,42.5,0.00,NW,315,0.0,1.6,71,0.00,,---,0.00,VWS V14.01,2013-09-19 14:08:00,
2013-09-19 09:09:00,51.6,42.5,0.00,NW,315,0.0,1.6,71,0.00,,---,0.00,VWS V14.01,2013-09-19 14:09:00,
2013-09-19 09:10:00,51.6,42.5,0.00,NW,315,0.0,1.6,71,0.00,,---,0.00,VWS V14.01,2013-09-19 14:10:00,
2013-09-19 09:11:00,51.2,42.5,0.00,NW,315,0.0,1.6,72,0.00,,---,0.00,VWS V14.01,2013-09-19 14:11:00,
2013-09-19 09:13:00,51.2,42.5,0.00,NW,315,0.0,1.6,72,0.00,,---,0.00,VWS V14.01,2013-09-19 14:13:00,
2013-09-19 09:14:00,50.9,42.2,0.00,NW,315,0.0,1.6,72,0.00,,---,0.00,VWS V14.01,2013-09-19 14:14:00,
2013-09-19 09:15:00,50.9,42.2,0.00,NW,315,0.0,1.6,72,0.00,,---,0.00,VWS V14.01,2013-09-19 14:15:00,
2013-09-19 09:16:00,50.7,42.0,0.00,NW,315,0.0,0.0,72,0.00,,---,0.00,VWS V14.01,2013-09-19 14:16:00,
2013-09-19 09:17:00,50.7,42.0,0.00,NW,315,0.0,0.0,72,0.00,,---,0.00,VWS V14.01,2013-09-19 14:17:00,
2013-09-19 09:18:00,50.5,41.8,0.00,NW,315,0.0,0.0,72,0.00,,---,0.00,VWS V14.01,2013-09-19 14:18:00,
2013-09-19 09:19:00,50.5,41.8,0.00,NW,315,0.0,0.0,72,0.00,,---,0.00,VWS V14.01,2013-09-19 14:19:00,
2013-09-19 09:20:00,50.5,41.5,0.00,NW,315,0.0,0.0,71,0.00,,---,0.00,VWS V14.01,2013-09-19 14:20:00,
2013-09-19 09:21:00,50.5,41.5,0.00,NW,315,0.0,0.0,71,0.00,,---,0.00,VWS V14.01,2013-09-19 14:21:00,
2013-09-19 09:22:00,50.5,41.5,0.00,NW,315,0.0,0.0,71,0.00,,---,0.00,VWS V14.01,2013-09-19 14:22:00,
2013-09-19 09:23:00,50.5,41.5,0.00,NW,315,0.0,0.0,71,0.00,,---,0.00,VWS V14.01,2013-09-19 14:23:00,
2013-09-19 09:24:00,50.5,41.5,0.00,NW,315,0.0,0.0,71,0.00,,---,0.00,VWS V14.01,2013-09-19 14:24:00,
2013-09-19 09:25:00,50.5,41.5,0.00,NW,315,0.0,0.0,71,0.00,,---,0.00,VWS V14.01,2013-09-19 14:25:00,
2013-09-19 09:26:00,50.1,41.8,0.00,NW,315,0.0,0.0,73,0.00,,---,0.00,VWS V14.01,2013-09-19 14:26:00,
2013-09-19 09:27:00,50.0,42.0,0.00,NW,315,0.0,0.0,74,0.00,,---,0.00,VWS V14.01,2013-09-19 14:27:00,
2013-09-19 09:28:00,50.0,42.0,0.00,NW,315,0.0,0.0,74,0.00,,---,0.00,VWS V14.01,2013-09-19 14:28:00,
2013-09-19 09:29:00,50.0,42.0,0.00,NW,315,0.0,0.0,74,0.00,,---,0.00,VWS V14.01,2013-09-19 14:29:00,
2013-09-19 09:30:00,50.0,42.0,0.00,NW,315,0.0,0.0,74,0.00,,---,0.00,VWS V14.01,2013-09-19 14:30:00,
2013-09-19 09:31:00,49.8,41.8,0.00,NW,315,0.0,0.0,74,0.00,,---,0.00,VWS V14.01,2013-09-19 14:31:00,
2013-09-19 09:32:00,49.8,42.2,0.00,NW,315,0.0,0.0,75,0.00,,---,0.00,VWS V14.01,2013-09-19 14:32:00,
2013-09-19 09:33:00,49.8,42.5,0.00,NW,315,0.0,0.0,76,0.00,,---,0.00,VWS V14.01,2013-09-19 14:33:00,
2013-09-19 09:34:00,49.8,42.5,0.00,NW,315,0.0,0.0,76,0.00,,---,0.00,VWS V14.01,2013-09-19 14:34:00,
2013-09-19 09:36:00,49.8,42.5,0.00,NW,315,0.0,0.0,76,0.00,,---,0.00,VWS V14.01,2013-09-19 14:36:00,
2013-09-19 09:37:00,49.8,42.5,0.00,NW,315,0.0,0.0,76,0.00,,---,0.00,VWS V14.01,2013-09-19 14:37:00,
2013-09-19 09:38:00,49.6,42.0,0.00,NW,315,0.0,0.0,75,0.00,,---,0.00,VWS V14.01,2013-09-19 14:38:00,
2013-09-19 09:40:00,49.6,41.7,0.00,NW,315,0.0,0.0,74,0.00,,---,0.00,VWS V14.01,2013-09-19 14:40:00,
2013-09-19 09:41:00,49.4,42.2,0.00,NW,315,0.0,0.0,76,0.00,,---,0.00,VWS V14.01,2013-09-19 14:41:00,
2013-09-19 09:42:00,49.2,42.3,0.00,NW,315,0.0,0.0,77,0.00,,---,0.00,VWS V14.01,2013-09-19 14:42:00,
2013-09-19 09:43:00,49.2,42.0,0.00,NW,315,0.0,0.0,76,0.00,,---,0.00,VWS V14.01,2013-09-19 14:43:00,
2013-09-19 09:44:00,49.2,41.7,0.00,NE,45,1.6,2.0,75,0.00,,---,0.00,VWS V14.01,2013-09-19 14:44:00,
2013-09-19 09:45:00,49.2,42.0,0.00,NE,45,1.6,2.0,76,0.00,,---,0.00,VWS V14.01,2013-09-19 14:45:00,
2013-09-19 09:46:00,49.2,42.0,0.00,NE,45,1.3,1.6,76,0.00,,---,0.00,VWS V14.01,2013-09-19 14:46:00,
2013-09-19 09:47:00,49.2,42.0,0.00,NE,45,1.3,1.6,76,0.00,,---,0.00,VWS V14.01,2013-09-19 14:47:00,
2013-09-19 09:48:00,49.1,41.8,0.00,NE,45,1.3,1.6,76,0.00,,---,0.00,VWS V14.01,2013-09-19 14:48:00,
2013-09-19 09:49:00,49.1,41.8,0.00,NE,45,1.6,1.6,76,0.00,,---,0.00,VWS V14.01,2013-09-19 14:49:00,
2013-09-19 09:50:00,49.1,41.8,0.00,NE,45,0.0,1.6,76,0.00,,---,0.00,VWS V14.01,2013-09-19 14:50:00,
2013-09-19 09:51:00,49.1,41.8,0.00,NE,45,0.0,1.6,76,0.00,,---,0.00,VWS V14.01,2013-09-19 14:51:00,
2013-09-19 09:52:00,49.1,42.2,0.00,NE,45,0.0,1.6,77,0.00,,---,0.00,VWS V14.01,2013-09-19 14:52:00,
2013-09-19 09:53:00,49.1,42.2,0.00,NE,45,0.0,1.6,77,0.00,,---,0.00,VWS V14.01,2013-09-19 14:53:00,
2013-09-19 09:54:00,49.1,42.2,0.00,NE,45,0.0,1.6,77,0.00,,---,0.00,VWS V14.01,2013-09-19 14:54:00,
2013-09-19 09:55:00,49.1,42.2,0.00,NE,45,0.0,1.6,77,0.00,,---,0.00,VWS V14.01,2013-09-19 14:55:00,
2013-09-19 09:56:00,48.9,42.3,0.00,NE,45,0.0,1.6,78,0.00,,---,0.00,VWS V14.01,2013-09-19 14:56:00,
2013-09-19 09:58:00,48.9,42.3,0.00,NE,45,0.0,1.6,78,0.00,,---,0.00,VWS V14.01,2013-09-19 14:58:00,
2013-09-19 09:59:00,48.9,42.3,0.00,NE,45,0.0,1.6,78,0.00,,---,0.00,VWS V14.01,2013-09-19 14:59:00,
2013-09-19 10:00:00,48.9,42.3,0.00,NE,45,0.0,1.6,78,0.00,,---,0.00,VWS V14.01,2013-09-19 15:00:00,
2013-09-19 10:01:00,48.9,42.3,0.00,NE,45,0.0,0.0,78,0.00,,---,0.00,VWS V14.01,2013-09-19 15:01:00,
2013-09-19 10:02:00,48.9,42.3,0.00,NE,45,0.0,0.0,78,0.00,,---,0.00,VWS V14.01,2013-09-19 15:02:00,
2013-09-19 10:03:00,48.7,41.5,0.00,NE,45,0.0,0.0,76,0.00,,---,0.00,VWS V14.01,2013-09-19 15:03:00,
2013-09-19 10:04:00,48.7,41.5,0.00,NE,45,0.0,0.0,76,0.00,,---,0.00,VWS V14.01,2013-09-19 15:04:00,
2013-09-19 10:05:00,48.7,41.5,0.00,NE,45,0.0,0.0,76,0.00,,---,0.00,VWS V14.01,2013-09-19 15:05:00,
2013-09-19 10:06:00,48.5,41.7,0.00,NE,45,0.0,0.0,77,0.00,,---,0.00,VWS V14.01,2013-09-19 15:06:00,
2013-09-19 10:07:00,48.5,42.0,0.00,South,180,0.0,1.1,78,0.00,,---,0.00,VWS V14.01,2013-09-19 15:07:00,
2013-09-19 10:08:00,48.5,42.0,0.00,South,180,0.0,1.1,78,0.00,,---,0.00,VWS V14.01,2013-09-19 15:08:00,
2013-09-19 10:09:00,48.3,42.1,0.00,South,180,0.0,1.1,79,0.00,,---,0.00,VWS V14.01,2013-09-19 15:09:00,
2013-09-19 10:10:00,48.3,41.8,0.00,South,180,0.0,1.1,78,0.00,,---,0.00,VWS V14.01,2013-09-19 15:10:00,
2013-09-19 10:11:00,48.2,41.6,0.00,South,180,0.0,1.1,78,0.00,,---,0.00,VWS V14.01,2013-09-19 15:11:00,
2013-09-19 10:12:00,48.2,42.0,0.00,South,180,0.0,1.1,79,0.00,,---,0.00,VWS V14.01,2013-09-19 15:12:00,
2013-09-19 10:13:00,48.2,42.0,0.00,South,180,0.0,1.1,79,0.00,,---,0.00,VWS V14.01,2013-09-19 15:13:00,
2013-09-19 10:14:00,48.0,41.5,0.00,South,180,0.0,1.1,78,0.00,,---,0.00,VWS V14.01,2013-09-19 15:14:00,
2013-09-19 10:15:00,48.0,41.5,0.00,South,180,0.0,1.1,78,0.00,,---,0.00,VWS V14.01,2013-09-19 15:15:00,
2013-09-19 10:16:00,48.0,41.5,0.00,South,180,0.0,0.0,78,0.00,,---,0.00,VWS V14.01,2013-09-19 15:16:00,
2013-09-19 10:17:00,47.8,41.9,0.00,South,180,0.0,0.0,80,0.00,,---,0.00,VWS V14.01,2013-09-19 15:17:00,
2013-09-19 10:18:00,47.8,41.9,0.00,South,180,0.0,0.0,80,0.00,,---,0.00,VWS V14.01,2013-09-19 15:18:00,
2013-09-19 10:19:00,47.8,41.9,0.00,SE,135,1.3,1.6,80,0.00,,---,0.00,VWS V14.01,2013-09-19 15:19:00,
2013-09-19 10:20:00,47.8,41.6,0.00,SE,135,0.0,1.6,79,0.00,,---,0.00,VWS V14.01,2013-09-19 15:20:00,
2013-09-19 10:22:00,47.8,41.6,0.00,SE,135,0.0,1.6,79,0.00,,---,0.00,VWS V14.01,2013-09-19 15:22:00,
2013-09-19 10:23:00,47.8,41.6,0.00,SE,135,0.0,1.6,79,0.00,,---,0.00,VWS V14.01,2013-09-19 15:23:00,
2013-09-19 10:24:00,48.2,42.6,0.00,SE,135,1.1,1.6,81,0.00,,---,0.00,VWS V14.01,2013-09-19 15:24:00,
2013-09-19 10:25:00,48.2,42.9,0.00,SE,135,0.0,1.6,82,0.00,,---,0.00,VWS V14.01,2013-09-19 15:25:00,
2013-09-19 10:26:00,48.2,43.2,0.00,SE,135,0.0,1.6,83,0.00,,---,0.00,VWS V14.01,2013-09-19 15:26:00,
2013-09-19 10:27:00,48.2,43.2,0.00,SE,135,0.0,1.6,83,0.00,,---,0.00,VWS V14.01,2013-09-19 15:27:00,
2013-09-19 10:28:00,48.2,44.2,0.00,SE,135,0.0,1.6,86,0.00,,---,0.00,VWS V14.01,2013-09-19 15:28:00,
2013-09-19 10:29:00,48.2,44.2,0.00,SE,135,0.0,1.6,86,0.00,,---,0.00,VWS V14.01,2013-09-19 15:29:00,
2013-09-19 10:30:00,48.2,44.2,0.00,SE,135,0.0,1.6,86,0.00,,---,0.00,VWS V14.01,2013-09-19 15:30:00,
2013-09-19 10:31:00,48.2,43.9,0.00,SE,135,0.0,0.0,85,0.00,,---,0.00,VWS V14.01,2013-09-19 15:31:00,
2013-09-19 10:32:00,48.2,43.9,0.00,SE,135,0.0,0.0,85,0.00,,---,0.00,VWS V14.01,2013-09-19 15:32:00,
2013-09-19 10:33:00,48.0,43.4,0.00,SE,135,0.0,0.0,84,0.00,,---,0.00,VWS V14.01,2013-09-19 15:33:00,
2013-09-19 10:34:00,48.0,43.4,0.00,SE,135,0.0,0.0,84,0.00,,---,0.00,VWS V14.01,2013-09-19 15:34:00,
2013-09-19 10:35:00,47.8,42.9,0.00,SE,135,0.0,0.0,83,0.00,,---,0.00,VWS V14.01,2013-09-19 15:35:00,
2013-09-19 10:36:00,47.8,42.9,0.00,SE,135,0.0,0.0,83,0.00,,---,0.00,VWS V14.01,2013-09-19 15:36:00,
2013-09-19 10:37:00,47.6,43.0,0.00,SE,135,0.0,0.0,84,0.00,,---,0.00,VWS V14.01,2013-09-19 15:37:00,
2013-09-19 10:38:00,47.6,43.0,0.00,SE,135,0.0,0.0,84,0.00,,---,0.00,VWS V14.01,2013-09-19 15:38:00,
2013-09-19 10:39:00,47.6,43.0,0.00,SE,135,0.0,0.0,84,0.00,,---,0.00,VWS V14.01,2013-09-19 15:39:00,
2013-09-19 10:40:00,47.6,43.0,0.00,SE,135,0.0,0.0,84,0.00,,---,0.00,VWS V14.01,2013-09-19 15:40:00,
2013-09-19 10:41:00,47.4,42.9,0.00,SE,135,0.0,0.0,84,0.00,,---,0.00,VWS V14.01,2013-09-19 15:41:00,
2013-09-19 10:42:00,47.4,42.9,0.00,SE,135,0.0,0.0,84,0.00,,---,0.00,VWS V14.01,2013-09-19 15:42:00,
2013-09-19 10:43:00,47.4,42.9,0.00,SE,135,0.0,0.0,84,0.00,,---,0.00,VWS V14.01,2013-09-19 15:43:00,
2013-09-19 10:44:00,47.4,42.9,0.00,SE,135,0.0,0.0,84,0.00,,---,0.00,VWS V14.01,2013-09-19 15:44:00,
2013-09-19 10:45:00,47.4,42.5,0.00,SE,135,0.0,0.0,83,0.00,,---,0.00,VWS V14.01,2013-09-19 15:45:00,
2013-09-19 10:46:00,47.3,42.0,0.00,SE,135,0.0,0.0,82,0.00,,---,0.00,VWS V14.01,2013-09-19 15:46:00,
2013-09-19 10:47:00,47.4,42.2,0.00,SE,135,0.0,0.0,82,0.00,,---,0.00,VWS V14.01,2013-09-19 15:47:00,
2013-09-19 10:48:00,47.4,41.9,0.00,ESE,112,0.0,0.0,81,0.00,,---,0.00,VWS V14.01,2013-09-19 15:48:00,
2013-09-19 10:49:00,47.4,42.2,0.00,ESE,112,0.0,0.0,82,0.00,,---,0.00,VWS V14.01,2013-09-19 15:49:00,
2013-09-19 10:50:00,47.4,42.5,0.00,ESE,112,0.0,0.0,83,0.00,,---,0.00,VWS V14.01,2013-09-19 15:50:00,
2013-09-19 10:51:00,47.4,42.5,0.00,ESE,112,0.0,0.0,83,0.00,,---,0.00,VWS V14.01,2013-09-19 15:51:00,
2013-09-19 10:52:00,47.4,42.9,0.00,ESE,112,0.0,0.0,84,0.00,,---,0.00,VWS V14.01,2013-09-19 15:52:00,
2013-09-19 10:53:00,47.4,42.9,0.00,ESE,112,0.0,0.0,84,0.00,,---,0.00,VWS V14.01,2013-09-19 15:53:00,
2013-09-19 10:54:00,47.4,42.9,0.00,ESE,112,0.0,0.0,84,0.00,,---,0.00,VWS V14.01,2013-09-19 15:54:00,
2013-09-19 10:55:00,47.4,42.9,0.00,ESE,112,0.0,0.0,84,0.00,,---,0.00,VWS V14.01,2013-09-19 15:55:00,
2013-09-19 10:56:00,47.4,42.9,0.00,ESE,112,0.0,0.0,84,0.00,,---,0.00,VWS V14.01,2013-09-19 15:56:00,
2013-09-19 10:57:00,47.3,43.0,0.00,ESE,112,0.0,0.0,85,0.00,,---,0.00,VWS V14.01,2013-09-19 15:57:00,
2013-09-19 10:58:00,47.3,43.0,0.00,ESE,112,1.6,1.6,85,0.00,,---,0.00,VWS V14.01,2013-09-19 15:58:00,
2013-09-19 10:59:00,47.3,43.0,0.00,ESE,112,1.6,1.6,85,0.00,,---,0.00,VWS V14.01,2013-09-19 15:59:00,
2013-09-19 11:00:00,47.3,43.3,0.00,NW,315,2.5,2.5,86,0.00,,---,0.00,VWS V14.01,2013-09-19 16:00:00,
2013-09-19 11:01:00,47.3,43.3,0.00,NW,315,2.5,2.5,86,0.00,,---,0.00,VWS V14.01,2013-09-19 16:01:00,
2013-09-19 11:02:00,47.3,43.6,0.00,NW,315,2.0,2.5,87,0.00,,---,0.00,VWS V14.01,2013-09-19 16:02:00,
2013-09-19 11:03:00,47.3,43.6,0.00,NW,315,2.7,2.7,87,0.00,,---,0.00,VWS V14.01,2013-09-19 16:03:00,
2013-09-19 11:04:00,47.1,43.4,0.00,NW,315,2.2,2.7,87,0.00,,---,0.00,VWS V14.01,2013-09-19 16:04:00,
2013-09-19 11:05:00,47.1,43.7,0.00,NW,315,2.2,2.7,88,0.00,,---,0.00,VWS V14.01,2013-09-19 16:05:00,
2013-09-19 11:06:00,47.1,43.7,0.00,NW,315,1.6,2.7,88,0.00,,---,0.00,VWS V14.01,2013-09-19 16:06:00,
2013-09-19 11:08:00,47.1,43.7,0.00,NW,315,0.9,2.7,88,0.00,,---,0.00,VWS V14.01,2013-09-19 16:08:00,
2013-09-19 11:09:00,47.1,43.4,0.00,NW,315,0.9,2.7,87,0.00,,---,0.00,VWS V14.01,2013-09-19 16:09:00,
2013-09-19 11:10:00,47.1,43.4,0.00,NW,315,0.0,2.7,87,0.00,,---,0.00,VWS V14.01,2013-09-19 16:10:00,
2013-09-19 11:11:00,47.1,43.4,0.00,NW,315,0.0,2.7,87,0.00,,---,0.00,VWS V14.01,2013-09-19 16:11:00,
2013-09-19 11:12:00,47.3,43.6,0.00,NW,315,0.0,2.7,87,0.00,,---,0.00,VWS V14.01,2013-09-19 16:12:00,
2013-09-19 11:13:00,47.3,43.6,0.00,NW,315,1.1,2.7,87,0.00,,---,0.00,VWS V14.01,2013-09-19 16:13:00,
2013-09-19 11:15:00,47.3,43.6,0.00,NW,315,1.1,2.7,87,0.00,,---,0.00,VWS V14.01,2013-09-19 16:15:00,
2013-09-19 11:16:00,47.3,43.9,0.00,NW,315,0.0,1.1,88,0.00,,---,0.00,VWS V14.01,2013-09-19 16:16:00,
2013-09-19 11:17:00,47.3,43.9,0.00,NW,315,0.0,1.1,88,0.00,,---,0.00,VWS V14.01,2013-09-19 16:17:00,
2013-09-19 11:18:00,47.3,43.9,0.00,NW,315,0.0,1.1,88,0.00,,---,0.00,VWS V14.01,2013-09-19 16:18:00,
2013-09-19 11:19:00,47.3,43.9,0.00,NW,315,0.0,1.1,88,0.00,,---,0.00,VWS V14.01,2013-09-19 16:19:00,
2013-09-19 11:20:00,47.1,43.4,0.00,NW,315,0.0,1.1,87,0.00,,---,0.00,VWS V14.01,2013-09-19 16:20:00,
2013-09-19 11:21:00,47.1,43.4,0.00,NW,315,0.0,1.1,87,0.00,,---,0.00,VWS V14.01,2013-09-19 16:21:00,
2013-09-19 11:22:00,46.9,43.2,0.00,NW,315,0.0,1.1,87,0.00,,---,0.00,VWS V14.01,2013-09-19 16:22:00,
2013-09-19 11:23:00,46.9,43.2,0.00,NW,315,0.0,1.1,87,0.00,,---,0.00,VWS V14.01,2013-09-19 16:23:00,
2013-09-19 11:24:00,46.9,43.2,0.00,NW,315,0.0,1.1,87,0.00,,---,0.00,VWS V14.01,2013-09-19 16:24:00,
2013-09-19 11:25:00,46.7,43.1,0.00,NW,315,0.0,1.1,87,0.00,,---,0.00,VWS V14.01,2013-09-19 16:25:00,
2013-09-19 11:26:00,46.7,43.1,0.00,NW,315,0.0,1.1,87,0.00,,---,0.00,VWS V14.01,2013-09-19 16:26:00,
2013-09-19 11:27:00,46.5,42.6,0.00,NW,315,0.0,1.1,86,0.00,,---,0.00,VWS V14.01,2013-09-19 16:27:00,
2013-09-19 11:28:00,46.5,42.6,0.00,NW,315,2.0,2.2,86,0.00,,---,0.00,VWS V14.01,2013-09-19 16:28:00,
2013-09-19 11:29:00,46.7,43.1,0.00,NW,315,1.3,2.2,87,0.00,,---,0.00,VWS V14.01,2013-09-19 16:29:00,
2013-09-19 11:30:00,46.7,43.1,0.00,NW,315,1.6,2.2,87,0.00,,---,0.00,VWS V14.01,2013-09-19 16:30:00,
2013-09-19 11:31:00,46.7,43.1,0.00,NW,315,0.0,1.6,87,0.00,,---,0.00,VWS V14.01,2013-09-19 16:31:00,
2013-09-19 11:32:00,46.7,43.1,0.00,NW,315,2.0,2.0,87,0.00,,---,0.00,VWS V14.01,2013-09-19 16:32:00,
2013-09-19 11:33:00,46.7,43.1,0.00,NW,315,1.1,2.0,87,0.00,,---,0.00,VWS V14.01,2013-09-19 16:33:00,
2013-09-19 11:34:00,46.9,43.5,0.00,NW,315,1.1,2.0,88,0.00,,---,0.00,VWS V14.01,2013-09-19 16:34:00,
2013-09-19 11:35:00,46.9,43.8,0.00,NW,315,0.9,2.0,89,0.00,,---,0.00,VWS V14.01,2013-09-19 16:35:00,
2013-09-19 11:36:00,46.9,43.8,0.00,NW,315,1.1,2.0,89,0.00,,---,0.00,VWS V14.01,2013-09-19 16:36:00,
2013-09-19 11:37:00,46.9,43.8,0.00,NW,315,1.1,2.0,89,0.00,,---,0.00,VWS V14.01,2013-09-19 16:37:00,
2013-09-19 11:38:00,46.9,43.8,0.00,NW,315,1.1,2.0,89,0.00,,---,0.00,VWS V14.01,2013-09-19 16:38:00,
2013-09-19 11:39:00,46.9,43.8,0.00,NW,315,1.1,2.0,89,0.00,,---,0.00,VWS V14.01,2013-09-19 16:39:00,
2013-09-19 11:40:00,46.9,43.8,0.00,NW,315,1.1,2.0,89,0.00,,---,0.00,VWS V14.01,2013-09-19 16:40:00,
2013-09-19 11:41:00,46.9,43.8,0.00,NW,315,1.3,2.0,89,0.00,,---,0.00,VWS V14.01,2013-09-19 16:41:00,
2013-09-19 11:42:00,46.7,44.0,0.00,NW,315,2.0,2.2,90,0.00,,---,0.00,VWS V14.01,2013-09-19 16:42:00,
2013-09-19 11:43:00,46.7,44.0,0.00,NW,315,2.2,2.2,90,0.00,,---,0.00,VWS V14.01,2013-09-19 16:43:00,
2013-09-19 11:44:00,46.7,44.0,0.00,NW,315,1.6,2.2,90,0.00,,---,0.00,VWS V14.01,2013-09-19 16:44:00,
2013-09-19 11:45:00,46.7,44.0,0.00,NW,315,1.6,2.2,90,0.00,,---,0.00,VWS V14.01,2013-09-19 16:45:00,
2013-09-19 11:46:00,46.7,44.0,0.00,NW,315,1.3,1.6,90,0.00,,---,0.00,VWS V14.01,2013-09-19 16:46:00,
2013-09-19 11:47:00,46.7,44.0,0.00,NW,315,1.1,1.6,90,0.00,,---,0.00,VWS V14.01,2013-09-19 16:47:00,
2013-09-19 11:48:00,46.7,44.0,0.00,NW,315,0.0,1.6,90,0.00,,---,0.00,VWS V14.01,2013-09-19 16:48:00,
2013-09-19 11:49:00,46.7,43.7,0.00,NW,315,0.0,1.6,89,0.00,,---,0.00,VWS V14.01,2013-09-19 16:49:00,
2013-09-19 11:50:00,46.7,43.7,0.00,NW,315,0.0,1.6,89,0.00,,---,0.00,VWS V14.01,2013-09-19 16:50:00,
2013-09-19 11:51:00,46.7,43.7,0.00,NW,315,0.0,1.6,89,0.00,,---,0.00,VWS V14.01,2013-09-19 16:51:00,
2013-09-19 11:52:00,46.7,43.7,0.00,NW,315,0.0,1.6,89,0.00,,---,0.00,VWS V14.01,2013-09-19 16:52:00,
2013-09-19 11:53:00,46.7,43.7,0.00,SW,225,0.0,1.6,89,0.00,,---,0.00,VWS V14.01,2013-09-19 16:53:00,
2013-09-19 11:54:00,46.7,43.7,0.00,SW,225,1.1,1.6,89,0.00,,---,0.00,VWS V14.01,2013-09-19 16:54:00,
2013-09-19 11:55:00,46.7,43.7,0.00,SW,225,0.0,1.6,89,0.00,,---,0.00,VWS V14.01,2013-09-19 16:55:00,
2013-09-19 11:56:00,46.7,43.7,0.00,SW,225,0.0,1.6,89,0.00,,---,0.00,VWS V14.01,2013-09-19 16:56:00,
2013-09-19 11:57:00,46.7,43.4,0.00,NW,315,0.0,1.6,88,0.00,,---,0.00,VWS V14.01,2013-09-19 16:57:00,
2013-09-19 11:58:00,46.7,43.4,0.00,NW,315,2.0,2.0,88,0.00,,---,0.00,VWS V14.01,2013-09-19 16:58:00,
2013-09-19 11:59:00,46.7,43.7,0.00,NW,315,1.1,2.0,89,0.00,,---,0.00,VWS V14.01,2013-09-19 16:59:00,
2013-09-19 12:00:00,46.7,43.7,0.00,NW,315,0.0,2.0,89,0.00,,---,0.00,VWS V14.01,2013-09-19 17:00:00,
2013-09-19 12:01:00,46.7,43.7,0.00,NW,315,0.0,0.0,89,0.00,,---,0.00,VWS V14.01,2013-09-19 17:01:00,
2013-09-19 12:02:00,46.7,43.4,0.00,NW,315,0.0,0.0,88,0.00,,---,0.00,VWS V14.01,2013-09-19 17:02:00,
2013-09-19 12:03:00,46.7,43.4,0.00,NW,315,1.3,1.3,88,0.00,,---,0.00,VWS V14.01,2013-09-19 17:03:00,
2013-09-19 12:04:00,46.5,43.2,0.00,NW,315,1.1,1.3,88,0.00,,---,0.00,VWS V14.01,2013-09-19 17:04:00,
2013-09-19 12:05:00,46.5,43.5,0.00,NW,315,1.1,1.3,89,0.00,,---,0.00,VWS V14.01,2013-09-19 17:05:00,
2013-09-19 12:06:00,46.5,43.5,0.00,NW,315,1.6,2.0,89,0.00,,---,0.00,VWS V14.01,2013-09-19 17:06:00,
2013-09-19 12:07:00,46.5,43.5,0.00,NNW,338,2.2,2.2,89,0.00,,---,0.00,VWS V14.01,2013-09-19 17:07:00,
2013-09-19 12:08:00,46.5,43.8,0.00,North,0,2.5,2.7,90,0.00,,---,0.00,VWS V14.01,2013-09-19 17:08:00,
2013-09-19 12:09:00,46.5,43.8,0.00,North,0,2.5,2.7,90,0.00,,---,0.00,VWS V14.01,2013-09-19 17:09:00,
2013-09-19 12:10:00,46.4,43.6,0.00,North,0,2.5,2.7,90,0.00,,---,0.00,VWS V14.01,2013-09-19 17:10:00,
2013-09-19 12:11:00,46.4,43.6,0.00,North,0,1.3,2.7,90,0.00,,---,0.00,VWS V14.01,2013-09-19 17:11:00,
2013-09-19 12:12:00,46.4,43.6,0.00,North,0,2.5,2.7,90,0.00,,---,0.00,VWS V14.01,2013-09-19 17:12:00,
2013-09-19 12:13:00,46.4,43.6,0.00,NW,315,3.4,3.4,90,0.00,,---,0.00,VWS V14.01,2013-09-19 17:13:00,
2013-09-19 12:14:00,46.4,43.6,0.00,NW,315,3.1,3.4,90,0.00,,---,0.00,VWS V14.01,2013-09-19 17:14:00,
2013-09-19 12:15:00,46.4,43.6,0.00,NW,315,2.7,3.4,90,0.00,,---,0.00,VWS V14.01,2013-09-19 17:15:00,
2013-09-19 12:16:00,46.2,43.4,0.00,NNW,338,2.5,2.7,90,0.00,,---,0.00,VWS V14.01,2013-09-19 17:16:00,
2013-09-19 12:17:00,46.2,43.4,0.00,NNW,338,2.5,2.7,90,0.00,,---,0.00,VWS V14.01,2013-09-19 17:17:00,
2013-09-19 12:18:00,46.0,43.2,0.00,NNW,338,2.5,2.7,90,0.00,,---,0.00,VWS V14.01,2013-09-19 17:18:00,
2013-09-19 12:19:00,46.0,43.0,0.00,North,0,2.0,2.7,89,0.00,,---,0.00,VWS V14.01,2013-09-19 17:19:00,
2013-09-19 12:20:00,45.8,42.8,0.00,North,0,2.0,2.7,89,0.00,,---,0.00,VWS V14.01,2013-09-19 17:20:00,
2013-09-19 12:21:00,45.8,42.8,0.00,North,0,2.0,2.7,89,0.00,,---,0.00,VWS V14.01,2013-09-19 17:21:00,
2013-09-19 12:22:00,46.0,43.0,0.00,North,0,2.0,2.7,89,0.00,,---,0.00,VWS V14.01,2013-09-19 17:22:00,
2013-09-19 12:23:00,46.0,43.0,0.00,North,0,2.0,2.7,89,0.00,,---,0.00,VWS V14.01,2013-09-19 17:23:00,
2013-09-19 12:24:00,46.0,43.0,0.00,North,0,2.5,2.7,89,0.00,,---,0.00,VWS V14.01,2013-09-19 17:24:00,
2013-09-19 12:25:00,46.2,43.4,0.00,NNW,338,2.5,2.7,90,0.00,,---,0.00,VWS V14.01,2013-09-19 17:25:00,
2013-09-19 12:26:00,46.2,43.4,0.00,NNW,338,2.5,2.7,90,0.00,,---,0.00,VWS V14.01,2013-09-19 17:26:00,
2013-09-19 12:28:00,46.4,43.9,0.00,North,0,2.5,2.7,91,0.00,,---,0.00,VWS V14.01,2013-09-19 17:28:00,
2013-09-19 12:29:00,46.4,43.9,0.00,North,0,1.3,2.7,91,0.00,,---,0.00,VWS V14.01,2013-09-19 17:29:00,
2013-09-19 12:30:00,46.4,43.9,0.00,North,0,1.3,2.7,91,0.00,,---,0.00,VWS V14.01,2013-09-19 17:30:00,
2013-09-19 12:31:00,46.4,43.9,0.00,North,0,1.3,1.6,91,0.00,,---,0.00,VWS V14.01,2013-09-19 17:31:00,
2013-09-19 12:32:00,46.4,43.9,0.00,North,0,2.7,2.7,91,0.00,,---,0.00,VWS V14.01,2013-09-19 17:32:00,
2013-09-19 12:33:00,46.4,43.9,0.00,North,0,2.0,2.7,91,0.00,,---,0.00,VWS V14.01,2013-09-19 17:33:00,
2013-09-19 12:34:00,46.4,43.9,0.00,North,0,2.2,2.7,91,0.00,,---,0.00,VWS V14.01,2013-09-19 17:34:00,
2013-09-19 12:35:00,46.2,43.7,0.00,NW,315,2.5,2.7,91,0.00,,---,0.00,VWS V14.01,2013-09-19 17:35:00,
2013-09-19 12:36:00,46.0,43.5,0.00,NW,315,2.5,2.7,91,0.00,,---,0.00,VWS V14.01,2013-09-19 17:36:00,
2013-09-19 12:37:00,46.0,43.5,0.00,NW,315,2.0,2.7,91,0.00,,---,0.00,VWS V14.01,2013-09-19 17:37:00,
2013-09-19 12:38:00,45.8,43.3,0.00,NW,315,2.2,2.7,91,0.00,,---,0.00,VWS V14.01,2013-09-19 17:38:00,
2013-09-19 12:40:00,45.6,43.2,0.00,NW,315,2.0,2.7,91,0.00,,---,0.00,VWS V14.01,2013-09-19 17:40:00,
2013-09-19 12:41:00,45.5,42.7,0.00,North,0,2.0,2.7,90,0.00,,---,0.00,VWS V14.01,2013-09-19 17:41:00,
2013-09-19 12:42:00,45.3,42.5,0.00,North,0,2.5,2.7,90,0.00,,---,0.00,VWS V14.01,2013-09-19 17:42:00,
2013-09-19 12:43:00,45.3,42.5,0.00,North,0,2.5,2.7,90,0.00,,---,0.00,VWS V14.01,2013-09-19 17:43:00,
2013-09-19 12:44:00,45.3,42.5,0.00,North,0,2.9,2.9,90,0.00,,---,0.00,VWS V14.01,2013-09-19 17:44:00,
2013-09-19 12:45:00,45.3,42.5,0.00,North,0,2.7,2.9,90,0.00,,---,0.00,VWS V14.01,2013-09-19 17:45:00,
2013-09-19 12:46:00,44.9,41.9,0.00,North,0,2.7,2.7,89,0.00,,---,0.00,VWS V14.01,2013-09-19 17:46:00,
2013-09-19 12:47:00,44.7,41.7,0.00,North,0,2.5,2.7,89,0.00,,---,0.00,VWS V14.01,2013-09-19 17:47:00,
2013-09-19 12:48:00,44.7,41.7,0.00,North,0,1.6,2.7,89,0.00,,---,0.00,VWS V14.01,2013-09-19 17:48:00,
2013-09-19 12:49:00,44.7,41.7,0.00,North,0,0.0,2.7,89,0.00,,---,0.00,VWS V14.01,2013-09-19 17:49:00,
2013-09-19 12:50:00,45.1,42.3,0.00,North,0,0.0,2.7,90,0.00,,---,0.00,VWS V14.01,2013-09-19 17:50:00,
2013-09-19 12:51:00,45.1,42.3,0.00,North,0,0.0,2.7,90,0.00,,---,0.00,VWS V14.01,2013-09-19 17:51:00,
2013-09-19 12:52:00,45.1,42.3,0.00,North,0,0.0,2.7,90,0.00,,---,0.00,VWS V14.01,2013-09-19 17:52:00,
2013-09-19 12:53:00,45.1,42.3,0.00,North,0,0.0,2.7,90,0.00,,---,0.00,VWS V14.01,2013-09-19 17:53:00,
2013-09-19 12:54:00,44.7,41.7,0.00,North,0,1.6,2.7,89,0.00,,---,0.00,VWS V14.01,2013-09-19 17:54:00,
2013-09-19 12:55:00,44.7,41.7,0.00,North,0,2.2,2.7,89,0.00,,---,0.00,VWS V14.01,2013-09-19 17:55:00,
2013-09-19 12:56:00,44.7,41.7,0.00,North,0,2.2,2.7,89,0.00,,---,0.00,VWS V14.01,2013-09-19 17:56:00,
2013-09-19 12:57:00,44.7,41.7,0.00,North,0,2.5,2.7,89,0.00,,---,0.00,VWS V14.01,2013-09-19 17:57:00,
2013-09-19 12:58:00,44.7,42.0,0.00,North,0,2.5,2.7,90,0.00,,---,0.00,VWS V14.01,2013-09-19 17:58:00,
2013-09-19 12:59:00,44.7,42.0,0.00,North,0,2.7,2.7,90,0.00,,---,0.00,VWS V14.01,2013-09-19 17:59:00,
2013-09-19 13:00:00,44.7,42.3,0.00,North,0,2.0,2.0,91,0.00,,---,0.00,VWS V14.01,2013-09-19 18:00:00,
2013-09-19 13:01:00,44.9,42.5,0.00,North,0,0.9,2.0,91,0.00,,---,0.00,VWS V14.01,2013-09-19 18:01:00,
2013-09-19 13:02:00,44.9,42.5,0.00,North,0,2.2,2.2,91,0.00,,---,0.00,VWS V14.01,2013-09-19 18:02:00,
2013-09-19 13:03:00,44.9,42.5,0.00,NW,315,2.7,2.7,91,0.00,,---,0.00,VWS V14.01,2013-09-19 18:03:00,
2013-09-19 13:04:00,44.9,42.5,0.00,NW,315,2.7,2.9,91,0.00,,---,0.00,VWS V14.01,2013-09-19 18:04:00,
2013-09-19 13:06:00,44.9,42.5,0.00,NW,315,2.5,2.9,91,0.00,,---,0.00,VWS V14.01,2013-09-19 18:06:00,
2013-09-19 13:07:00,44.7,42.6,0.00,NNW,338,2.7,3.6,92,0.00,,---,0.00,VWS V14.01,2013-09-19 18:07:00,
2013-09-19 13:08:00,44.7,42.6,0.00,North,0,2.7,3.6,92,0.00,,---,0.00,VWS V14.01,2013-09-19 18:08:00,
2013-09-19 13:09:00,44.6,42.4,0.00,NNW,338,2.7,3.6,92,0.00,,---,0.00,VWS V14.01,2013-09-19 18:09:00,
2013-09-19 13:11:00,44.4,42.2,0.00,North,0,2.7,3.6,92,0.00,,---,0.00,VWS V14.01,2013-09-19 18:11:00,
2013-09-19 13:13:00,44.4,42.2,0.00,North,0,2.7,3.6,92,0.00,,---,0.00,VWS V14.01,2013-09-19 18:13:00,
2013-09-19 13:14:00,44.6,42.4,0.00,NW,315,3.8,4.0,92,0.00,,---,0.00,VWS V14.01,2013-09-19 18:14:00,
2013-09-19 13:16:00,44.6,42.4,0.00,NW,315,2.9,4.0,92,0.00,,---,0.00,VWS V14.01,2013-09-19 18:16:00,
2013-09-19 13:17:00,44.7,42.8,0.00,NW,315,3.6,4.0,93,0.00,,---,0.00,VWS V14.01,2013-09-19 18:17:00,
2013-09-19 13:18:00,44.7,42.8,0.00,NNW,338,2.2,4.0,93,0.00,,---,0.00,VWS V14.01,2013-09-19 18:18:00,
2013-09-19 13:19:00,44.7,42.8,0.00,North,0,2.7,4.0,93,0.00,,---,0.00,VWS V14.01,2013-09-19 18:19:00,
2013-09-19 13:20:00,44.9,43.3,0.00,NW,315,3.6,4.0,94,0.00,,---,0.00,VWS V14.01,2013-09-19 18:20:00,
2013-09-19 13:21:00,44.9,43.3,0.00,NW,315,2.9,4.0,94,0.00,,---,0.00,VWS V14.01,2013-09-19 18:21:00,
2013-09-19 13:22:00,44.9,43.3,0.00,NW,315,2.9,4.0,94,0.00,,---,0.00,VWS V14.01,2013-09-19 18:22:00,
2013-09-19 13:23:00,44.9,43.3,0.00,NW,315,2.0,4.0,94,0.00,,---,0.00,VWS V14.01,2013-09-19 18:23:00,
2013-09-19 13:24:00,44.9,43.3,0.00,NW,315,2.5,4.0,94,0.00,,---,0.00,VWS V14.01,2013-09-19 18:24:00,
2013-09-19 13:25:00,44.7,43.1,0.00,NW,315,2.9,4.0,94,0.00,,---,0.00,VWS V14.01,2013-09-19 18:25:00,
2013-09-19 13:26:00,44.7,43.1,0.00,NW,315,2.5,4.0,94,0.00,,---,0.00,VWS V14.01,2013-09-19 18:26:00,
2013-09-19 13:27:00,44.7,43.1,0.00,West,270,0.0,4.0,94,0.00,,---,0.00,VWS V14.01,2013-09-19 18:27:00,
2013-09-19 13:28:00,44.6,42.9,0.00,West,270,1.6,4.0,94,0.00,,---,0.00,VWS V14.01,2013-09-19 18:28:00,
2013-09-19 13:29:00,44.6,42.7,0.00,NNW,338,2.0,4.0,93,0.00,,---,0.00,VWS V14.01,2013-09-19 18:29:00,
2013-09-19 13:30:00,44.4,42.5,0.00,NNW,338,2.7,4.0,93,0.00,,---,0.00,VWS V14.01,2013-09-19 18:30:00,
2013-09-19 13:31:00,44.4,42.5,0.00,NNW,338,1.6,2.7,93,0.00,,---,0.00,VWS V14.01,2013-09-19 18:31:00,
2013-09-19 13:32:00,44.4,42.5,0.00,NW,315,2.9,2.9,93,0.00,,---,0.00,VWS V14.01,2013-09-19 18:32:00,
2013-09-19 13:33:00,44.2,42.3,0.00,NW,315,3.4,3.4,93,0.00,,---,0.00,VWS V14.01,2013-09-19 18:33:00,
2013-09-19 13:34:00,44.2,42.3,0.00,NW,315,2.5,3.4,93,0.00,,---,0.00,VWS V14.01,2013-09-19 18:34:00,
2013-09-19 13:35:00,44.2,42.3,0.00,NW,315,2.7,3.4,93,0.00,,---,0.00,VWS V14.01,2013-09-19 18:35:00,
2013-09-19 13:36:00,44.2,42.3,0.00,NW,315,2.7,3.4,93,0.00,,---,0.00,VWS V14.01,2013-09-19 18:36:00,
2013-09-19 13:37:00,44.2,42.3,0.00,NW,315,2.7,3.4,93,0.00,,---,0.00,VWS V14.01,2013-09-19 18:37:00,
2013-09-19 13:38:00,44.4,42.5,0.00,NW,315,1.6,3.4,93,0.00,,---,0.00,VWS V14.01,2013-09-19 18:38:00,
2013-09-19 13:39:00,44.2,42.3,0.00,NW,315,1.6,3.4,93,0.00,,---,0.00,VWS V14.01,2013-09-19 18:39:00,
2013-09-19 13:40:00,44.2,42.3,0.00,NW,315,1.6,3.4,93,0.00,,---,0.00,VWS V14.01,2013-09-19 18:40:00,
2013-09-19 13:41:00,44.2,42.3,0.00,NNW,338,2.0,3.4,93,0.00,,---,0.00,VWS V14.01,2013-09-19 18:41:00,
2013-09-19 13:42:00,44.2,42.3,0.00,NNW,338,2.5,3.4,93,0.00,,---,0.00,VWS V14.01,2013-09-19 18:42:00,
2013-09-19 13:43:00,44.2,42.3,0.00,NNW,338,2.5,3.4,93,0.00,,---,0.00,VWS V14.01,2013-09-19 18:43:00,
2013-09-19 13:44:00,44.4,42.5,0.00,North,0,1.3,3.4,93,0.00,,---,0.00,VWS V14.01,2013-09-19 18:44:00,
2013-09-19 13:45:00,44.4,42.5,0.00,North,0,1.3,3.4,93,0.00,,---,0.00,VWS V14.01,2013-09-19 18:45:00,
2013-09-19 13:46:00,44.4,42.5,0.00,North,0,1.3,1.3,93,0.00,,---,0.00,VWS V14.01,2013-09-19 18:46:00,
2013-09-19 13:47:00,44.6,42.7,0.00,NNW,338,0.0,1.6,93,0.00,,---,0.00,VWS V14.01,2013-09-19 18:47:00,
2013-09-19 13:48:00,44.6,42.7,0.00,NNW,338,0.0,1.6,93,0.00,,---,0.00,VWS V14.01,2013-09-19 18:48:00,
2013-09-19 13:49:00,44.6,42.7,0.00,NW,315,2.9,2.9,93,0.00,,---,0.00,VWS V14.01,2013-09-19 18:49:00,
2013-09-19 13:50:00,44.6,42.7,0.00,NW,315,2.0,2.9,93,0.00,,---,0.00,VWS V14.01,2013-09-19 18:50:00,
2013-09-19 13:51:00,44.6,42.7,0.00,NW,315,1.3,2.9,93,0.00,,---,0.00,VWS V14.01,2013-09-19 18:51:00,
2013-09-19 13:52:00,44.6,42.7,0.00,NW,315,2.2,2.9,93,0.00,,---,0.00,VWS V14.01,2013-09-19 18:52:00,
2013-09-19 13:53:00,44.6,42.7,0.00,NW,315,2.0,2.9,93,0.00,,---,0.00,VWS V14.01,2013-09-19 18:53:00,
2013-09-19 13:55:00,44.4,42.5,0.00,NW,315,2.5,2.9,93,0.00,,---,0.00,VWS V14.01,2013-09-19 18:55:00,
2013-09-19 13:56:00,44.2,42.3,0.00,NW,315,3.1,3.1,93,0.00,,---,0.00,VWS V14.01,2013-09-19 18:56:00,
2013-09-19 13:57:00,44.2,42.3,0.00,NW,315,3.6,3.6,93,0.00,,---,0.00,VWS V14.01,2013-09-19 18:57:00,
2013-09-19 13:58:00,44.0,42.4,0.00,NW,315,3.4,3.6,94,0.00,,---,0.00,VWS V14.01,2013-09-19 18:58:00,
2013-09-19 13:59:00,44.0,42.4,0.00,NW,315,3.6,3.6,94,0.00,,---,0.00,VWS V14.01,2013-09-19 18:59:00,
2013-09-19 14:01:00,44.0,42.4,0.00,NW,315,3.4,3.6,94,0.00,,---,0.00,VWS V14.01,2013-09-19 19:01:00,
2013-09-19 14:02:00,44.2,42.3,0.00,NW,315,3.1,3.6,93,0.00,,---,0.00,VWS V14.01,2013-09-19 19:02:00,
2013-09-19 14:03:00,44.2,42.3,0.00,NW,315,2.7,3.6,93,0.00,,---,0.00,VWS V14.01,2013-09-19 19:03:00,
2013-09-19 14:04:00,44.2,42.3,0.00,NW,315,2.7,3.6,93,0.00,,---,0.00,VWS V14.01,2013-09-19 19:04:00,
2013-09-19 14:05:00,44.2,42.3,0.00,NW,315,2.5,3.6,93,0.00,,---,0.00,VWS V14.01,2013-09-19 19:05:00,
2013-09-19 14:06:00,44.2,42.3,0.00,NW,315,2.2,3.6,93,0.00,,---,0.00,VWS V14.01,2013-09-19 19:06:00,
2013-09-19 14:07:00,44.2,42.3,0.00,NW,315,2.0,3.6,93,0.00,,---,0.00,VWS V14.01,2013-09-19 19:07:00,
2013-09-19 14:09:00,44.0,42.4,0.00,NW,315,1.6,3.6,94,0.00,,---,0.00,VWS V14.01,2013-09-19 19:09:00,
2013-09-19 14:10:00,44.0,42.4,0.00,NW,315,2.7,3.6,94,0.00,,---,0.00,VWS V14.01,2013-09-19 19:10:00,
2013-09-19 14:11:00,44.0,42.4,0.00,NW,315,3.1,3.6,94,0.00,,---,0.00,VWS V14.01,2013-09-19 19:11:00,
2013-09-19 14:12:00,43.8,42.2,0.00,NW,315,2.9,3.6,94,0.00,,---,0.00,VWS V14.01,2013-09-19 19:12:00,
2013-09-19 14:13:00,43.8,42.2,0.00,NW,315,3.4,3.6,94,0.00,,---,0.00,VWS V14.01,2013-09-19 19:13:00,
2013-09-19 14:14:00,43.8,42.2,0.00,NW,315,3.1,3.6,94,0.00,,---,0.00,VWS V14.01,2013-09-19 19:14:00,
2013-09-19 14:15:00,43.8,42.2,0.00,NW,315,3.1,3.6,94,0.00,,---,0.00,VWS V14.01,2013-09-19 19:15:00,
2013-09-19 14:16:00,43.8,42.2,0.00,NW,315,3.6,3.6,94,0.00,,---,0.00,VWS V14.01,2013-09-19 19:16:00,
2013-09-19 14:17:00,43.8,42.2,0.00,NW,315,3.6,3.6,94,0.00,,---,0.00,VWS V14.01,2013-09-19 19:17:00,
2013-09-19 14:18:00,43.8,42.2,0.00,NNW,338,2.7,3.6,94,0.00,,---,0.00,VWS V14.01,2013-09-19 19:18:00,
2013-09-19 14:19:00,44.0,42.4,0.00,NNW,338,2.7,3.6,94,0.00,,---,0.00,VWS V14.01,2013-09-19 19:19:00,
2013-09-19 14:20:00,44.0,42.4,0.00,North,0,2.2,3.6,94,0.00,,---,0.00,VWS V14.01,2013-09-19 19:20:00,
2013-09-19 14:21:00,44.0,42.4,0.00,NNW,338,2.0,3.6,94,0.00,,---,0.00,VWS V14.01,2013-09-19 19:21:00,
2013-09-19 14:22:00,44.0,42.4,0.00,North,0,1.6,3.6,94,0.00,,---,0.00,VWS V14.01,2013-09-19 19:22:00,
2013-09-19 14:23:00,44.0,42.4,0.00,North,0,1.6,3.6,94,0.00,,---,0.00,VWS V14.01,2013-09-19 19:23:00,
2013-09-19 14:24:00,44.0,42.4,0.00,North,0,2.7,3.6,94,0.00,,---,0.00,VWS V14.01,2013-09-19 19:24:00,
2013-09-19 14:25:00,44.0,42.4,0.00,North,0,2.5,3.6,94,0.00,,---,0.00,VWS V14.01,2013-09-19 19:25:00,
2013-09-19 14:26:00,44.0,42.4,0.00,North,0,3.4,3.6,94,0.00,,---,0.00,VWS V14.01,2013-09-19 19:26:00,
2013-09-19 14:27:00,44.0,42.4,0.00,North,0,2.9,3.6,94,0.00,,---,0.00,VWS V14.01,2013-09-19 19:27:00,
2013-09-19 14:28:00,44.0,42.4,0.00,North,0,2.7,3.6,94,0.00,,---,0.00,VWS V14.01,2013-09-19 19:28:00,
2013-09-19 14:29:00,44.0,42.4,0.00,NNW,338,2.0,3.6,94,0.00,,---,0.00,VWS V14.01,2013-09-19 19:29:00,
2013-09-19 14:30:00,44.0,42.4,0.00,NW,315,3.1,3.6,94,0.00,,---,0.00,VWS V14.01,2013-09-19 19:30:00,
2013-09-19 14:31:00,44.0,42.4,0.00,NW,315,2.5,3.6,94,0.00,,---,0.00,VWS V14.01,2013-09-19 19:31:00,
2013-09-19 14:32:00,44.0,42.4,0.00,NW,315,2.9,3.6,94,0.00,,---,0.00,VWS V14.01,2013-09-19 19:32:00,
2013-09-19 14:33:00,43.8,42.2,0.00,NW,315,2.5,3.6,94,0.00,,---,0.00,VWS V14.01,2013-09-19 19:33:00,
2013-09-19 14:34:00,43.7,42.0,0.00,NW,315,2.9,3.6,94,0.00,,---,0.00,VWS V14.01,2013-09-19 19:34:00,
2013-09-19 14:35:00,43.7,42.0,0.00,NW,315,3.6,3.6,94,0.00,,---,0.00,VWS V14.01,2013-09-19 19:35:00,
2013-09-19 14:36:00,43.5,41.6,0.00,NW,315,3.4,3.6,93,0.00,,---,0.00,VWS V14.01,2013-09-19 19:36:00,
2013-09-19 14:37:00,43.3,41.4,0.00,NW,315,3.4,3.6,93,0.00,,---,0.00,VWS V14.01,2013-09-19 19:37:00,
2013-09-19 14:38:00,43.3,41.4,0.00,NW,315,2.5,3.6,93,0.00,,---,0.00,VWS V14.01,2013-09-19 19:38:00,
2013-09-19 14:39:00,43.3,41.4,0.00,NW,315,3.6,3.6,93,0.00,,---,0.00,VWS V14.01,2013-09-19 19:39:00,
2013-09-19 14:40:00,43.3,41.4,0.00,NW,315,3.4,3.6,93,0.00,,---,0.00,VWS V14.01,2013-09-19 19:40:00,
2013-09-19 14:41:00,43.3,41.4,0.00,NW,315,3.6,3.6,93,0.00,,---,0.00,VWS V14.01,2013-09-19 19:41:00,
2013-09-19 14:42:00,43.3,41.4,0.00,NW,315,3.4,3.6,93,0.00,,---,0.00,VWS V14.01,2013-09-19 19:42:00,
2013-09-19 14:43:00,43.1,41.2,0.00,NW,315,3.6,3.6,93,0.00,,---,0.00,VWS V14.01,2013-09-19 19:43:00,
2013-09-19 14:45:00,43.1,41.2,0.00,NW,315,3.4,3.6,93,0.00,,---,0.00,VWS V14.01,2013-09-19 19:45:00,
2013-09-19 14:46:00,43.1,41.2,0.00,NW,315,2.9,3.4,93,0.00,,---,0.00,VWS V14.01,2013-09-19 19:46:00,
2013-09-19 14:47:00,43.3,41.4,0.00,NW,315,3.1,3.4,93,0.00,,---,0.00,VWS V14.01,2013-09-19 19:47:00,
2013-09-19 14:48:00,43.3,41.4,0.00,NW,315,3.6,3.8,93,0.00,,---,0.00,VWS V14.01,2013-09-19 19:48:00,
2013-09-19 14:49:00,43.3,41.4,0.00,NW,315,3.1,3.8,93,0.00,,---,0.00,VWS V14.01,2013-09-19 19:49:00,
2013-09-19 14:50:00,43.3,41.7,0.00,NW,315,2.7,3.8,94,0.00,,---,0.00,VWS V14.01,2013-09-19 19:50:00,
2013-09-19 14:51:00,43.3,41.7,0.00,NW,315,2.5,3.8,94,0.00,,---,0.00,VWS V14.01,2013-09-19 19:51:00,
2013-09-19 14:52:00,43.3,41.7,0.00,NW,315,2.9,3.8,94,0.00,,---,0.00,VWS V14.01,2013-09-19 19:52:00,
2013-09-19 14:53:00,43.3,41.7,0.00,NW,315,3.4,3.8,94,0.00,,---,0.00,VWS V14.01,2013-09-19 19:53:00,
2013-09-19 14:54:00,43.3,41.7,0.00,NW,315,2.9,3.8,94,0.00,,---,0.00,VWS V14.01,2013-09-19 19:54:00,
2013-09-19 14:55:00,43.3,41.7,0.00,NW,315,3.1,3.8,94,0.00,,---,0.00,VWS V14.01,2013-09-19 19:55:00,
2013-09-19 14:56:00,43.1,41.5,0.00,NW,315,3.4,3.8,94,0.00,,---,0.00,VWS V14.01,2013-09-19 19:56:00,
2013-09-19 14:57:00,43.1,41.5,0.00,NW,315,3.1,3.8,94,0.00,,---,0.00,VWS V14.01,2013-09-19 19:57:00,
2013-09-19 14:58:00,43.1,41.5,0.00,NW,315,2.9,3.8,94,0.00,,---,0.00,VWS V14.01,2013-09-19 19:58:00,
2013-09-19 14:59:00,42.8,41.2,0.00,NW,315,2.7,3.8,94,0.00,,---,0.00,VWS V14.01,2013-09-19 19:59:00,
2013-09-19 15:00:00,42.8,41.2,0.00,NW,315,2.9,3.8,94,0.00,,---,0.00,VWS V14.01,2013-09-19 20:00:00,
2013-09-19 15:01:00,42.8,41.2,0.00,NW,315,3.1,3.1,94,0.00,,---,0.00,VWS V14.01,2013-09-19 20:01:00,
2013-09-19 15:02:00,42.6,41.0,0.00,NW,315,2.7,3.1,94,0.00,,---,0.00,VWS V14.01,2013-09-19 20:02:00,
2013-09-19 15:03:00,42.6,41.0,0.00,NW,315,2.7,3.1,94,0.00,,---,0.00,VWS V14.01,2013-09-19 20:03:00,
2013-09-19 15:04:00,42.8,41.2,0.00,NW,315,2.2,3.1,94,0.00,,---,0.00,VWS V14.01,2013-09-19 20:04:00,
2013-09-19 15:05:00,42.8,41.2,0.00,NW,315,2.0,3.1,94,0.00,,---,0.00,VWS V14.01,2013-09-19 20:05:00,
2013-09-19 15:06:00,42.8,40.9,0.00,NW,315,1.3,3.1,93,0.00,,---,0.00,VWS V14.01,2013-09-19 20:06:00,
2013-09-19 15:07:00,42.8,40.9,0.00,NW,315,2.0,3.1,93,0.00,,---,0.00,VWS V14.01,2013-09-19 20:07:00,
2013-09-19 15:08:00,42.8,40.9,0.00,NW,315,2.0,3.1,93,0.00,,---,0.00,VWS V14.01,2013-09-19 20:08:00,
2013-09-19 15:09:00,42.8,41.2,0.00,NW,315,0.0,3.1,94,0.00,,---,0.00,VWS V14.01,2013-09-19 20:09:00,
2013-09-19 15:10:00,42.8,41.2,0.00,NW,315,0.0,3.1,94,0.00,,---,0.00,VWS V14.01,2013-09-19 20:10:00,
2013-09-19 15:11:00,42.8,40.9,0.00,NW,315,0.0,3.1,93,0.00,,---,0.00,VWS V14.01,2013-09-19 20:11:00,
2013-09-19 15:12:00,42.8,40.9,0.00,NW,315,0.0,3.1,93,0.00,,---,0.00,VWS V14.01,2013-09-19 20:12:00,
2013-09-19 15:13:00,42.8,40.9,0.00,NW,315,0.0,3.1,93,0.00,,---,0.00,VWS V14.01,2013-09-19 20:13:00,
2013-09-19 15:14:00,42.8,40.9,0.00,NW,315,0.0,3.1,93,0.00,,---,0.00,VWS V14.01,2013-09-19 20:14:00,
2013-09-19 15:15:00,42.8,40.9,0.00,NW,315,0.0,3.1,93,0.00,,---,0.00,VWS V14.01,2013-09-19 20:15:00,
2013-09-19 15:16:00,42.6,40.7,0.00,NW,315,0.0,0.0,93,0.00,,---,0.00,VWS V14.01,2013-09-19 20:16:00,
2013-09-19 15:17:00,42.6,40.7,0.00,NW,315,0.0,0.0,93,0.00,,---,0.00,VWS V14.01,2013-09-19 20:17:00,
2013-09-19 15:18:00,42.6,40.7,0.00,NW,315,0.0,0.0,93,0.00,,---,0.00,VWS V14.01,2013-09-19 20:18:00,
2013-09-19 15:19:00,42.6,40.7,0.00,NW,315,0.0,0.0,93,0.00,,---,0.00,VWS V14.01,2013-09-19 20:19:00,
2013-09-19 15:20:00,42.6,40.7,0.00,NW,315,0.0,0.0,93,0.00,,---,0.00,VWS V14.01,2013-09-19 20:20:00,
2013-09-19 15:21:00,42.6,40.7,0.00,NW,315,0.0,0.0,93,0.00,,---,0.00,VWS V14.01,2013-09-19 20:21:00,
2013-09-19 15:22:00,42.6,40.7,0.00,NW,315,0.0,0.0,93,0.00,,---,0.00,VWS V14.01,2013-09-19 20:22:00,
2013-09-19 15:23:00,42.6,40.7,0.00,NW,315,1.3,1.6,93,0.00,,---,0.00,VWS V14.01,2013-09-19 20:23:00,
2013-09-19 15:24:00,42.6,40.7,0.00,NW,315,0.0,1.6,93,0.00,,---,0.00,VWS V14.01,2013-09-19 20:24:00,
2013-09-19 15:25:00,42.6,40.7,0.00,NW,315,1.6,1.6,93,0.00,,---,0.00,VWS V14.01,2013-09-19 20:25:00,
2013-09-19 15:26:00,42.6,40.7,0.00,NW,315,2.0,2.5,93,0.00,,---,0.00,VWS V14.01,2013-09-19 20:26:00,
2013-09-19 15:27:00,42.6,40.7,0.00,West,270,1.6,2.5,93,0.00,,---,0.00,VWS V14.01,2013-09-19 20:27:00,
2013-09-19 15:28:00,42.6,40.7,0.00,West,270,2.2,2.5,93,0.00,,---,0.00,VWS V14.01,2013-09-19 20:28:00,
2013-09-19 15:29:00,42.8,40.9,0.00,West,270,1.6,2.5,93,0.00,,---,0.00,VWS V14.01,2013-09-19 20:29:00,
2013-09-19 15:30:00,42.8,40.9,0.00,West,270,0.0,2.5,93,0.00,,---,0.00,VWS V14.01,2013-09-19 20:30:00,
2013-09-19 15:31:00,42.6,40.7,0.00,West,270,1.1,1.1,93,0.00,,---,0.00,VWS V14.01,2013-09-19 20:31:00,
2013-09-19 15:32:00,42.6,40.7,0.00,West,270,0.0,1.1,93,0.00,,---,0.00,VWS V14.01,2013-09-19 20:32:00,
2013-09-19 15:33:00,42.6,40.7,0.00,West,270,0.0,1.1,93,0.00,,---,0.00,VWS V14.01,2013-09-19 20:33:00,
2013-09-19 15:34:00,42.6,40.7,0.00,West,270,0.0,1.1,93,0.00,,---,0.00,VWS V14.01,2013-09-19 20:34:00,
2013-09-19 15:35:00,42.4,40.5,0.00,West,270,0.9,1.1,93,0.00,,---,0.00,VWS V14.01,2013-09-19 20:35:00,
2013-09-19 15:36:00,42.4,40.5,0.00,West,270,1.1,1.1,93,0.00,,---,0.00,VWS V14.01,2013-09-19 20:36:00,
2013-09-19 15:37:00,42.4,40.5,0.00,West,270,0.0,1.1,93,0.00,,---,0.00,VWS V14.01,2013-09-19 20:37:00,
2013-09-19 15:38:00,42.4,40.5,0.00,West,270,0.0,1.1,93,0.00,,---,0.00,VWS V14.01,2013-09-19 20:38:00,
2013-09-19 15:39:00,42.4,40.5,0.00,West,270,0.0,1.1,93,0.00,,---,0.00,VWS V14.01,2013-09-19 20:39:00,
2013-09-19 15:40:00,42.4,40.5,0.00,West,270,0.0,1.1,93,0.00,,---,0.00,VWS V14.01,2013-09-19 20:40:00,
2013-09-19 15:41:00,42.4,40.5,0.00,West,270,0.0,1.1,93,0.00,,---,0.00,VWS V14.01,2013-09-19 20:41:00,
2013-09-19 15:42:00,42.2,40.6,0.00,West,270,1.1,2.0,94,0.00,,---,0.00,VWS V14.01,2013-09-19 20:42:00,
2013-09-19 15:43:00,42.2,40.6,0.00,West,270,1.1,2.0,94,0.00,,---,0.00,VWS V14.01,2013-09-19 20:43:00,
2013-09-19 15:44:00,42.2,40.6,0.00,NW,315,0.9,2.2,94,0.00,,---,0.00,VWS V14.01,2013-09-19 20:44:00,
2013-09-19 15:46:00,42.2,40.6,0.00,NW,315,2.9,2.9,94,0.00,,---,0.00,VWS V14.01,2013-09-19 20:46:00,
2013-09-19 15:47:00,42.4,40.8,0.00,NNW,338,2.7,3.1,94,0.00,,---,0.00,VWS V14.01,2013-09-19 20:47:00,
2013-09-19 15:48:00,42.4,40.8,0.00,NW,315,3.6,3.8,94,0.00,,---,0.00,VWS V14.01,2013-09-19 20:48:00,
2013-09-19 15:49:00,42.4,40.8,0.00,NW,315,3.8,3.8,94,0.00,,---,0.00,VWS V14.01,2013-09-19 20:49:00,
2013-09-19 15:50:00,42.6,41.0,0.00,NW,315,4.0,4.3,94,0.00,,---,0.00,VWS V14.01,2013-09-19 20:50:00,
2013-09-19 15:51:00,42.6,41.0,0.00,NW,315,3.6,4.3,94,0.00,,---,0.00,VWS V14.01,2013-09-19 20:51:00,
2013-09-19 15:52:00,42.8,41.2,0.00,NW,315,2.9,4.3,94,0.00,,---,0.00,VWS V14.01,2013-09-19 20:52:00,
2013-09-19 15:53:00,42.8,41.2,0.00,NW,315,3.6,4.3,94,0.00,,---,0.00,VWS V14.01,2013-09-19 20:53:00,
2013-09-19 15:54:00,42.8,41.2,0.00,NNW,338,3.4,4.3,94,0.00,,---,0.00,VWS V14.01,2013-09-19 20:54:00,
2013-09-19 15:55:00,42.8,41.2,0.00,NW,315,3.6,4.3,94,0.00,,---,0.00,VWS V14.01,2013-09-19 20:55:00,
2013-09-19 15:56:00,42.8,41.2,0.00,North,0,2.7,4.3,94,0.00,,---,0.00,VWS V14.01,2013-09-19 20:56:00,
2013-09-19 15:57:00,42.8,41.2,0.00,North,0,2.7,4.3,94,0.00,,---,0.00,VWS V14.01,2013-09-19 20:57:00,
2013-09-19 15:58:00,42.8,41.2,0.00,North,0,2.9,4.3,94,0.00,,---,0.00,VWS V14.01,2013-09-19 20:58:00,
2013-09-19 15:59:00,42.6,41.0,0.00,North,0,2.0,4.3,94,0.00,,---,0.00,VWS V14.01,2013-09-19 20:59:00,
2013-09-19 16:00:00,42.6,41.0,0.00,North,0,3.1,4.3,94,0.00,,---,0.00,VWS V14.01,2013-09-19 21:00:00,
2013-09-19 16:01:00,42.4,40.8,0.00,North,0,2.0,3.1,94,0.00,,---,0.00,VWS V14.01,2013-09-19 21:01:00,
2013-09-19 16:02:00,42.2,40.9,0.00,North,0,3.1,3.1,95,0.00,,---,0.00,VWS V14.01,2013-09-19 21:02:00,
2013-09-19 16:03:00,42.2,40.9,0.00,NNW,338,2.2,3.1,95,0.00,,---,0.00,VWS V14.01,2013-09-19 21:03:00,
2013-09-19 16:04:00,42.2,40.9,0.00,NNW,338,1.6,3.1,95,0.00,,---,0.00,VWS V14.01,2013-09-19 21:04:00,
2013-09-19 16:05:00,42.2,40.9,0.00,NW,315,2.0,3.1,95,0.00,,---,0.00,VWS V14.01,2013-09-19 21:05:00,
2013-09-19 16:06:00,42.2,40.9,0.00,North,0,2.5,3.1,95,0.00,,---,0.00,VWS V14.01,2013-09-19 21:06:00,
2013-09-19 16:07:00,42.2,40.9,0.00,North,0,2.7,3.1,95,0.00,,---,0.00,VWS V14.01,2013-09-19 21:07:00,
2013-09-19 16:09:00,42.2,40.9,0.00,North,0,1.6,3.1,95,0.00,,---,0.00,VWS V14.01,2013-09-19 21:09:00,
2013-09-19 16:10:00,42.2,40.9,0.00,North,0,0.0,3.1,95,0.00,,---,0.00,VWS V14.01,2013-09-19 21:10:00,
2013-09-19 16:11:00,42.2,40.9,0.00,North,0,1.6,3.1,95,0.00,,---,0.00,VWS V14.01,2013-09-19 21:11:00,
2013-09-19 16:12:00,42.2,40.9,0.00,North,0,0.9,3.1,95,0.00,,---,0.00,VWS V14.01,2013-09-19 21:12:00,
2013-09-19 16:13:00,42.2,40.9,0.00,North,0,1.3,3.1,95,0.00,,---,0.00,VWS V14.01,2013-09-19 21:13:00,
2013-09-19 16:14:00,42.2,40.9,0.00,North,0,1.1,3.1,95,0.00,,---,0.00,VWS V14.01,2013-09-19 21:14:00,
2013-09-19 16:15:00,42.0,40.7,0.00,North,0,1.6,3.1,95,0.00,,---,0.00,VWS V14.01,2013-09-19 21:15:00,
2013-09-19 16:16:00,42.0,40.7,0.00,North,0,2.9,2.9,95,0.00,,---,0.00,VWS V14.01,2013-09-19 21:16:00,
2013-09-19 16:17:00,42.0,40.7,0.00,North,0,2.9,3.1,95,0.00,,---,0.00,VWS V14.01,2013-09-19 21:17:00,
2013-09-19 16:19:00,42.0,40.7,0.00,NW,315,2.5,3.1,95,0.00,,---,0.00,VWS V14.01,2013-09-19 21:19:00,
2013-09-19 16:20:00,42.2,40.9,0.00,NW,315,2.5,3.1,95,0.00,,---,0.00,VWS V14.01,2013-09-19 21:20:00,
2013-09-19 16:21:00,42.2,40.9,0.00,NW,315,1.6,3.1,95,0.00,,---,0.00,VWS V14.01,2013-09-19 21:21:00,
2013-09-19 16:22:00,42.2,40.9,0.00,NW,315,0.0,3.1,95,0.00,,---,0.00,VWS V14.01,2013-09-19 21:22:00,
2013-09-19 16:23:00,42.2,40.9,0.00,NW,315,0.0,3.1,95,0.00,,---,0.00,VWS V14.01,2013-09-19 21:23:00,
2013-09-19 16:25:00,42.0,40.4,0.00,NW,315,0.0,3.1,94,0.00,,---,0.00,VWS V14.01,2013-09-19 21:25:00,
2013-09-19 16:26:00,41.7,40.1,0.00,NNE,22,1.3,3.1,94,0.00,,---,0.00,VWS V14.01,2013-09-19 21:26:00,
2013-09-19 16:27:00,41.7,40.1,0.00,NE,45,2.0,3.1,94,0.00,,---,0.00,VWS V14.01,2013-09-19 21:27:00,
2013-09-19 16:28:00,41.7,40.1,0.00,NE,45,2.0,3.1,94,0.00,,---,0.00,VWS V14.01,2013-09-19 21:28:00,
2013-09-19 16:29:00,41.7,40.1,0.00,NE,45,0.0,3.1,94,0.00,,---,0.00,VWS V14.01,2013-09-19 21:29:00,
2013-09-19 16:30:00,41.0,39.1,0.00,NE,45,1.1,1.6,93,0.00,,---,0.00,VWS V14.01,2013-09-19 21:30:00,
2013-09-19 16:31:00,40.8,38.9,0.00,NE,45,0.0,1.6,93,0.00,,---,0.00,VWS V14.01,2013-09-19 21:31:00,
2013-09-19 16:32:00,40.8,38.9,0.00,NE,45,0.0,1.6,93,0.00,,---,0.00,VWS V14.01,2013-09-19 21:32:00,
2013-09-19 16:33:00,40.8,38.9,0.00,NE,45,0.0,1.6,93,0.00,,---,0.00,VWS V14.01,2013-09-19 21:33:00,
2013-09-19 16:34:00,40.8,39.2,0.00,NE,45,0.0,1.6,94,0.00,,---,0.00,VWS V14.01,2013-09-19 21:34:00,
2013-09-19 16:35:00,40.8,39.2,0.00,NE,45,0.0,1.6,94,0.00,,---,0.00,VWS V14.01,2013-09-19 21:35:00,
2013-09-19 16:36:00,40.8,39.2,0.00,SW,225,0.0,1.6,94,0.00,,---,0.00,VWS V14.01,2013-09-19 21:36:00,
2013-09-19 16:37:00,40.8,39.2,0.00,SW,225,0.0,1.6,94,0.00,,---,0.00,VWS V14.01,2013-09-19 21:37:00,
2013-09-19 16:38:00,40.8,39.2,0.00,SW,225,0.0,1.6,94,0.00,,---,0.00,VWS V14.01,2013-09-19 21:38:00,
2013-09-19 16:39:00,40.6,39.0,0.00,SW,225,0.0,1.6,94,0.00,,---,0.00,VWS V14.01,2013-09-19 21:39:00,
2013-09-19 16:40:00,40.6,39.0,0.00,SW,225,0.0,1.6,94,0.00,,---,0.00,VWS V14.01,2013-09-19 21:40:00,
2013-09-19 16:41:00,40.6,39.0,0.00,SW,225,0.0,1.6,94,0.00,,---,0.00,VWS V14.01,2013-09-19 21:41:00,
2013-09-19 16:43:00,40.6,39.0,0.00,SW,225,0.0,1.6,94,0.00,,---,0.00,VWS V14.01,2013-09-19 21:43:00,
2013-09-19 16:44:00,40.6,39.0,0.00,SW,225,0.0,1.6,94,0.00,,---,0.00,VWS V14.01,2013-09-19 21:44:00,
2013-09-19 16:45:00,40.4,39.1,0.00,SW,225,0.0,1.6,95,0.00,,---,0.00,VWS V14.01,2013-09-19 21:45:00,
2013-09-19 16:46:00,40.4,39.1,0.00,SW,225,0.0,0.0,95,0.00,,---,0.00,VWS V14.01,2013-09-19 21:46:00,
2013-09-19 16:47:00,40.4,39.1,0.00,SW,225,0.0,0.0,95,0.00,,---,0.00,VWS V14.01,2013-09-19 21:47:00,
2013-09-19 16:48:00,40.4,39.1,0.00,SW,225,0.0,0.0,95,0.00,,---,0.00,VWS V14.01,2013-09-19 21:48:00,
2013-09-19 16:49:00,40.4,39.1,0.00,SW,225,0.0,0.0,95,0.00,,---,0.00,VWS V14.01,2013-09-19 21:49:00,
2013-09-19 16:50:00,40.4,39.1,0.00,SW,225,0.0,0.0,95,0.00,,---,0.00,VWS V14.01,2013-09-19 21:50:00,
2013-09-19 16:51:00,40.4,39.1,0.00,SW,225,0.0,0.0,95,0.00,,---,0.00,VWS V14.01,2013-09-19 21:51:00,
2013-09-19 16:52:00,40.6,39.3,0.00,SW,225,0.0,0.0,95,0.00,,---,0.00,VWS V14.01,2013-09-19 21:52:00,
2013-09-19 16:53:00,40.6,39.3,0.00,SW,225,0.0,0.0,95,0.00,,---,0.00,VWS V14.01,2013-09-19 21:53:00,
2013-09-19 16:54:00,40.6,39.3,0.00,SW,225,0.0,0.0,95,0.00,,---,0.00,VWS V14.01,2013-09-19 21:54:00,
2013-09-19 16:55:00,40.6,39.3,0.00,SW,225,0.0,0.0,95,0.00,,---,0.00,VWS V14.01,2013-09-19 21:55:00,
2013-09-19 16:56:00,40.4,39.1,0.00,SW,225,0.0,0.0,95,0.00,,---,0.00,VWS V14.01,2013-09-19 21:56:00,
2013-09-19 16:57:00,40.4,39.1,0.00,SW,225,0.0,0.0,95,0.00,,---,0.00,VWS V14.01,2013-09-19 21:57:00,
2013-09-19 16:58:00,40.4,39.1,0.00,SW,225,0.0,0.0,95,0.00,,---,0.00,VWS V14.01,2013-09-19 21:58:00,
2013-09-19 16:59:00,40.4,39.1,0.00,SW,225,0.0,0.0,95,0.00,,---,0.00,VWS V14.01,2013-09-19 21:59:00,
2013-09-19 17:00:00,40.4,39.1,0.00,SW,225,0.0,0.0,95,0.00,,---,0.00,VWS V14.01,2013-09-19 22:00:00,
2013-09-19 17:01:00,40.4,39.1,0.00,SW,225,0.0,0.0,95,0.00,,---,0.00,VWS V14.01,2013-09-19 22:01:00,
2013-09-19 17:02:00,40.4,39.1,0.00,SW,225,0.0,0.0,95,0.00,,---,0.00,VWS V14.01,2013-09-19 22:02:00,
2013-09-19 17:03:00,40.4,39.1,0.00,SW,225,0.0,0.0,95,0.00,,---,0.00,VWS V14.01,2013-09-19 22:03:00,
2013-09-19 17:05:00,40.4,39.1,0.00,SW,225,0.0,0.0,95,0.00,,---,0.00,VWS V14.01,2013-09-19 22:05:00,
2013-09-19 17:06:00,40.4,39.1,0.00,SW,225,0.0,0.0,95,0.00,,---,0.00,VWS V14.01,2013-09-19 22:06:00,
2013-09-19 17:07:00,40.2,38.9,0.00,SW,225,0.0,0.0,95,0.00,,---,0.00,VWS V14.01,2013-09-19 22:07:00,
2013-09-19 17:08:00,40.2,38.9,0.00,SW,225,0.0,0.0,95,0.00,,---,0.00,VWS V14.01,2013-09-19 22:08:00,
2013-09-19 17:09:00,40.2,38.9,0.00,SW,225,0.0,0.0,95,0.00,,---,0.00,VWS V14.01,2013-09-19 22:09:00,
2013-09-19 17:10:00,40.2,38.9,0.00,SW,225,0.0,0.0,95,0.00,,---,0.00,VWS V14.01,2013-09-19 22:10:00,
2013-09-19 17:11:00,40.2,38.9,0.00,SW,225,0.0,0.0,95,0.00,,---,0.00,VWS V14.01,2013-09-19 22:11:00,
2013-09-19 17:12:00,40.2,38.9,0.00,SW,225,0.0,0.0,95,0.00,,---,0.00,VWS V14.01,2013-09-19 22:12:00,
2013-09-19 17:13:00,40.4,39.1,0.00,SW,225,0.0,0.0,95,0.00,,---,0.00,VWS V14.01,2013-09-19 22:13:00,
2013-09-19 17:14:00,40.4,39.1,0.00,SW,225,0.0,0.0,95,0.00,,---,0.00,VWS V14.01,2013-09-19 22:14:00,
2013-09-19 17:15:00,40.6,39.0,0.00,West,270,1.1,1.1,94,0.00,,---,0.00,VWS V14.01,2013-09-19 22:15:00,
2013-09-19 17:16:00,40.6,39.0,0.00,West,270,0.0,1.1,94,0.00,,---,0.00,VWS V14.01,2013-09-19 22:16:00,
2013-09-19 17:17:00,40.6,39.0,0.00,West,270,0.0,1.1,94,0.00,,---,0.00,VWS V14.01,2013-09-19 22:17:00,
2013-09-19 17:18:00,40.8,39.2,0.00,West,270,0.0,1.1,94,0.00,,---,0.00,VWS V14.01,2013-09-19 22:18:00,
2013-09-19 17:19:00,40.8,39.2,0.00,West,270,0.0,1.1,94,0.00,,---,0.00,VWS V14.01,2013-09-19 22:19:00,
2013-09-19 17:20:00,40.8,39.2,0.00,West,270,0.0,1.1,94,0.00,,---,0.00,VWS V14.01,2013-09-19 22:20:00,
2013-09-19 17:21:00,40.8,39.2,0.00,West,270,0.0,1.1,94,0.00,,---,0.00,VWS V14.01,2013-09-19 22:21:00,
2013-09-19 17:22:00,40.6,39.0,0.00,West,270,0.0,1.1,94,0.00,,---,0.00,VWS V14.01,2013-09-19 22:22:00,
2013-09-19 17:23:00,40.6,39.0,0.00,West,270,0.0,1.1,94,0.00,,---,0.00,VWS V14.01,2013-09-19 22:23:00,
2013-09-19 17:24:00,40.6,39.0,0.00,WNW,292,1.1,2.0,94,0.00,,---,0.00,VWS V14.01,2013-09-19 22:24:00,
2013-09-19 17:25:00,40.6,39.0,0.00,WNW,292,0.9,2.0,94,0.00,,---,0.00,VWS V14.01,2013-09-19 22:25:00,
2013-09-19 17:26:00,40.4,38.8,0.00,NW,315,1.3,2.0,94,0.00,,---,0.00,VWS V14.01,2013-09-19 22:26:00,
2013-09-19 17:27:00,40.4,38.8,0.00,NW,315,1.3,2.0,94,0.00,,---,0.00,VWS V14.01,2013-09-19 22:27:00,
2013-09-19 17:28:00,40.4,38.8,0.00,NNW,338,2.5,2.5,94,0.00,,---,0.00,VWS V14.01,2013-09-19 22:28:00,
2013-09-19 17:29:00,40.4,38.8,0.00,North,0,2.5,2.5,94,0.00,,---,0.00,VWS V14.01,2013-09-19 22:29:00,
2013-09-19 17:30:00,40.4,38.8,0.00,North,0,1.3,2.7,94,0.00,,---,0.00,VWS V14.01,2013-09-19 22:30:00,
2013-09-19 17:31:00,40.4,38.8,0.00,North,0,1.3,2.5,94,0.00,,---,0.00,VWS V14.01,2013-09-19 22:31:00,
2013-09-19 17:32:00,40.2,38.7,0.00,North,0,2.2,2.5,94,0.00,,---,0.00,VWS V14.01,2013-09-19 22:32:00,
2013-09-19 17:33:00,40.2,38.7,0.00,North,0,1.3,2.5,94,0.00,,---,0.00,VWS V14.01,2013-09-19 22:33:00,
2013-09-19 17:34:00,40.2,38.7,0.00,NW,315,2.2,2.7,94,0.00,,---,0.00,VWS V14.01,2013-09-19 22:34:00,
2013-09-19 17:35:00,40.2,38.7,0.00,NW,315,0.0,2.7,94,0.00,,---,0.00,VWS V14.01,2013-09-19 22:35:00,
2013-09-19 17:36:00,40.2,38.7,0.00,NNW,338,1.3,2.7,94,0.00,,---,0.00,VWS V14.01,2013-09-19 22:36:00,
2013-09-19 17:37:00,40.2,38.9,0.00,North,0,1.1,2.7,95,0.00,,---,0.00,VWS V14.01,2013-09-19 22:37:00,
2013-09-19 17:38:00,40.2,38.9,0.00,North,0,2.2,2.7,95,0.00,,---,0.00,VWS V14.01,2013-09-19 22:38:00,
2013-09-19 17:39:00,40.2,38.9,0.00,North,0,2.5,2.7,95,0.00,,---,0.00,VWS V14.01,2013-09-19 22:39:00,
2013-09-19 17:40:00,40.2,38.9,0.00,North,0,1.3,2.7,95,0.00,,---,0.00,VWS V14.01,2013-09-19 22:40:00,
2013-09-19 17:41:00,40.2,38.9,0.00,North,0,1.6,2.7,95,0.00,,---,0.00,VWS V14.01,2013-09-19 22:41:00,
2013-09-19 17:42:00,40.2,38.9,0.00,North,0,1.3,2.7,95,0.00,,---,0.00,VWS V14.01,2013-09-19 22:42:00,
2013-09-19 17:43:00,40.2,38.9,0.00,North,0,2.0,2.7,95,0.00,,---,0.00,VWS V14.01,2013-09-19 22:43:00,
2013-09-19 17:44:00,40.2,38.9,0.00,North,0,2.7,2.7,95,0.00,,---,0.00,VWS V14.01,2013-09-19 22:44:00,
2013-09-19 17:45:00,40.2,38.9,0.00,North,0,2.5,2.7,95,0.00,,---,0.00,VWS V14.01,2013-09-19 22:45:00,
2013-09-19 17:46:00,40.2,38.9,0.00,North,0,0.9,2.5,95,0.00,,---,0.00,VWS V14.01,2013-09-19 22:46:00,
2013-09-19 17:47:00,40.2,38.9,0.00,North,0,1.3,2.5,95,0.00,,---,0.00,VWS V14.01,2013-09-19 22:47:00,
2013-09-19 17:48:00,40.2,38.9,0.00,North,0,2.0,2.7,95,0.00,,---,0.00,VWS V14.01,2013-09-19 22:48:00,
2013-09-19 17:49:00,40.2,38.9,0.00,North,0,2.0,2.7,95,0.00,,---,0.00,VWS V14.01,2013-09-19 22:49:00,
2013-09-19 17:50:00,40.2,38.9,0.00,NNW,338,1.6,2.7,95,0.00,,---,0.00,VWS V14.01,2013-09-19 22:50:00,
2013-09-19 17:52:00,40.2,38.9,0.00,NNW,338,2.9,2.9,95,0.00,,---,0.00,VWS V14.01,2013-09-19 22:52:00,
2013-09-19 17:53:00,40.4,39.1,0.00,NNW,338,2.5,2.9,95,0.00,,---,0.00,VWS V14.01,2013-09-19 22:53:00,
2013-09-19 17:54:00,40.6,39.0,0.00,NW,315,3.1,3.1,94,0.00,,---,0.00,VWS V14.01,2013-09-19 22:54:00,
2013-09-19 17:55:00,40.6,39.0,0.00,NW,315,2.9,3.1,94,0.00,,---,0.00,VWS V14.01,2013-09-19 22:55:00,
2013-09-19 17:56:00,40.6,39.0,0.00,NNW,338,2.0,3.1,94,0.00,,---,0.00,VWS V14.01,2013-09-19 22:56:00,
2013-09-19 17:58:00,40.6,39.0,0.00,North,0,1.6,3.1,94,0.00,,---,0.00,VWS V14.01,2013-09-19 22:58:00,
2013-09-19 17:59:00,40.6,39.0,0.00,NW,315,2.5,3.1,94,0.00,,---,0.00,VWS V14.01,2013-09-19 22:59:00,
2013-09-19 18:00:00,40.6,39.0,0.00,NW,315,2.2,3.1,94,0.00,,---,0.00,VWS V14.01,2013-09-19 23:00:00,
2013-09-19 18:01:00,40.6,39.0,0.00,North,0,1.1,2.2,94,0.00,,---,0.00,VWS V14.01,2013-09-19 23:01:00,
2013-09-19 18:02:00,40.6,39.0,0.00,North,0,1.1,2.2,94,0.00,,---,0.00,VWS V14.01,2013-09-19 23:02:00,
2013-09-19 18:03:00,40.2,38.9,0.00,North,0,0.0,2.2,95,0.00,,---,0.00,VWS V14.01,2013-09-19 23:03:00,
2013-09-19 18:05:00,40.2,38.9,0.00,North,0,0.0,2.2,95,0.00,,---,0.00,VWS V14.01,2013-09-19 23:05:00,
2013-09-19 18:06:00,40.2,38.9,0.00,North,0,1.3,2.2,95,0.00,,---,0.00,VWS V14.01,2013-09-19 23:06:00,
2013-09-19 18:07:00,40.2,38.9,0.00,North,0,0.0,2.2,95,0.00,,---,0.00,VWS V14.01,2013-09-19 23:07:00,
2013-09-19 18:08:00,40.2,38.9,0.00,North,0,0.0,2.2,95,0.00,,---,0.00,VWS V14.01,2013-09-19 23:08:00,
2013-09-19 18:09:00,40.2,38.9,0.00,North,0,0.9,2.2,95,0.00,,---,0.00,VWS V14.01,2013-09-19 23:09:00,
2013-09-19 18:10:00,40.2,38.9,0.00,North,0,0.9,2.2,95,0.00,,---,0.00,VWS V14.01,2013-09-19 23:10:00,
2013-09-19 18:11:00,40.1,38.8,0.00,North,0,0.0,2.2,95,0.00,,---,0.00,VWS V14.01,2013-09-19 23:11:00,
2013-09-19 18:12:00,40.1,38.8,0.00,North,0,0.9,2.2,95,0.00,,---,0.00,VWS V14.01,2013-09-19 23:12:00,
2013-09-19 18:13:00,40.1,38.8,0.00,North,0,0.0,2.2,95,0.00,,---,0.00,VWS V14.01,2013-09-19 23:13:00,
2013-09-19 18:14:00,40.1,38.8,0.00,North,0,0.0,2.2,95,0.00,,---,0.00,VWS V14.01,2013-09-19 23:14:00,
2013-09-19 18:15:00,40.1,38.8,0.00,North,0,0.0,2.2,95,0.00,,---,0.00,VWS V14.01,2013-09-19 23:15:00,
2013-09-19 18:16:00,40.1,38.8,0.00,North,0,0.0,0.0,95,0.00,,---,0.00,VWS V14.01,2013-09-19 23:16:00,
2013-09-19 18:17:00,40.1,38.8,0.00,North,0,0.0,0.0,95,0.00,,---,0.00,VWS V14.01,2013-09-19 23:17:00,
2013-09-19 18:18:00,39.7,38.1,0.00,North,0,0.0,0.0,94,0.00,,---,0.00,VWS V14.01,2013-09-19 23:18:00,
2013-09-19 18:19:00,39.7,38.1,0.00,North,0,0.0,0.0,94,0.00,,---,0.00,VWS V14.01,2013-09-19 23:19:00,
2013-09-19 18:20:00,39.7,38.1,0.00,North,0,0.0,0.0,94,0.00,,---,0.00,VWS V14.01,2013-09-19 23:20:00,
2013-09-19 18:21:00,39.7,38.1,0.00,North,0,0.0,0.0,94,0.00,,---,0.00,VWS V14.01,2013-09-19 23:21:00,
2013-09-19 18:22:00,39.7,38.1,0.00,North,0,0.0,0.0,94,0.00,,---,0.00,VWS V14.01,2013-09-19 23:22:00,
2013-09-19 18:23:00,39.5,37.9,0.00,North,0,0.0,0.0,94,0.00,,---,0.00,VWS V14.01,2013-09-19 23:23:00,
2013-09-19 18:24:00,39.5,37.9,0.00,North,0,0.0,0.0,94,0.00,,---,0.00,VWS V14.01,2013-09-19 23:24:00,
2013-09-19 18:25:00,39.3,37.8,0.00,North,0,0.0,0.0,94,0.00,,---,0.00,VWS V14.01,2013-09-19 23:25:00,
2013-09-19 18:26:00,39.3,37.8,0.00,North,0,0.0,0.0,94,0.00,,---,0.00,VWS V14.01,2013-09-19 23:26:00,
2013-09-19 18:27:00,39.5,37.9,0.00,North,0,0.0,0.0,94,0.00,,---,0.00,VWS V14.01,2013-09-19 23:27:00,
2013-09-19 18:28:00,39.3,37.8,0.00,North,0,0.0,0.0,94,0.00,,---,0.00,VWS V14.01,2013-09-19 23:28:00,
2013-09-19 18:29:00,39.5,37.9,0.00,North,0,0.0,0.0,94,0.00,,---,0.00,VWS V14.01,2013-09-19 23:29:00,
2013-09-19 18:30:00,39.5,37.9,0.00,North,0,0.0,0.0,94,0.00,,---,0.00,VWS V14.01,2013-09-19 23:30:00,
2013-09-19 18:31:00,39.3,37.8,0.00,North,0,1.3,1.3,94,0.00,,---,0.00,VWS V14.01,2013-09-19 23:31:00,
2013-09-19 18:32:00,39.3,37.8,0.00,North,0,0.9,1.6,94,0.00,,---,0.00,VWS V14.01,2013-09-19 23:32:00,
2013-09-19 18:33:00,39.3,37.8,0.00,North,0,0.0,1.6,94,0.00,,---,0.00,VWS V14.01,2013-09-19 23:33:00,
2013-09-19 18:34:00,39.3,37.8,0.00,North,0,1.1,1.6,94,0.00,,---,0.00,VWS V14.01,2013-09-19 23:34:00,
2013-09-19 18:35:00,39.3,37.8,0.00,North,0,0.0,1.6,94,0.00,,---,0.00,VWS V14.01,2013-09-19 23:35:00,
2013-09-19 18:36:00,39.3,37.8,0.00,North,0,0.0,1.6,94,0.00,,---,0.00,VWS V14.01,2013-09-19 23:36:00,
2013-09-19 18:37:00,39.3,37.8,0.00,North,0,0.0,1.6,94,0.00,,---,0.00,VWS V14.01,2013-09-19 23:37:00,
2013-09-19 18:38:00,39.2,37.6,0.00,North,0,0.0,1.6,94,0.00,,---,0.00,VWS V14.01,2013-09-19 23:38:00,
2013-09-19 18:39:00,39.2,37.6,0.00,North,0,0.0,1.6,94,0.00,,---,0.00,VWS V14.01,2013-09-19 23:39:00,
2013-09-19 18:40:00,39.2,37.6,0.00,North,0,0.0,1.6,94,0.00,,---,0.00,VWS V14.01,2013-09-19 23:40:00,
2013-09-19 18:41:00,39.2,37.6,0.00,North,0,0.0,1.6,94,0.00,,---,0.00,VWS V14.01,2013-09-19 23:41:00,
2013-09-19 18:42:00,39.2,37.8,0.00,North,0,0.0,1.6,95,0.00,,---,0.00,VWS V14.01,2013-09-19 23:42:00,
2013-09-19 18:43:00,39.0,37.7,0.00,North,0,0.0,1.6,95,0.00,,---,0.00,VWS V14.01,2013-09-19 23:43:00,
2013-09-19 18:44:00,39.0,37.7,0.00,North,0,0.0,1.6,95,0.00,,---,0.00,VWS V14.01,2013-09-19 23:44:00,
2013-09-19 18:45:00,39.0,37.7,0.00,North,0,0.0,1.6,95,0.00,,---,0.00,VWS V14.01,2013-09-19 23:45:00,
2013-09-19 18:46:00,38.8,37.5,0.00,North,0,0.0,0.0,95,0.00,,---,0.00,VWS V14.01,2013-09-19 23:46:00,
2013-09-19 18:47:00,38.8,37.5,0.00,North,0,0.0,0.0,95,0.00,,---,0.00,VWS V14.01,2013-09-19 23:47:00,
2013-09-19 18:48:00,38.8,37.5,0.00,North,0,0.0,0.0,95,0.00,,---,0.00,VWS V14.01,2013-09-19 23:48:00,
2013-09-19 18:49:00,38.6,37.3,0.00,North,0,0.0,0.0,95,0.00,,---,0.00,VWS V14.01,2013-09-19 23:49:00,
2013-09-19 18:50:00,38.6,37.3,0.00,North,0,0.0,0.0,95,0.00,,---,0.00,VWS V14.01,2013-09-19 23:50:00,
2013-09-19 18:51:00,38.6,37.3,0.00,North,0,0.0,0.0,95,0.00,,---,0.00,VWS V14.01,2013-09-19 23:51:00,
2013-09-19 18:52:00,38.6,37.3,0.00,North,0,0.0,0.0,95,0.00,,---,0.00,VWS V14.01,2013-09-19 23:52:00,
2013-09-19 18:53:00,38.3,37.0,0.00,North,0,0.0,0.0,95,0.00,,---,0.00,VWS V14.01,2013-09-19 23:53:00,
2013-09-19 18:54:00,38.3,37.0,0.00,North,0,0.0,0.0,95,0.00,,---,0.00,VWS V14.01,2013-09-19 23:54:00,
2013-09-19 18:55:00,38.3,37.0,0.00,North,0,0.0,0.0,95,0.00,,---,0.00,VWS V14.01,2013-09-19 23:55:00,
2013-09-19 18:56:00,37.9,36.6,0.00,North,0,0.0,0.0,95,0.00,,---,0.00,VWS V14.01,2013-09-19 23:56:00,
2013-09-19 18:57:00,37.9,36.3,0.00,North,0,0.0,0.0,94,0.00,,---,0.00,VWS V14.01,2013-09-19 23:57:00,
2013-09-19 18:58:00,37.9,36.3,0.00,North,0,0.0,0.0,94,0.00,,---,0.00,VWS V14.01,2013-09-19 23:58:00,
2013-09-19 18:59:00,37.9,36.3,0.00,North,0,0.0,0.0,94,0.00,,---,0.00,VWS V14.01,2013-09-19 23:59:00,
2013-09-19 19:00:00,37.9,36.6,0.00,North,0,0.0,0.0,95,0.00,,---,0.00,VWS V14.01,2013-09-20 00:00:00,
2013-09-19 19:01:00,37.9,36.6,0.00,North,0,0.0,0.0,95,0.00,,---,0.00,VWS V14.01,2013-09-20 00:01:00,
2013-09-19 19:02:00,38.1,36.8,0.00,North,0,0.0,0.0,95,0.00,,---,0.00,VWS V14.01,2013-09-20 00:02:00,
2013-09-19 19:03:00,38.1,36.8,0.00,North,0,0.0,0.0,95,0.00,,---,0.00,VWS V14.01,2013-09-20 00:03:00,
2013-09-19 19:04:00,38.1,36.8,0.00,North,0,0.0,0.0,95,0.00,,---,0.00,VWS V14.01,2013-09-20 00:04:00,
2013-09-19 19:05:00,38.3,37.0,0.00,North,0,0.0,0.0,95,0.00,,---,0.00,VWS V14.01,2013-09-20 00:05:00,
2013-09-19 19:06:00,38.3,37.0,0.00,North,0,0.0,0.0,95,0.00,,---,0.00,VWS V14.01,2013-09-20 00:06:00,
2013-09-19 19:08:00,38.3,37.0,0.00,North,0,0.0,0.0,95,0.00,,---,0.00,VWS V14.01,2013-09-20 00:08:00,
2013-09-19 19:09:00,38.4,37.4,0.00,North,0,0.9,1.1,96,0.00,,---,0.00,VWS V14.01,2013-09-20 00:09:00,
2013-09-19 19:10:00,38.4,37.4,0.00,North,0,0.0,1.1,96,0.00,,---,0.00,VWS V14.01,2013-09-20 00:10:00,
2013-09-19 19:11:00,38.4,37.4,0.00,North,0,0.0,1.1,96,0.00,,---,0.00,VWS V14.01,2013-09-20 00:11:00,
2013-09-19 19:12:00,38.4,37.4,0.00,North,0,0.0,1.1,96,0.00,,---,0.00,VWS V14.01,2013-09-20 00:12:00,
2013-09-19 19:13:00,38.3,37.2,0.00,North,0,0.0,1.1,96,0.00,,---,0.00,VWS V14.01,2013-09-20 00:13:00,
2013-09-19 19:14:00,38.3,37.2,0.00,North,0,0.0,1.1,96,0.00,,---,0.00,VWS V14.01,2013-09-20 00:14:00,
2013-09-19 19:15:00,38.4,37.4,0.00,North,0,2.0,2.0,96,0.00,,---,0.00,VWS V14.01,2013-09-20 00:15:00,
2013-09-19 19:16:00,38.4,37.4,0.00,North,0,2.2,2.2,96,0.00,,---,0.00,VWS V14.01,2013-09-20 00:16:00,
2013-09-19 19:17:00,38.4,37.4,0.00,North,0,1.3,2.2,96,0.00,,---,0.00,VWS V14.01,2013-09-20 00:17:00,
2013-09-19 19:18:00,38.4,37.4,0.00,North,0,0.0,2.2,96,0.00,,---,0.00,VWS V14.01,2013-09-20 00:18:00,
2013-09-19 19:19:00,38.8,37.5,0.00,North,0,0.0,2.2,95,0.00,,---,0.00,VWS V14.01,2013-09-20 00:19:00,
2013-09-19 19:20:00,38.8,37.5,0.00,North,0,0.0,2.2,95,0.00,,---,0.00,VWS V14.01,2013-09-20 00:20:00,
2013-09-19 19:21:00,38.8,37.5,0.00,North,0,0.0,2.2,95,0.00,,---,0.00,VWS V14.01,2013-09-20 00:21:00,
2013-09-19 19:22:00,38.8,37.8,0.00,North,0,0.0,2.2,96,0.00,,---,0.00,VWS V14.01,2013-09-20 00:22:00,
2013-09-19 19:23:00,38.8,37.8,0.00,North,0,0.0,2.2,96,0.00,,---,0.00,VWS V14.01,2013-09-20 00:23:00,
2013-09-19 19:24:00,38.8,37.5,0.00,North,0,0.0,2.2,95,0.00,,---,0.00,VWS V14.01,2013-09-20 00:24:00,
2013-09-19 19:25:00,38.8,37.5,0.00,North,0,0.0,2.2,95,0.00,,---,0.00,VWS V14.01,2013-09-20 00:25:00,
2013-09-19 19:26:00,38.8,37.5,0.00,North,0,0.0,2.2,95,0.00,,---,0.00,VWS V14.01,2013-09-20 00:26:00,
2013-09-19 19:27:00,38.8,37.5,0.00,North,0,0.0,2.2,95,0.00,,---,0.00,VWS V14.01,2013-09-20 00:27:00,
2013-09-19 19:28:00,38.8,37.5,0.00,North,0,0.0,2.2,95,0.00,,---,0.00,VWS V14.01,2013-09-20 00:28:00,
2013-09-19 19:29:00,39.0,37.7,0.00,North,0,0.0,2.2,95,0.00,,---,0.00,VWS V14.01,2013-09-20 00:29:00,
2013-09-19 19:30:00,39.0,37.7,0.00,North,0,2.7,2.7,95,0.00,,---,0.00,VWS V14.01,2013-09-20 00:30:00,
2013-09-19 19:31:00,38.8,37.5,0.00,North,0,2.5,2.7,95,0.00,,---,0.00,VWS V14.01,2013-09-20 00:31:00,
2013-09-19 19:32:00,38.8,37.5,0.00,North,0,2.9,2.9,95,0.00,,---,0.00,VWS V14.01,2013-09-20 00:32:00,
2013-09-19 19:33:00,38.8,37.5,0.00,North,0,2.5,2.9,95,0.00,,---,0.00,VWS V14.01,2013-09-20 00:33:00,
2013-09-19 19:34:00,38.8,37.5,0.00,North,0,2.7,2.9,95,0.00,,---,0.00,VWS V14.01,2013-09-20 00:34:00,
2013-09-19 19:35:00,39.0,37.7,0.00,North,0,2.7,2.9,95,0.00,,---,0.00,VWS V14.01,2013-09-20 00:35:00,
2013-09-19 19:36:00,39.0,37.7,0.00,North,0,1.6,2.9,95,0.00,,---,0.00,VWS V14.01,2013-09-20 00:36:00,
2013-09-19 19:37:00,39.0,37.7,0.00,North,0,2.5,2.9,95,0.00,,---,0.00,VWS V14.01,2013-09-20 00:37:00,
2013-09-19 19:38:00,39.2,37.8,0.00,North,0,2.2,2.9,95,0.00,,---,0.00,VWS V14.01,2013-09-20 00:38:00,
2013-09-19 19:39:00,39.2,37.8,0.00,North,0,2.5,2.9,95,0.00,,---,0.00,VWS V14.01,2013-09-20 00:39:00,
2013-09-19 19:41:00,39.2,37.8,0.00,North,0,2.2,2.9,95,0.00,,---,0.00,VWS V14.01,2013-09-20 00:41:00,
2013-09-19 19:42:00,39.5,38.2,0.00,NW,315,1.3,2.9,95,0.00,,---,0.00,VWS V14.01,2013-09-20 00:42:00,
2013-09-19 19:43:00,39.5,38.2,0.00,NW,315,1.3,2.9,95,0.00,,---,0.00,VWS V14.01,2013-09-20 00:43:00,
2013-09-19 19:44:00,39.5,38.2,0.00,NW,315,1.3,2.9,95,0.00,,---,0.00,VWS V14.01,2013-09-20 00:44:00,
2013-09-19 19:45:00,39.5,38.2,0.00,NNW,338,1.3,2.9,95,0.00,,---,0.00,VWS V14.01,2013-09-20 00:45:00,
2013-09-19 19:46:00,39.5,38.2,0.00,North,0,2.0,2.0,95,0.00,,---,0.00,VWS V14.01,2013-09-20 00:46:00,
2013-09-19 19:47:00,39.9,38.6,0.00,North,0,1.3,2.5,95,0.00,,---,0.00,VWS V14.01,2013-09-20 00:47:00,
2013-09-19 19:48:00,40.2,38.9,0.00,North,0,1.6,2.5,95,0.00,,---,0.00,VWS V14.01,2013-09-20 00:48:00,
2013-09-19 19:49:00,40.2,38.9,0.00,North,0,1.1,2.5,95,0.00,,---,0.00,VWS V14.01,2013-09-20 00:49:00,
2013-09-19 19:50:00,40.4,39.1,0.00,North,0,1.3,2.5,95,0.00,,---,0.00,VWS V14.01,2013-09-20 00:50:00,
2013-09-19 19:51:00,40.6,39.0,0.00,North,0,1.3,2.5,94,0.00,,---,0.00,VWS V14.01,2013-09-20 00:51:00,
2013-09-19 19:52:00,40.6,39.0,0.00,North,0,1.6,2.5,94,0.00,,---,0.00,VWS V14.01,2013-09-20 00:52:00,
2013-09-19 19:53:00,40.8,39.2,0.00,North,0,2.7,2.9,94,0.00,,---,0.00,VWS V14.01,2013-09-20 00:53:00,
2013-09-19 19:54:00,40.8,39.2,0.00,North,0,2.5,2.9,94,0.00,,---,0.00,VWS V14.01,2013-09-20 00:54:00,
2013-09-19 19:55:00,41.0,39.4,0.00,North,0,2.5,2.9,94,0.00,,---,0.00,VWS V14.01,2013-09-20 00:55:00,
2013-09-19 19:57:00,41.1,39.5,0.00,North,0,2.0,2.9,94,0.00,,---,0.00,VWS V14.01,2013-09-20 00:57:00,
2013-09-19 19:58:00,41.5,39.9,0.00,North,0,0.0,2.9,94,0.00,,---,0.00,VWS V14.01,2013-09-20 00:58:00,
2013-09-19 20:00:00,41.7,40.1,0.00,North,0,1.1,2.9,94,0.00,,---,0.00,VWS V14.01,2013-09-20 01:00:00,
2013-09-19 20:01:00,41.7,40.1,0.00,North,0,0.0,1.3,94,0.00,,---,0.00,VWS V14.01,2013-09-20 01:01:00,
2013-09-19 20:02:00,42.4,40.8,0.00,North,0,0.0,1.3,94,0.00,,---,0.00,VWS V14.01,2013-09-20 01:02:00,
2013-09-19 20:03:00,42.4,40.8,0.00,North,0,0.0,1.3,94,0.00,,---,0.00,VWS V14.01,2013-09-20 01:03:00,
2013-09-19 20:04:00,42.9,41.3,0.00,North,0,2.0,2.0,94,0.00,,---,0.00,VWS V14.01,2013-09-20 01:04:00,
2013-09-19 20:05:00,43.1,41.5,0.00,North,0,0.9,2.0,94,0.00,,---,0.00,VWS V14.01,2013-09-20 01:05:00,
2013-09-19 20:06:00,43.3,41.7,0.00,North,0,0.0,2.0,94,0.00,,---,0.00,VWS V14.01,2013-09-20 01:06:00,
2013-09-19 20:07:00,43.3,41.7,0.00,North,0,0.0,2.0,94,0.00,,---,0.00,VWS V14.01,2013-09-20 01:07:00,
2013-09-19 20:08:00,43.3,41.7,0.00,North,0,1.1,2.0,94,0.00,,---,0.00,VWS V14.01,2013-09-20 01:08:00,
2013-09-19 20:09:00,43.8,42.0,0.00,North,0,0.0,2.0,93,0.00,,---,0.00,VWS V14.01,2013-09-20 01:09:00,
2013-09-19 20:10:00,44.0,42.1,0.00,North,0,0.0,2.0,93,0.00,,---,0.00,VWS V14.01,2013-09-20 01:10:00,
2013-09-19 20:11:00,44.2,42.3,0.00,North,0,1.1,2.0,93,0.00,,---,0.00,VWS V14.01,2013-09-20 01:11:00,
2013-09-19 20:12:00,44.4,42.5,0.00,North,0,0.0,2.0,93,0.00,,---,0.00,VWS V14.01,2013-09-20 01:12:00,
2013-09-19 20:13:00,44.4,42.5,0.00,North,0,0.0,2.0,93,0.00,,---,0.00,VWS V14.01,2013-09-20 01:13:00,
2013-09-19 20:14:00,44.9,43.0,0.00,North,0,0.0,2.0,93,0.00,,---,0.00,VWS V14.01,2013-09-20 01:14:00,
2013-09-19 20:15:00,45.1,43.2,0.00,North,0,0.0,2.0,93,0.00,,---,0.00,VWS V14.01,2013-09-20 01:15:00,
2013-09-19 20:16:00,45.5,43.6,0.00,North,0,0.0,0.0,93,0.00,,---,0.00,VWS V14.01,2013-09-20 01:16:00,
2013-09-19 20:18:00,45.6,43.7,0.00,North,0,0.0,0.0,93,0.00,,---,0.00,VWS V14.01,2013-09-20 01:18:00,
2013-09-19 20:19:00,46.4,44.2,0.00,North,0,0.0,0.0,92,0.00,,---,0.00,VWS V14.01,2013-09-20 01:19:00,
2013-09-19 20:20:00,46.7,44.5,0.00,North,0,0.0,0.0,92,0.00,,---,0.00,VWS V14.01,2013-09-20 01:20:00,
2013-09-19 20:21:00,46.7,44.5,0.00,North,0,0.0,0.0,92,0.00,,---,0.00,VWS V14.01,2013-09-20 01:21:00,
2013-09-19 20:22:00,47.1,44.9,0.00,North,0,0.0,0.0,92,0.00,,---,0.00,VWS V14.01,2013-09-20 01:22:00,
2013-09-19 20:24:00,47.1,44.6,0.00,North,0,0.0,0.0,91,0.00,,---,0.00,VWS V14.01,2013-09-20 01:24:00,
2013-09-19 20:25:00,47.8,44.4,0.00,North,0,0.0,0.9,88,0.00,,---,0.00,VWS V14.01,2013-09-20 01:25:00,
2013-09-19 20:27:00,47.8,44.4,0.00,South,180,0.9,0.9,88,0.00,,---,0.00,VWS V14.01,2013-09-20 01:27:00,
2013-09-19 20:28:00,48.0,42.8,0.00,South,180,0.0,0.9,82,0.00,,---,0.00,VWS V14.01,2013-09-20 01:28:00,
2013-09-19 20:29:00,48.2,42.9,0.00,South,180,0.0,0.9,82,0.00,,---,0.00,VWS V14.01,2013-09-20 01:29:00,
2013-09-19 20:30:00,48.2,42.9,0.00,South,180,0.0,0.9,82,0.00,,---,0.00,VWS V14.01,2013-09-20 01:30:00,
2013-09-19 20:31:00,48.2,42.9,0.00,South,180,0.0,0.0,82,0.00,,---,0.00,VWS V14.01,2013-09-20 01:31:00,
2013-09-19 20:32:00,48.7,43.8,0.00,South,180,0.0,0.0,83,0.00,,---,0.00,VWS V14.01,2013-09-20 01:32:00,
2013-09-19 20:34:00,48.9,44.0,0.00,South,180,0.0,0.0,83,0.00,,---,0.00,VWS V14.01,2013-09-20 01:34:00,
2013-09-19 20:35:00,49.2,44.0,0.00,South,180,0.0,0.0,82,0.00,,---,0.00,VWS V14.01,2013-09-20 01:35:00,
2013-09-19 20:36:00,49.6,44.7,0.00,South,180,0.0,0.0,83,0.00,,---,0.00,VWS V14.01,2013-09-20 01:36:00,
2013-09-19 20:37:00,49.8,44.8,0.00,South,180,0.0,0.0,83,0.00,,---,0.00,VWS V14.01,2013-09-20 01:37:00,
2013-09-19 20:38:00,50.1,45.5,0.00,South,180,0.0,0.0,84,0.00,,---,0.00,VWS V14.01,2013-09-20 01:38:00,
2013-09-19 20:39:00,50.3,45.7,0.00,South,180,0.0,0.0,84,0.00,,---,0.00,VWS V14.01,2013-09-20 01:39:00,
2013-09-19 20:40:00,50.5,45.5,0.00,South,180,0.0,0.0,83,0.00,,---,0.00,VWS V14.01,2013-09-20 01:40:00,
2013-09-19 20:41:00,51.0,46.1,0.00,South,180,0.0,0.0,83,0.00,,---,0.00,VWS V14.01,2013-09-20 01:41:00,
2013-09-19 20:42:00,51.0,46.1,0.00,South,180,0.0,0.0,83,0.00,,---,0.00,VWS V14.01,2013-09-20 01:42:00,
2013-09-19 20:43:00,51.0,46.1,0.00,SSW,202,0.0,0.0,83,0.00,,---,0.00,VWS V14.01,2013-09-20 01:43:00,
2013-09-19 20:44:00,52.8,41.8,0.00,NNE,22,2.0,2.7,66,0.00,,---,0.00,VWS V14.01,2013-09-20 01:44:00,
2013-09-19 20:45:00,51.6,45.6,0.00,SSW,202,0.0,0.0,80,0.00,,---,0.00,VWS V14.01,2013-09-20 01:45:00,
2013-09-19 20:46:00,51.9,46.6,0.00,SSW,202,0.0,0.0,82,0.00,,---,0.00,VWS V14.01,2013-09-20 01:46:00,
2013-09-19 20:47:00,51.9,47.3,0.00,SSW,202,0.0,0.0,84,0.00,,---,0.00,VWS V14.01,2013-09-20 01:47:00,
2013-09-19 20:48:00,52.3,47.6,0.00,SSW,202,0.0,0.0,84,0.00,,---,0.00,VWS V14.01,2013-09-20 01:48:00,
2013-09-19 20:49:00,52.5,46.5,0.00,SSW,202,0.0,0.0,80,0.00,,---,0.00,VWS V14.01,2013-09-20 01:49:00,
2013-09-19 20:50:00,52.7,47.7,0.00,SSW,202,0.0,0.0,83,0.00,,---,0.00,VWS V14.01,2013-09-20 01:50:00,
2013-09-19 20:51:00,52.3,41.7,0.00,NNE,22,2.0,2.0,67,0.00,,---,0.00,VWS V14.01,2013-09-20 01:51:00,
2013-09-19 20:52:00,52.8,48.5,0.00,SSW,202,0.0,0.0,85,0.00,,---,0.00,VWS V14.01,2013-09-20 01:52:00,
2013-09-19 20:53:00,53.0,47.7,0.00,SSW,202,0.0,0.0,82,0.00,,---,0.00,VWS V14.01,2013-09-20 01:53:00,
2013-09-19 20:54:00,53.0,45.3,0.00,SSW,202,0.0,0.0,75,0.00,,---,0.00,VWS V14.01,2013-09-20 01:54:00,
2013-09-19 20:55:00,53.4,45.7,0.00,SSW,202,0.0,0.0,75,0.00,,---,0.00,VWS V14.01,2013-09-20 01:55:00,
2013-09-19 20:57:00,53.7,46.7,0.00,SSW,202,0.0,0.0,77,0.00,,---,0.00,VWS V14.01,2013-09-20 01:57:00,
2013-09-19 20:58:00,53.9,45.8,0.00,SSW,202,0.0,0.0,74,0.00,,---,0.00,VWS V14.01,2013-09-20 01:58:00,
2013-09-19 20:59:00,54.1,46.4,0.00,SSW,202,0.0,0.0,75,0.00,,---,0.00,VWS V14.01,2013-09-20 01:59:00,
2013-09-19 21:00:00,54.1,46.0,0.00,SW,225,0.0,0.0,74,0.00,,---,0.00,VWS V14.01,2013-09-20 02:00:00,
2013-09-19 21:01:00,54.1,44.2,0.00,SW,225,1.3,1.3,69,0.00,,---,0.00,VWS V14.01,2013-09-20 02:01:00,
2013-09-19 21:02:00,54.1,45.7,0.00,West,270,1.6,2.2,73,0.00,,---,0.00,VWS V14.01,2013-09-20 02:02:00,
2013-09-19 21:03:00,54.3,45.5,0.00,SW,225,0.0,2.2,72,0.00,,---,0.00,VWS V14.01,2013-09-20 02:03:00,
2013-09-19 21:04:00,54.5,45.3,0.00,SW,225,0.9,2.2,71,0.00,,---,0.00,VWS V14.01,2013-09-20 02:04:00,
2013-09-19 21:05:00,54.6,45.1,0.00,SW,225,2.0,2.2,70,0.00,,---,0.00,VWS V14.01,2013-09-20 02:05:00,
2013-09-19 21:06:00,54.8,44.5,0.00,SW,225,0.9,2.5,68,0.00,,---,0.00,VWS V14.01,2013-09-20 02:06:00,
2013-09-19 21:08:00,54.8,44.5,0.00,West,270,0.0,2.5,68,0.00,,---,0.00,VWS V14.01,2013-09-20 02:08:00,
2013-09-19 21:09:00,55.0,44.3,0.00,SW,225,0.0,2.5,67,0.00,,---,0.00,VWS V14.01,2013-09-20 02:09:00,
2013-09-19 21:10:00,55.4,45.0,0.00,SW,225,0.0,2.5,68,0.00,,---,0.00,VWS V14.01,2013-09-20 02:10:00,
2013-09-19 21:11:00,55.5,44.8,0.00,WSW,248,0.9,2.5,67,0.00,,---,0.00,VWS V14.01,2013-09-20 02:11:00,
2013-09-19 21:12:00,55.7,44.5,0.00,West,270,1.3,2.5,66,0.00,,---,0.00,VWS V14.01,2013-09-20 02:12:00,
2013-09-19 21:14:00,55.7,43.3,0.00,West,270,0.0,2.5,63,0.00,,---,0.00,VWS V14.01,2013-09-20 02:14:00,
2013-09-19 21:15:00,56.1,43.7,0.00,West,270,1.6,2.5,63,0.00,,---,0.00,VWS V14.01,2013-09-20 02:15:00,
2013-09-19 21:16:00,56.3,43.0,0.00,WSW,248,0.0,2.5,61,0.00,,---,0.00,VWS V14.01,2013-09-20 02:16:00,
2013-09-19 21:17:00,56.3,43.0,0.00,WSW,248,0.0,2.5,61,0.00,,---,0.00,VWS V14.01,2013-09-20 02:17:00,
2013-09-19 21:18:00,56.6,43.8,0.00,West,270,0.0,2.5,62,0.00,,---,0.00,VWS V14.01,2013-09-20 02:18:00,
2013-09-19 21:19:00,56.8,43.5,0.00,West,270,0.0,2.5,61,0.00,,---,0.00,VWS V14.01,2013-09-20 02:19:00,
2013-09-19 21:20:00,56.8,43.1,0.00,SW,225,0.9,2.5,60,0.00,,---,0.00,VWS V14.01,2013-09-20 02:20:00,
2013-09-19 21:21:00,56.8,43.1,0.00,SSW,202,1.1,2.5,60,0.00,,---,0.00,VWS V14.01,2013-09-20 02:21:00,
2013-09-19 21:22:00,56.8,43.1,0.00,SSW,202,0.0,2.5,60,0.00,,---,0.00,VWS V14.01,2013-09-20 02:22:00,
2013-09-19 21:23:00,57.2,43.4,0.00,NW,315,1.6,2.5,60,0.00,,---,0.00,VWS V14.01,2013-09-20 02:23:00,
2013-09-19 21:24:00,57.3,43.6,0.00,NW,315,1.3,2.5,60,0.00,,---,0.00,VWS V14.01,2013-09-20 02:24:00,
2013-09-19 21:25:00,57.7,43.5,0.00,NW,315,0.0,2.5,59,0.00,,---,0.00,VWS V14.01,2013-09-20 02:25:00,
2013-09-19 21:26:00,57.9,43.7,0.00,NW,315,0.0,2.5,59,0.00,,---,0.00,VWS V14.01,2013-09-20 02:26:00,
2013-09-19 21:27:00,58.2,44.4,0.00,NW,315,0.0,2.5,60,0.00,,---,0.00,VWS V14.01,2013-09-20 02:27:00,
2013-09-19 21:28:00,58.6,44.3,0.00,North,0,0.0,2.5,59,0.00,,---,0.00,VWS V14.01,2013-09-20 02:28:00,
2013-09-19 21:29:00,58.8,44.5,0.00,North,0,0.0,2.5,59,0.00,,---,0.00,VWS V14.01,2013-09-20 02:29:00,
2013-09-19 21:31:00,59.1,43.9,0.00,NW,315,0.0,2.5,57,0.00,,---,0.00,VWS V14.01,2013-09-20 02:31:00,
2013-09-19 21:32:00,59.1,43.9,0.00,NW,315,1.3,2.5,57,0.00,,---,0.00,VWS V14.01,2013-09-20 02:32:00,
2013-09-19 21:33:00,59.3,42.7,0.00,NW,315,1.6,2.5,54,0.00,,---,0.00,VWS V14.01,2013-09-20 02:33:00,
2013-09-19 21:34:00,59.0,41.9,0.00,NW,315,0.0,2.5,53,0.00,,---,0.00,VWS V14.01,2013-09-20 02:34:00,
2013-09-19 21:35:00,59.0,41.9,0.00,NW,315,0.0,2.5,53,0.00,,---,0.00,VWS V14.01,2013-09-20 02:35:00,
2013-09-19 21:36:00,59.0,41.9,0.00,NW,315,0.0,2.5,53,0.00,,---,0.00,VWS V14.01,2013-09-20 02:36:00,
2013-09-19 21:37:00,59.3,43.2,0.00,NW,315,0.0,2.5,55,0.00,,---,0.00,VWS V14.01,2013-09-20 02:37:00,
2013-09-19 21:38:00,59.7,43.5,0.00,NW,315,0.0,2.5,55,0.00,,---,0.00,VWS V14.01,2013-09-20 02:38:00,
2013-09-19 21:39:00,59.7,43.5,0.00,SE,135,2.0,2.5,55,0.00,,---,0.00,VWS V14.01,2013-09-20 02:39:00,
2013-09-19 21:40:00,60.4,43.7,0.00,SSE,158,2.7,2.7,54,0.00,,---,0.00,VWS V14.01,2013-09-20 02:40:00,
2013-09-19 21:41:00,60.6,43.4,0.00,SSE,158,2.9,3.6,53,0.00,,---,0.00,VWS V14.01,2013-09-20 02:41:00,
2013-09-19 21:42:00,60.6,42.4,0.00,SSE,158,0.0,3.6,51,0.00,,---,0.00,VWS V14.01,2013-09-20 02:42:00,
2013-09-19 21:43:00,60.8,43.5,0.00,ESE,112,1.6,3.6,53,0.00,,---,0.00,VWS V14.01,2013-09-20 02:43:00,
2013-09-19 21:44:00,60.9,43.2,0.00,SE,135,1.6,3.6,52,0.00,,---,0.00,VWS V14.01,2013-09-20 02:44:00,
2013-09-19 21:45:00,60.9,42.7,0.00,SSE,158,1.6,3.6,51,0.00,,---,0.00,VWS V14.01,2013-09-20 02:45:00,
2013-09-19 21:46:00,60.9,42.2,0.00,ESE,112,1.1,1.6,50,0.00,,---,0.00,VWS V14.01,2013-09-20 02:46:00,
2013-09-19 21:47:00,60.8,42.5,0.00,ESE,112,0.0,1.6,51,0.00,,---,0.00,VWS V14.01,2013-09-20 02:47:00,
2013-09-19 21:48:00,61.1,43.4,0.00,ESE,112,0.0,1.6,52,0.00,,---,0.00,VWS V14.01,2013-09-20 02:48:00,
2013-09-19 21:49:00,61.3,43.0,0.00,NE,45,1.6,2.7,51,0.00,,---,0.00,VWS V14.01,2013-09-20 02:49:00,
2013-09-19 21:50:00,61.5,43.2,0.00,ESE,112,2.9,3.1,51,0.00,,---,0.00,VWS V14.01,2013-09-20 02:50:00,
2013-09-19 21:51:00,61.5,42.2,0.00,ESE,112,0.0,3.1,49,0.00,,---,0.00,VWS V14.01,2013-09-20 02:51:00,
2013-09-19 21:52:00,61.7,42.8,0.00,SW,225,0.9,3.1,50,0.00,,---,0.00,VWS V14.01,2013-09-20 02:52:00,
2013-09-19 21:53:00,61.7,42.8,0.00,SW,225,0.0,3.1,50,0.00,,---,0.00,VWS V14.01,2013-09-20 02:53:00,
2013-09-19 21:54:00,61.7,42.8,0.00,SW,225,0.0,3.1,50,0.00,,---,0.00,VWS V14.01,2013-09-20 02:54:00,
2013-09-19 21:55:00,62.0,43.7,0.00,SW,225,0.0,3.1,51,0.00,,---,0.00,VWS V14.01,2013-09-20 02:55:00,
2013-09-19 21:56:00,62.0,43.7,0.00,SE,135,1.3,3.1,51,0.00,,---,0.00,VWS V14.01,2013-09-20 02:56:00,
2013-09-19 21:57:00,62.0,42.7,0.00,NW,315,0.0,3.1,49,0.00,,---,0.00,VWS V14.01,2013-09-20 02:57:00,
2013-09-19 21:58:00,62.0,42.7,0.00,NW,315,0.0,3.1,49,0.00,,---,0.00,VWS V14.01,2013-09-20 02:58:00,
2013-09-19 21:59:00,62.0,42.7,0.00,NNE,22,2.7,3.1,49,0.00,,---,0.00,VWS V14.01,2013-09-20 02:59:00,
2013-09-19 22:00:00,62.6,43.2,0.00,NE,45,2.9,3.1,49,0.00,,---,0.00,VWS V14.01,2013-09-20 03:00:00,
2013-09-19 22:01:00,62.7,43.3,0.00,East,90,1.1,2.9,49,0.00,,---,0.00,VWS V14.01,2013-09-20 03:01:00,
2013-09-19 22:03:00,62.9,43.5,0.00,SE,135,3.4,3.4,49,0.00,,---,0.00,VWS V14.01,2013-09-20 03:03:00,
2013-09-19 22:04:00,62.7,42.2,0.00,ESE,112,1.6,3.4,47,0.00,,---,0.00,VWS V14.01,2013-09-20 03:04:00,
2013-09-19 22:05:00,62.7,42.2,0.00,ESE,112,1.3,3.4,47,0.00,,---,0.00,VWS V14.01,2013-09-20 03:05:00,
2013-09-19 22:06:00,62.7,42.2,0.00,ENE,68,3.8,3.8,47,0.00,,---,0.00,VWS V14.01,2013-09-20 03:06:00,
2013-09-19 22:07:00,62.7,42.2,0.00,NE,45,0.9,3.8,47,0.00,,---,0.00,VWS V14.01,2013-09-20 03:07:00,
2013-09-19 22:08:00,62.7,42.2,0.00,NE,45,0.0,3.8,47,0.00,,---,0.00,VWS V14.01,2013-09-20 03:08:00,
2013-09-19 22:09:00,62.7,42.2,0.00,NE,45,3.4,3.8,47,0.00,,---,0.00,VWS V14.01,2013-09-20 03:09:00,
2013-09-19 22:10:00,62.7,41.7,0.00,NE,45,1.1,3.8,46,0.00,,---,0.00,VWS V14.01,2013-09-20 03:10:00,
2013-09-19 22:11:00,62.7,41.7,0.00,North,0,1.3,3.8,46,0.00,,---,0.00,VWS V14.01,2013-09-20 03:11:00,
2013-09-19 22:12:00,62.7,41.7,0.00,North,0,0.9,3.8,46,0.00,,---,0.00,VWS V14.01,2013-09-20 03:12:00,
2013-09-19 22:14:00,62.7,41.7,0.00,East,90,2.7,3.8,46,0.00,,---,0.00,VWS V14.01,2013-09-20 03:14:00,
2013-09-19 22:15:00,63.3,42.2,0.00,East,90,2.9,3.8,46,0.00,,---,0.00,VWS V14.01,2013-09-20 03:15:00,
2013-09-19 22:16:00,63.3,42.2,0.00,NE,45,1.3,2.9,46,0.00,,---,0.00,VWS V14.01,2013-09-20 03:16:00,
2013-09-19 22:17:00,63.6,42.5,0.00,NE,45,2.2,2.9,46,0.00,,---,0.00,VWS V14.01,2013-09-20 03:17:00,
2013-09-19 22:18:00,63.8,42.7,0.00,NE,45,2.5,2.9,46,0.00,,---,0.00,VWS V14.01,2013-09-20 03:18:00,
2013-09-19 22:19:00,63.8,42.1,0.00,ENE,68,2.0,2.9,45,0.00,,---,0.00,VWS V14.01,2013-09-20 03:19:00,
2013-09-19 22:20:00,63.8,42.1,0.00,SSE,158,1.3,2.9,45,0.00,,---,0.00,VWS V14.01,2013-09-20 03:20:00,
2013-09-19 22:21:00,64.0,42.3,0.00,SE,135,1.6,2.9,45,0.00,,---,0.00,VWS V14.01,2013-09-20 03:21:00,
2013-09-19 22:22:00,63.8,42.1,0.00,NE,45,2.5,2.9,45,0.00,,---,0.00,VWS V14.01,2013-09-20 03:22:00,
2013-09-19 22:23:00,64.0,42.3,0.00,NE,45,1.6,3.1,45,0.00,,---,0.00,VWS V14.01,2013-09-20 03:23:00,
2013-09-19 22:24:00,64.2,42.4,0.00,NNE,22,0.0,3.1,45,0.00,,---,0.00,VWS V14.01,2013-09-20 03:24:00,
2013-09-19 22:25:00,64.2,42.4,0.00,East,90,2.0,3.1,45,0.00,,---,0.00,VWS V14.01,2013-09-20 03:25:00,
2013-09-19 22:26:00,64.4,42.6,0.00,ENE,68,0.0,3.1,45,0.00,,---,0.00,VWS V14.01,2013-09-20 03:26:00,
2013-09-19 22:27:00,64.5,42.8,0.00,NE,45,1.6,3.1,45,0.00,,---,0.00,VWS V14.01,2013-09-20 03:27:00,
2013-09-19 22:28:00,64.7,42.9,0.00,East,90,2.0,3.1,45,0.00,,---,0.00,VWS V14.01,2013-09-20 03:28:00,
2013-09-19 22:29:00,64.7,42.9,0.00,East,90,1.1,3.1,45,0.00,,---,0.00,VWS V14.01,2013-09-20 03:29:00,
2013-09-19 22:30:00,64.7,42.9,0.00,ESE,112,2.7,4.3,45,0.00,,---,0.00,VWS V14.01,2013-09-20 03:30:00,
2013-09-19 22:31:00,64.7,42.9,0.00,SE,135,2.7,2.7,45,0.00,,---,0.00,VWS V14.01,2013-09-20 03:31:00,
2013-09-19 22:32:00,64.7,42.9,0.00,SE,135,2.9,3.6,45,0.00,,---,0.00,VWS V14.01,2013-09-20 03:32:00,
2013-09-19 22:33:00,64.9,42.5,0.00,SE,135,1.1,3.6,44,0.00,,---,0.00,VWS V14.01,2013-09-20 03:33:00,
2013-09-19 22:34:00,64.9,42.5,0.00,East,90,2.5,3.6,44,0.00,,---,0.00,VWS V14.01,2013-09-20 03:34:00,
2013-09-19 22:35:00,64.9,42.5,0.00,East,90,2.5,3.6,44,0.00,,---,0.00,VWS V14.01,2013-09-20 03:35:00,
2013-09-19 22:36:00,64.9,42.5,0.00,East,90,2.5,3.6,44,0.00,,---,0.00,VWS V14.01,2013-09-20 03:36:00,
2013-09-19 22:37:00,64.9,42.5,0.00,NE,45,1.1,3.6,44,0.00,,---,0.00,VWS V14.01,2013-09-20 03:37:00,
2013-09-19 22:38:00,65.4,43.0,0.00,SE,135,3.1,3.6,44,0.00,,---,0.00,VWS V14.01,2013-09-20 03:38:00,
2013-09-19 22:39:00,65.4,43.0,0.00,SE,135,4.5,4.5,44,0.00,,---,0.00,VWS V14.01,2013-09-20 03:39:00,
2013-09-19 22:40:00,65.4,43.0,0.00,South,180,6.3,6.3,44,0.00,,---,0.00,VWS V14.01,2013-09-20 03:40:00,
2013-09-19 22:41:00,64.5,41.6,0.00,SSE,158,4.3,6.3,43,0.00,,---,0.00,VWS V14.01,2013-09-20 03:41:00,
2013-09-19 22:42:00,64.5,41.6,0.00,South,180,4.0,6.3,43,0.00,,---,0.00,VWS V14.01,2013-09-20 03:42:00,
2013-09-19 22:43:00,64.4,41.4,0.00,SE,135,1.3,6.3,43,0.00,,---,0.00,VWS V14.01,2013-09-20 03:43:00,
2013-09-19 22:44:00,64.5,41.6,0.00,South,180,2.0,6.3,43,0.00,,---,0.00,VWS V14.01,2013-09-20 03:44:00,
2013-09-19 22:45:00,64.7,41.7,0.00,South,180,0.0,6.3,43,0.00,,---,0.00,VWS V14.01,2013-09-20 03:45:00,
2013-09-19 22:46:00,65.1,42.0,0.00,SE,135,3.4,3.4,43,0.00,,---,0.00,VWS V14.01,2013-09-20 03:46:00,
2013-09-19 22:47:00,65.1,42.0,0.00,SW,225,3.1,3.4,43,0.00,,---,0.00,VWS V14.01,2013-09-20 03:47:00,
2013-09-19 22:48:00,64.9,41.9,0.00,South,180,3.6,4.0,43,0.00,,---,0.00,VWS V14.01,2013-09-20 03:48:00,
2013-09-19 22:49:00,64.9,41.9,0.00,South,180,3.6,4.0,43,0.00,,---,0.00,VWS V14.01,2013-09-20 03:49:00,
2013-09-19 22:50:00,64.9,41.9,0.00,SW,225,3.8,4.3,43,0.00,,---,0.00,VWS V14.01,2013-09-20 03:50:00,
2013-09-19 22:51:00,64.9,41.9,0.00,SW,225,1.3,4.3,43,0.00,,---,0.00,VWS V14.01,2013-09-20 03:51:00,
2013-09-19 22:52:00,64.9,41.9,0.00,SW,225,2.5,4.3,43,0.00,,---,0.00,VWS V14.01,2013-09-20 03:52:00,
2013-09-19 22:53:00,65.1,42.0,0.00,SW,225,2.2,4.3,43,0.00,,---,0.00,VWS V14.01,2013-09-20 03:53:00,
2013-09-19 22:54:00,65.4,42.4,0.00,SSE,158,2.7,4.3,43,0.00,,---,0.00,VWS V14.01,2013-09-20 03:54:00,
2013-09-19 22:55:00,65.6,42.5,0.00,SSE,158,0.9,4.3,43,0.00,,---,0.00,VWS V14.01,2013-09-20 03:55:00,
2013-09-19 22:56:00,66.0,42.9,0.00,WSW,248,1.3,4.3,43,0.00,,---,0.00,VWS V14.01,2013-09-20 03:56:00,
2013-09-19 22:57:00,66.0,42.9,0.00,SE,135,2.7,4.3,43,0.00,,---,0.00,VWS V14.01,2013-09-20 03:57:00,
2013-09-19 22:59:00,47.3,43.0,0.00,ESE,112,0.0,0.0,85,0.00,,---,0.00,VWS V14.01,2013-09-20 03:59:00,
2013-09-19 23:00:00,66.5,43.4,0.00,South,180,1.1,4.3,43,0.00,,---,0.00,VWS V14.01,2013-09-20 04:00:00,
2013-09-19 23:01:00,66.7,43.5,0.00,South,180,0.0,1.1,43,0.00,,---,0.00,VWS V14.01,2013-09-20 04:01:00,
2013-09-19 23:02:00,66.9,43.7,0.00,NE,45,2.0,2.0,43,0.00,,---,0.00,VWS V14.01,2013-09-20 04:02:00,
2013-09-19 23:03:00,67.1,43.8,0.00,SE,135,0.9,2.2,43,0.00,,---,0.00,VWS V14.01,2013-09-20 04:03:00,
2013-09-19 23:04:00,67.4,44.2,0.00,North,0,0.9,2.2,43,0.00,,---,0.00,VWS V14.01,2013-09-20 04:04:00,
2013-09-19 23:05:00,67.4,44.2,0.00,NNE,22,2.2,2.9,43,0.00,,---,0.00,VWS V14.01,2013-09-20 04:05:00,
2013-09-19 23:06:00,67.2,43.4,0.00,West,270,2.7,3.4,42,0.00,,---,0.00,VWS V14.01,2013-09-20 04:06:00,
2013-09-19 23:07:00,67.2,43.4,0.00,West,270,0.0,3.4,42,0.00,,---,0.00,VWS V14.01,2013-09-20 04:07:00,
2013-09-19 23:08:00,67.2,43.4,0.00,West,270,0.0,3.4,42,0.00,,---,0.00,VWS V14.01,2013-09-20 04:08:00,
2013-09-19 23:09:00,67.4,44.2,0.00,WSW,248,1.6,3.4,43,0.00,,---,0.00,VWS V14.01,2013-09-20 04:09:00,
2013-09-19 23:10:00,67.6,43.7,0.00,NE,45,1.3,3.4,42,0.00,,---,0.00,VWS V14.01,2013-09-20 04:10:00,
2013-09-19 23:11:00,67.8,43.9,0.00,ENE,68,0.0,3.4,42,0.00,,---,0.00,VWS V14.01,2013-09-20 04:11:00,
2013-09-19 23:12:00,68.0,43.4,0.00,SE,135,0.0,3.4,41,0.00,,---,0.00,VWS V14.01,2013-09-20 04:12:00,
2013-09-19 23:14:00,68.5,43.9,0.00,West,270,3.4,3.6,41,0.00,,---,0.00,VWS V14.01,2013-09-20 04:14:00,
2013-09-19 23:15:00,68.7,44.1,0.00,West,270,3.4,4.3,41,0.00,,---,0.00,VWS V14.01,2013-09-20 04:15:00,
2013-09-19 23:16:00,68.3,43.7,0.00,North,0,1.6,3.4,41,0.00,,---,0.00,VWS V14.01,2013-09-20 04:16:00,
2013-09-19 23:17:00,68.1,43.6,0.00,NE,45,1.3,3.4,41,0.00,,---,0.00,VWS V14.01,2013-09-20 04:17:00,
2013-09-19 23:18:00,68.1,43.6,0.00,NE,45,0.0,3.4,41,0.00,,---,0.00,VWS V14.01,2013-09-20 04:18:00,
2013-09-19 23:19:00,69.0,45.0,0.00,East,90,0.0,3.4,42,0.00,,---,0.00,VWS V14.01,2013-09-20 04:19:00,
2013-09-19 23:20:00,69.2,45.2,0.00,SE,135,2.7,3.4,42,0.00,,---,0.00,VWS V14.01,2013-09-20 04:20:00,
2013-09-19 23:22:00,69.6,44.9,0.00,NE,45,3.4,3.4,41,0.00,,---,0.00,VWS V14.01,2013-09-20 04:22:00,
2013-09-19 23:23:00,69.4,44.7,0.00,ESE,112,2.5,3.4,41,0.00,,---,0.00,VWS V14.01,2013-09-20 04:23:00,
2013-09-19 23:25:00,69.4,44.7,0.00,SE,135,2.7,3.4,41,0.00,,---,0.00,VWS V14.01,2013-09-20 04:25:00,
2013-09-19 23:26:00,69.6,44.2,0.00,South,180,1.3,3.4,40,0.00,,---,0.00,VWS V14.01,2013-09-20 04:26:00,
2013-09-19 23:27:00,69.8,45.0,0.00,West,270,0.0,3.4,41,0.00,,---,0.00,VWS V14.01,2013-09-20 04:27:00,
2013-09-19 23:28:00,69.8,44.4,0.00,NW,315,3.6,3.6,40,0.00,,---,0.00,VWS V14.01,2013-09-20 04:28:00,
2013-09-19 23:29:00,69.6,44.2,0.00,NW,315,2.7,4.9,40,0.00,,---,0.00,VWS V14.01,2013-09-20 04:29:00,
2013-09-19 23:30:00,69.4,43.4,0.00,NW,315,3.8,4.9,39,0.00,,---,0.00,VWS V14.01,2013-09-20 04:30:00,
2013-09-19 23:31:00,69.2,43.9,0.00,West,270,5.4,5.4,40,0.00,,---,0.00,VWS V14.01,2013-09-20 04:31:00,
2013-09-19 23:32:00,69.4,43.4,0.00,West,270,2.7,5.4,39,0.00,,---,0.00,VWS V14.01,2013-09-20 04:32:00,
2013-09-19 23:33:00,69.0,43.7,0.00,West,270,1.6,5.4,40,0.00,,---,0.00,VWS V14.01,2013-09-20 04:33:00,
2013-09-19 23:34:00,69.0,43.7,0.00,SSE,158,2.2,5.4,40,0.00,,---,0.00,VWS V14.01,2013-09-20 04:34:00,
2013-09-19 23:35:00,69.2,43.9,0.00,West,270,3.6,5.4,40,0.00,,---,0.00,VWS V14.01,2013-09-20 04:35:00,
2013-09-19 23:36:00,69.2,43.9,0.00,SE,135,2.2,5.4,40,0.00,,---,0.00,VWS V14.01,2013-09-20 04:36:00,
2013-09-19 23:37:00,69.4,44.1,0.00,SSE,158,2.0,5.4,40,0.00,,---,0.00,VWS V14.01,2013-09-20 04:37:00,
2013-09-19 23:38:00,69.6,44.2,0.00,SE,135,2.9,5.4,40,0.00,,---,0.00,VWS V14.01,2013-09-20 04:38:00,
2013-09-19 23:39:00,69.6,44.2,0.00,SE,135,2.9,5.4,40,0.00,,---,0.00,VWS V14.01,2013-09-20 04:39:00,
2013-09-19 23:40:00,69.4,44.1,0.00,WSW,248,1.1,5.4,40,0.00,,---,0.00,VWS V14.01,2013-09-20 04:40:00,
2013-09-19 23:41:00,69.4,43.4,0.00,SW,225,1.3,5.4,39,0.00,,---,0.00,VWS V14.01,2013-09-20 04:41:00,
2013-09-19 23:42:00,69.4,43.4,0.00,SE,135,5.4,5.4,39,0.00,,---,0.00,VWS V14.01,2013-09-20 04:42:00,
2013-09-19 23:43:00,69.4,43.4,0.00,SE,135,2.9,5.4,39,0.00,,---,0.00,VWS V14.01,2013-09-20 04:43:00,
2013-09-19 23:44:00,69.8,43.7,0.00,SW,225,1.6,5.4,39,0.00,,---,0.00,VWS V14.01,2013-09-20 04:44:00,
2013-09-19 23:45:00,69.6,43.6,0.00,WSW,248,0.0,5.4,39,0.00,,---,0.00,VWS V14.01,2013-09-20 04:45:00,
2013-09-19 23:46:00,69.6,43.6,0.00,NW,315,2.0,2.0,39,0.00,,---,0.00,VWS V14.01,2013-09-20 04:46:00,
2013-09-19 23:47:00,69.6,43.6,0.00,SW,225,3.1,3.1,39,0.00,,---,0.00,VWS V14.01,2013-09-20 04:47:00,
2013-09-19 23:48:00,69.6,43.6,0.00,SW,225,3.1,3.1,39,0.00,,---,0.00,VWS V14.01,2013-09-20 04:48:00,
2013-09-19 23:49:00,69.8,44.4,0.00,SW,225,2.9,3.6,40,0.00,,---,0.00,VWS V14.01,2013-09-20 04:49:00,
2013-09-19 23:50:00,69.8,43.7,0.00,West,270,3.6,3.6,39,0.00,,---,0.00,VWS V14.01,2013-09-20 04:50:00,
2013-09-19 23:52:00,69.8,43.7,0.00,NW,315,1.1,3.6,39,0.00,,---,0.00,VWS V14.01,2013-09-20 04:52:00,
2013-09-19 23:53:00,69.8,43.7,0.00,NNE,22,2.7,3.6,39,0.00,,---,0.00,VWS V14.01,2013-09-20 04:53:00,
2013-09-19 23:54:00,69.8,43.7,0.00,North,0,1.6,3.8,39,0.00,,---,0.00,VWS V14.01,2013-09-20 04:54:00,
2013-09-19 23:55:00,69.8,43.7,0.00,NE,45,3.8,4.3,39,0.00,,---,0.00,VWS V14.01,2013-09-20 04:55:00,
2013-09-19 23:56:00,69.4,43.4,0.00,North,0,3.4,4.3,39,0.00,,---,0.00,VWS V14.01,2013-09-20 04:56:00,
2013-09-19 23:58:00,69.4,43.4,0.00,NE,45,2.0,4.3,39,0.00,,---,0.00,VWS V14.01,2013-09-20 04:58:00,
2013-09-19 23:59:00,70.5,44.4,0.00,South,180,4.0,6.5,39,0.00,,---,0.00,VWS V14.01,2013-09-20 04:59:00,